<?xml version="1.0" encoding="UTF-8" standalone="no" ?>
<gpx xmlns="http://www.topografix.com/GPX/1/1" xmlns:xsi="http://www.w3.org/2001/XMLSchema-instance" xsi:schemaLocation="http://www.topografix.com/GPX/1/1 http://www.topografix.com/GPX/1/1/gpx.xsd" version="1.1" creator="VisuGPX - https://www.visugpx.com">
  <metadata>
    <name>La Luère et le Bouillon</name>
    <desc><![CDATA[Deux montées à la Luère depuis Pollionnay. La descente sur le ruisseau du Bouillon emprunte une piste qui mériterait d\'être nettoyée.]]></desc>
  </metadata>
  <trk>
    <name><![CDATA[ACTIVE LOG 001]]></name>
    <trkseg>
      <trkpt lat="45.76668" lon="4.65179">
        <ele>480</ele>
        <time>2012-12-29T08:09:21Z</time>
      </trkpt>
      <trkpt lat="45.7667" lon="4.65176">
        <ele>480</ele>
        <time>2012-12-29T08:10:28Z</time>
      </trkpt>
      <trkpt lat="45.7667" lon="4.65177">
        <ele>480</ele>
        <time>2012-12-29T08:10:47Z</time>
      </trkpt>
      <trkpt lat="45.76669" lon="4.65179">
        <ele>480</ele>
        <time>2012-12-29T08:10:53Z</time>
      </trkpt>
      <trkpt lat="45.76669" lon="4.65179">
        <ele>480</ele>
        <time>2012-12-29T08:11:01Z</time>
      </trkpt>
      <trkpt lat="45.76668" lon="4.65175">
        <ele>480</ele>
        <time>2012-12-29T08:11:32Z</time>
      </trkpt>
      <trkpt lat="45.76666" lon="4.6517">
        <ele>479</ele>
        <time>2012-12-29T08:11:53Z</time>
      </trkpt>
      <trkpt lat="45.76666" lon="4.65168">
        <ele>480</ele>
        <time>2012-12-29T08:11:55Z</time>
      </trkpt>
      <trkpt lat="45.76667" lon="4.65164">
        <ele>480</ele>
        <time>2012-12-29T08:11:58Z</time>
      </trkpt>
      <trkpt lat="45.76675" lon="4.65162">
        <ele>481</ele>
        <time>2012-12-29T08:12:06Z</time>
      </trkpt>
      <trkpt lat="45.76677" lon="4.65159">
        <ele>481</ele>
        <time>2012-12-29T08:12:17Z</time>
      </trkpt>
      <trkpt lat="45.76678" lon="4.65146">
        <ele>481</ele>
        <time>2012-12-29T08:12:26Z</time>
      </trkpt>
      <trkpt lat="45.76683" lon="4.65129">
        <ele>482</ele>
        <time>2012-12-29T08:12:36Z</time>
      </trkpt>
      <trkpt lat="45.76691" lon="4.65117">
        <ele>482</ele>
        <time>2012-12-29T08:12:46Z</time>
      </trkpt>
      <trkpt lat="45.76698" lon="4.65104">
        <ele>482</ele>
        <time>2012-12-29T08:12:55Z</time>
      </trkpt>
      <trkpt lat="45.76702" lon="4.6509">
        <ele>482</ele>
        <time>2012-12-29T08:13:03Z</time>
      </trkpt>
      <trkpt lat="45.76706" lon="4.65079">
        <ele>485</ele>
        <time>2012-12-29T08:13:09Z</time>
      </trkpt>
      <trkpt lat="45.76707" lon="4.6507">
        <ele>485</ele>
        <time>2012-12-29T08:13:15Z</time>
      </trkpt>
      <trkpt lat="45.76708" lon="4.6506">
        <ele>486</ele>
        <time>2012-12-29T08:13:20Z</time>
      </trkpt>
      <trkpt lat="45.76712" lon="4.65048">
        <ele>486</ele>
        <time>2012-12-29T08:13:26Z</time>
      </trkpt>
      <trkpt lat="45.76715" lon="4.65043">
        <ele>486</ele>
        <time>2012-12-29T08:13:29Z</time>
      </trkpt>
      <trkpt lat="45.76718" lon="4.65032">
        <ele>487</ele>
        <time>2012-12-29T08:13:35Z</time>
      </trkpt>
      <trkpt lat="45.76724" lon="4.65023">
        <ele>487</ele>
        <time>2012-12-29T08:13:42Z</time>
      </trkpt>
      <trkpt lat="45.76731" lon="4.65016">
        <ele>488</ele>
        <time>2012-12-29T08:13:50Z</time>
      </trkpt>
      <trkpt lat="45.76736" lon="4.65009">
        <ele>488</ele>
        <time>2012-12-29T08:13:58Z</time>
      </trkpt>
      <trkpt lat="45.76741" lon="4.65001">
        <ele>489</ele>
        <time>2012-12-29T08:14:06Z</time>
      </trkpt>
      <trkpt lat="45.76746" lon="4.64998">
        <ele>491</ele>
        <time>2012-12-29T08:14:15Z</time>
      </trkpt>
      <trkpt lat="45.76748" lon="4.64998">
        <ele>491</ele>
        <time>2012-12-29T08:14:20Z</time>
      </trkpt>
      <trkpt lat="45.76754" lon="4.64995">
        <ele>492</ele>
        <time>2012-12-29T08:14:27Z</time>
      </trkpt>
      <trkpt lat="45.76756" lon="4.6499">
        <ele>493</ele>
        <time>2012-12-29T08:14:34Z</time>
      </trkpt>
      <trkpt lat="45.76761" lon="4.64984">
        <ele>494</ele>
        <time>2012-12-29T08:14:44Z</time>
      </trkpt>
      <trkpt lat="45.76765" lon="4.64982">
        <ele>495</ele>
        <time>2012-12-29T08:14:54Z</time>
      </trkpt>
      <trkpt lat="45.76764" lon="4.64983">
        <ele>495</ele>
        <time>2012-12-29T08:15:02Z</time>
      </trkpt>
      <trkpt lat="45.76764" lon="4.64983">
        <ele>495</ele>
        <time>2012-12-29T08:15:10Z</time>
      </trkpt>
      <trkpt lat="45.76771" lon="4.6497">
        <ele>496</ele>
        <time>2012-12-29T08:15:19Z</time>
      </trkpt>
      <trkpt lat="45.76773" lon="4.64967">
        <ele>497</ele>
        <time>2012-12-29T08:15:21Z</time>
      </trkpt>
      <trkpt lat="45.7678" lon="4.64964">
        <ele>497</ele>
        <time>2012-12-29T08:15:27Z</time>
      </trkpt>
      <trkpt lat="45.76783" lon="4.64962">
        <ele>497</ele>
        <time>2012-12-29T08:15:30Z</time>
      </trkpt>
      <trkpt lat="45.76786" lon="4.64962">
        <ele>498</ele>
        <time>2012-12-29T08:15:32Z</time>
      </trkpt>
      <trkpt lat="45.76791" lon="4.6496">
        <ele>498</ele>
        <time>2012-12-29T08:15:36Z</time>
      </trkpt>
      <trkpt lat="45.76796" lon="4.64958">
        <ele>498</ele>
        <time>2012-12-29T08:15:40Z</time>
      </trkpt>
      <trkpt lat="45.76806" lon="4.64955">
        <ele>499</ele>
        <time>2012-12-29T08:15:47Z</time>
      </trkpt>
      <trkpt lat="45.76813" lon="4.64955">
        <ele>499</ele>
        <time>2012-12-29T08:15:52Z</time>
      </trkpt>
      <trkpt lat="45.76821" lon="4.64947">
        <ele>500</ele>
        <time>2012-12-29T08:15:59Z</time>
      </trkpt>
      <trkpt lat="45.76828" lon="4.6494">
        <ele>501</ele>
        <time>2012-12-29T08:16:05Z</time>
      </trkpt>
      <trkpt lat="45.7683" lon="4.64939">
        <ele>501</ele>
        <time>2012-12-29T08:16:06Z</time>
      </trkpt>
      <trkpt lat="45.76832" lon="4.64937">
        <ele>502</ele>
        <time>2012-12-29T08:16:08Z</time>
      </trkpt>
      <trkpt lat="45.76838" lon="4.64935">
        <ele>505</ele>
        <time>2012-12-29T08:16:12Z</time>
      </trkpt>
      <trkpt lat="45.76847" lon="4.64927">
        <ele>506</ele>
        <time>2012-12-29T08:16:21Z</time>
      </trkpt>
      <trkpt lat="45.76857" lon="4.64921">
        <ele>506</ele>
        <time>2012-12-29T08:16:31Z</time>
      </trkpt>
      <trkpt lat="45.76866" lon="4.64914">
        <ele>513</ele>
        <time>2012-12-29T08:16:39Z</time>
      </trkpt>
      <trkpt lat="45.76869" lon="4.64912">
        <ele>513</ele>
        <time>2012-12-29T08:16:42Z</time>
      </trkpt>
      <trkpt lat="45.7687" lon="4.6491">
        <ele>513</ele>
        <time>2012-12-29T08:16:44Z</time>
      </trkpt>
      <trkpt lat="45.76881" lon="4.64905">
        <ele>514</ele>
        <time>2012-12-29T08:16:53Z</time>
      </trkpt>
      <trkpt lat="45.76888" lon="4.6491">
        <ele>514</ele>
        <time>2012-12-29T08:17:01Z</time>
      </trkpt>
      <trkpt lat="45.76897" lon="4.64913">
        <ele>514</ele>
        <time>2012-12-29T08:17:08Z</time>
      </trkpt>
      <trkpt lat="45.76905" lon="4.64913">
        <ele>514</ele>
        <time>2012-12-29T08:17:14Z</time>
      </trkpt>
      <trkpt lat="45.76913" lon="4.64914">
        <ele>514</ele>
        <time>2012-12-29T08:17:21Z</time>
      </trkpt>
      <trkpt lat="45.76915" lon="4.64913">
        <ele>514</ele>
        <time>2012-12-29T08:17:24Z</time>
      </trkpt>
      <trkpt lat="45.76926" lon="4.64925">
        <ele>512</ele>
        <time>2012-12-29T08:17:32Z</time>
      </trkpt>
      <trkpt lat="45.7693" lon="4.64927">
        <ele>512</ele>
        <time>2012-12-29T08:17:35Z</time>
      </trkpt>
      <trkpt lat="45.76933" lon="4.64928">
        <ele>512</ele>
        <time>2012-12-29T08:17:37Z</time>
      </trkpt>
      <trkpt lat="45.76943" lon="4.64941">
        <ele>511</ele>
        <time>2012-12-29T08:17:46Z</time>
      </trkpt>
      <trkpt lat="45.7695" lon="4.64947">
        <ele>510</ele>
        <time>2012-12-29T08:17:54Z</time>
      </trkpt>
      <trkpt lat="45.76954" lon="4.64949">
        <ele>510</ele>
        <time>2012-12-29T08:18:01Z</time>
      </trkpt>
      <trkpt lat="45.7696" lon="4.64953">
        <ele>510</ele>
        <time>2012-12-29T08:18:07Z</time>
      </trkpt>
      <trkpt lat="45.76964" lon="4.64956">
        <ele>510</ele>
        <time>2012-12-29T08:18:11Z</time>
      </trkpt>
      <trkpt lat="45.76968" lon="4.64955">
        <ele>510</ele>
        <time>2012-12-29T08:18:15Z</time>
      </trkpt>
      <trkpt lat="45.76971" lon="4.64946">
        <ele>511</ele>
        <time>2012-12-29T08:18:22Z</time>
      </trkpt>
      <trkpt lat="45.76974" lon="4.64938">
        <ele>512</ele>
        <time>2012-12-29T08:18:29Z</time>
      </trkpt>
      <trkpt lat="45.76975" lon="4.64934">
        <ele>512</ele>
        <time>2012-12-29T08:18:32Z</time>
      </trkpt>
      <trkpt lat="45.76976" lon="4.64931">
        <ele>512</ele>
        <time>2012-12-29T08:18:36Z</time>
      </trkpt>
      <trkpt lat="45.76972" lon="4.6492">
        <ele>512</ele>
        <time>2012-12-29T08:18:46Z</time>
      </trkpt>
      <trkpt lat="45.76967" lon="4.64907">
        <ele>518</ele>
        <time>2012-12-29T08:18:57Z</time>
      </trkpt>
      <trkpt lat="45.76966" lon="4.64896">
        <ele>518</ele>
        <time>2012-12-29T08:19:03Z</time>
      </trkpt>
      <trkpt lat="45.76963" lon="4.64878">
        <ele>519</ele>
        <time>2012-12-29T08:19:13Z</time>
      </trkpt>
      <trkpt lat="45.76961" lon="4.6487">
        <ele>520</ele>
        <time>2012-12-29T08:19:18Z</time>
      </trkpt>
      <trkpt lat="45.76962" lon="4.6486">
        <ele>520</ele>
        <time>2012-12-29T08:19:23Z</time>
      </trkpt>
      <trkpt lat="45.76962" lon="4.64854">
        <ele>520</ele>
        <time>2012-12-29T08:19:26Z</time>
      </trkpt>
      <trkpt lat="45.76958" lon="4.64844">
        <ele>521</ele>
        <time>2012-12-29T08:19:34Z</time>
      </trkpt>
      <trkpt lat="45.76956" lon="4.64834">
        <ele>521</ele>
        <time>2012-12-29T08:19:42Z</time>
      </trkpt>
      <trkpt lat="45.76955" lon="4.6483">
        <ele>527</ele>
        <time>2012-12-29T08:19:45Z</time>
      </trkpt>
      <trkpt lat="45.76951" lon="4.64823">
        <ele>527</ele>
        <time>2012-12-29T08:19:50Z</time>
      </trkpt>
      <trkpt lat="45.76946" lon="4.64812">
        <ele>528</ele>
        <time>2012-12-29T08:19:58Z</time>
      </trkpt>
      <trkpt lat="45.76942" lon="4.64802">
        <ele>528</ele>
        <time>2012-12-29T08:20:06Z</time>
      </trkpt>
      <trkpt lat="45.76939" lon="4.64793">
        <ele>529</ele>
        <time>2012-12-29T08:20:14Z</time>
      </trkpt>
      <trkpt lat="45.76938" lon="4.64791">
        <ele>529</ele>
        <time>2012-12-29T08:20:16Z</time>
      </trkpt>
      <trkpt lat="45.76933" lon="4.64786">
        <ele>530</ele>
        <time>2012-12-29T08:20:21Z</time>
      </trkpt>
      <trkpt lat="45.76932" lon="4.64783">
        <ele>530</ele>
        <time>2012-12-29T08:20:23Z</time>
      </trkpt>
      <trkpt lat="45.76936" lon="4.64769">
        <ele>531</ele>
        <time>2012-12-29T08:20:30Z</time>
      </trkpt>
      <trkpt lat="45.76941" lon="4.64755">
        <ele>532</ele>
        <time>2012-12-29T08:20:39Z</time>
      </trkpt>
      <trkpt lat="45.76945" lon="4.64748">
        <ele>538</ele>
        <time>2012-12-29T08:20:44Z</time>
      </trkpt>
      <trkpt lat="45.76949" lon="4.64734">
        <ele>539</ele>
        <time>2012-12-29T08:20:51Z</time>
      </trkpt>
      <trkpt lat="45.76954" lon="4.64723">
        <ele>540</ele>
        <time>2012-12-29T08:20:58Z</time>
      </trkpt>
      <trkpt lat="45.76959" lon="4.64709">
        <ele>541</ele>
        <time>2012-12-29T08:21:07Z</time>
      </trkpt>
      <trkpt lat="45.7696" lon="4.64708">
        <ele>541</ele>
        <time>2012-12-29T08:21:08Z</time>
      </trkpt>
      <trkpt lat="45.76963" lon="4.64699">
        <ele>542</ele>
        <time>2012-12-29T08:21:14Z</time>
      </trkpt>
      <trkpt lat="45.76967" lon="4.64687">
        <ele>543</ele>
        <time>2012-12-29T08:21:21Z</time>
      </trkpt>
      <trkpt lat="45.76972" lon="4.64677">
        <ele>543</ele>
        <time>2012-12-29T08:21:28Z</time>
      </trkpt>
      <trkpt lat="45.76976" lon="4.64664">
        <ele>551</ele>
        <time>2012-12-29T08:21:35Z</time>
      </trkpt>
      <trkpt lat="45.7698" lon="4.64655">
        <ele>552</ele>
        <time>2012-12-29T08:21:40Z</time>
      </trkpt>
      <trkpt lat="45.76983" lon="4.64649">
        <ele>552</ele>
        <time>2012-12-29T08:21:45Z</time>
      </trkpt>
      <trkpt lat="45.76987" lon="4.64644">
        <ele>553</ele>
        <time>2012-12-29T08:21:49Z</time>
      </trkpt>
      <trkpt lat="45.76992" lon="4.64633">
        <ele>554</ele>
        <time>2012-12-29T08:21:57Z</time>
      </trkpt>
      <trkpt lat="45.76999" lon="4.64625">
        <ele>555</ele>
        <time>2012-12-29T08:22:04Z</time>
      </trkpt>
      <trkpt lat="45.77002" lon="4.64622">
        <ele>553</ele>
        <time>2012-12-29T08:22:08Z</time>
      </trkpt>
      <trkpt lat="45.76999" lon="4.64622">
        <ele>555</ele>
        <time>2012-12-29T08:22:13Z</time>
      </trkpt>
      <trkpt lat="45.76994" lon="4.64621">
        <ele>555</ele>
        <time>2012-12-29T08:22:19Z</time>
      </trkpt>
      <trkpt lat="45.7699" lon="4.6462">
        <ele>555</ele>
        <time>2012-12-29T08:22:28Z</time>
      </trkpt>
      <trkpt lat="45.76993" lon="4.64619">
        <ele>556</ele>
        <time>2012-12-29T08:22:33Z</time>
      </trkpt>
      <trkpt lat="45.77001" lon="4.64622">
        <ele>553</ele>
        <time>2012-12-29T08:22:41Z</time>
      </trkpt>
      <trkpt lat="45.77006" lon="4.64621">
        <ele>553</ele>
        <time>2012-12-29T08:22:48Z</time>
      </trkpt>
      <trkpt lat="45.77007" lon="4.64619">
        <ele>553</ele>
        <time>2012-12-29T08:22:50Z</time>
      </trkpt>
      <trkpt lat="45.77009" lon="4.64615">
        <ele>554</ele>
        <time>2012-12-29T08:22:53Z</time>
      </trkpt>
      <trkpt lat="45.77014" lon="4.64606">
        <ele>555</ele>
        <time>2012-12-29T08:23:00Z</time>
      </trkpt>
      <trkpt lat="45.77017" lon="4.64599">
        <ele>556</ele>
        <time>2012-12-29T08:23:07Z</time>
      </trkpt>
      <trkpt lat="45.7702" lon="4.64598">
        <ele>555</ele>
        <time>2012-12-29T08:23:12Z</time>
      </trkpt>
      <trkpt lat="45.7702" lon="4.646">
        <ele>555</ele>
        <time>2012-12-29T08:23:13Z</time>
      </trkpt>
      <trkpt lat="45.77019" lon="4.64616">
        <ele>553</ele>
        <time>2012-12-29T08:23:23Z</time>
      </trkpt>
      <trkpt lat="45.77019" lon="4.64615">
        <ele>553</ele>
        <time>2012-12-29T08:23:28Z</time>
      </trkpt>
      <trkpt lat="45.77023" lon="4.64599">
        <ele>555</ele>
        <time>2012-12-29T08:23:37Z</time>
      </trkpt>
      <trkpt lat="45.77024" lon="4.64587">
        <ele>556</ele>
        <time>2012-12-29T08:23:43Z</time>
      </trkpt>
      <trkpt lat="45.77026" lon="4.64583">
        <ele>565</ele>
        <time>2012-12-29T08:23:46Z</time>
      </trkpt>
      <trkpt lat="45.77028" lon="4.6458">
        <ele>565</ele>
        <time>2012-12-29T08:23:49Z</time>
      </trkpt>
      <trkpt lat="45.77031" lon="4.64569">
        <ele>566</ele>
        <time>2012-12-29T08:23:58Z</time>
      </trkpt>
      <trkpt lat="45.77038" lon="4.64558">
        <ele>566</ele>
        <time>2012-12-29T08:24:05Z</time>
      </trkpt>
      <trkpt lat="45.77043" lon="4.6455">
        <ele>567</ele>
        <time>2012-12-29T08:24:11Z</time>
      </trkpt>
      <trkpt lat="45.77043" lon="4.64549">
        <ele>567</ele>
        <time>2012-12-29T08:24:12Z</time>
      </trkpt>
      <trkpt lat="45.77045" lon="4.64546">
        <ele>567</ele>
        <time>2012-12-29T08:24:14Z</time>
      </trkpt>
      <trkpt lat="45.77051" lon="4.64536">
        <ele>568</ele>
        <time>2012-12-29T08:24:22Z</time>
      </trkpt>
      <trkpt lat="45.77055" lon="4.64526">
        <ele>569</ele>
        <time>2012-12-29T08:24:30Z</time>
      </trkpt>
      <trkpt lat="45.77058" lon="4.64519">
        <ele>570</ele>
        <time>2012-12-29T08:24:38Z</time>
      </trkpt>
      <trkpt lat="45.77066" lon="4.64511">
        <ele>570</ele>
        <time>2012-12-29T08:24:49Z</time>
      </trkpt>
      <trkpt lat="45.77071" lon="4.64506">
        <ele>571</ele>
        <time>2012-12-29T08:24:54Z</time>
      </trkpt>
      <trkpt lat="45.77078" lon="4.64493">
        <ele>576</ele>
        <time>2012-12-29T08:25:03Z</time>
      </trkpt>
      <trkpt lat="45.77086" lon="4.64482">
        <ele>572</ele>
        <time>2012-12-29T08:25:14Z</time>
      </trkpt>
      <trkpt lat="45.7709" lon="4.64474">
        <ele>572</ele>
        <time>2012-12-29T08:25:21Z</time>
      </trkpt>
      <trkpt lat="45.77088" lon="4.6447">
        <ele>572</ele>
        <time>2012-12-29T08:25:28Z</time>
      </trkpt>
      <trkpt lat="45.77086" lon="4.64469">
        <ele>572</ele>
        <time>2012-12-29T08:25:33Z</time>
      </trkpt>
      <trkpt lat="45.77081" lon="4.64466">
        <ele>581</ele>
        <time>2012-12-29T08:25:39Z</time>
      </trkpt>
      <trkpt lat="45.77077" lon="4.64458">
        <ele>582</ele>
        <time>2012-12-29T08:25:47Z</time>
      </trkpt>
      <trkpt lat="45.77076" lon="4.6445">
        <ele>583</ele>
        <time>2012-12-29T08:25:54Z</time>
      </trkpt>
      <trkpt lat="45.7707" lon="4.64445">
        <ele>584</ele>
        <time>2012-12-29T08:26:02Z</time>
      </trkpt>
      <trkpt lat="45.77066" lon="4.64437">
        <ele>585</ele>
        <time>2012-12-29T08:26:10Z</time>
      </trkpt>
      <trkpt lat="45.7706" lon="4.64428">
        <ele>585</ele>
        <time>2012-12-29T08:26:20Z</time>
      </trkpt>
      <trkpt lat="45.77056" lon="4.64418">
        <ele>586</ele>
        <time>2012-12-29T08:26:29Z</time>
      </trkpt>
      <trkpt lat="45.77052" lon="4.64411">
        <ele>593</ele>
        <time>2012-12-29T08:26:36Z</time>
      </trkpt>
      <trkpt lat="45.77049" lon="4.64401">
        <ele>594</ele>
        <time>2012-12-29T08:26:44Z</time>
      </trkpt>
      <trkpt lat="45.77045" lon="4.64389">
        <ele>595</ele>
        <time>2012-12-29T08:26:54Z</time>
      </trkpt>
      <trkpt lat="45.77043" lon="4.6438">
        <ele>596</ele>
        <time>2012-12-29T08:27:01Z</time>
      </trkpt>
      <trkpt lat="45.77041" lon="4.64373">
        <ele>596</ele>
        <time>2012-12-29T08:27:08Z</time>
      </trkpt>
      <trkpt lat="45.77039" lon="4.64371">
        <ele>597</ele>
        <time>2012-12-29T08:27:11Z</time>
      </trkpt>
      <trkpt lat="45.7703" lon="4.64367">
        <ele>597</ele>
        <time>2012-12-29T08:27:20Z</time>
      </trkpt>
      <trkpt lat="45.77023" lon="4.64364">
        <ele>598</ele>
        <time>2012-12-29T08:27:27Z</time>
      </trkpt>
      <trkpt lat="45.77016" lon="4.64361">
        <ele>599</ele>
        <time>2012-12-29T08:27:34Z</time>
      </trkpt>
      <trkpt lat="45.77012" lon="4.64357">
        <ele>600</ele>
        <time>2012-12-29T08:27:40Z</time>
      </trkpt>
      <trkpt lat="45.77008" lon="4.6435">
        <ele>601</ele>
        <time>2012-12-29T08:27:49Z</time>
      </trkpt>
      <trkpt lat="45.77006" lon="4.64348">
        <ele>602</ele>
        <time>2012-12-29T08:27:51Z</time>
      </trkpt>
      <trkpt lat="45.77001" lon="4.64343">
        <ele>604</ele>
        <time>2012-12-29T08:27:55Z</time>
      </trkpt>
      <trkpt lat="45.76991" lon="4.6433">
        <ele>608</ele>
        <time>2012-12-29T08:28:03Z</time>
      </trkpt>
      <trkpt lat="45.76985" lon="4.64319">
        <ele>609</ele>
        <time>2012-12-29T08:28:11Z</time>
      </trkpt>
      <trkpt lat="45.76983" lon="4.64316">
        <ele>609</ele>
        <time>2012-12-29T08:28:13Z</time>
      </trkpt>
      <trkpt lat="45.76976" lon="4.64306">
        <ele>610</ele>
        <time>2012-12-29T08:28:21Z</time>
      </trkpt>
      <trkpt lat="45.76965" lon="4.64295">
        <ele>611</ele>
        <time>2012-12-29T08:28:30Z</time>
      </trkpt>
      <trkpt lat="45.76964" lon="4.64294">
        <ele>611</ele>
        <time>2012-12-29T08:28:31Z</time>
      </trkpt>
      <trkpt lat="45.76956" lon="4.64283">
        <ele>612</ele>
        <time>2012-12-29T08:28:39Z</time>
      </trkpt>
      <trkpt lat="45.76948" lon="4.64272">
        <ele>612</ele>
        <time>2012-12-29T08:28:47Z</time>
      </trkpt>
      <trkpt lat="45.76941" lon="4.64262">
        <ele>613</ele>
        <time>2012-12-29T08:28:55Z</time>
      </trkpt>
      <trkpt lat="45.76935" lon="4.64254">
        <ele>614</ele>
        <time>2012-12-29T08:29:02Z</time>
      </trkpt>
      <trkpt lat="45.7693" lon="4.64247">
        <ele>621</ele>
        <time>2012-12-29T08:29:08Z</time>
      </trkpt>
      <trkpt lat="45.76924" lon="4.64238">
        <ele>621</ele>
        <time>2012-12-29T08:29:14Z</time>
      </trkpt>
      <trkpt lat="45.76913" lon="4.64229">
        <ele>620</ele>
        <time>2012-12-29T08:29:22Z</time>
      </trkpt>
      <trkpt lat="45.76904" lon="4.64222">
        <ele>621</ele>
        <time>2012-12-29T08:29:29Z</time>
      </trkpt>
      <trkpt lat="45.76903" lon="4.64221">
        <ele>621</ele>
        <time>2012-12-29T08:29:30Z</time>
      </trkpt>
      <trkpt lat="45.76899" lon="4.64216">
        <ele>622</ele>
        <time>2012-12-29T08:29:35Z</time>
      </trkpt>
      <trkpt lat="45.76889" lon="4.6421">
        <ele>622</ele>
        <time>2012-12-29T08:29:43Z</time>
      </trkpt>
      <trkpt lat="45.76883" lon="4.64206">
        <ele>622</ele>
        <time>2012-12-29T08:29:48Z</time>
      </trkpt>
      <trkpt lat="45.76882" lon="4.64206">
        <ele>622</ele>
        <time>2012-12-29T08:29:49Z</time>
      </trkpt>
      <trkpt lat="45.7688" lon="4.64204">
        <ele>623</ele>
        <time>2012-12-29T08:29:51Z</time>
      </trkpt>
      <trkpt lat="45.7687" lon="4.64199">
        <ele>623</ele>
        <time>2012-12-29T08:29:59Z</time>
      </trkpt>
      <trkpt lat="45.76865" lon="4.64194">
        <ele>623</ele>
        <time>2012-12-29T08:30:07Z</time>
      </trkpt>
      <trkpt lat="45.76863" lon="4.64187">
        <ele>624</ele>
        <time>2012-12-29T08:30:14Z</time>
      </trkpt>
      <trkpt lat="45.76863" lon="4.64174">
        <ele>624</ele>
        <time>2012-12-29T08:30:22Z</time>
      </trkpt>
      <trkpt lat="45.76863" lon="4.64163">
        <ele>633</ele>
        <time>2012-12-29T08:30:30Z</time>
      </trkpt>
      <trkpt lat="45.76862" lon="4.64151">
        <ele>633</ele>
        <time>2012-12-29T08:30:39Z</time>
      </trkpt>
      <trkpt lat="45.76862" lon="4.64136">
        <ele>634</ele>
        <time>2012-12-29T08:30:46Z</time>
      </trkpt>
      <trkpt lat="45.76862" lon="4.64125">
        <ele>635</ele>
        <time>2012-12-29T08:30:54Z</time>
      </trkpt>
      <trkpt lat="45.76861" lon="4.64117">
        <ele>636</ele>
        <time>2012-12-29T08:31:02Z</time>
      </trkpt>
      <trkpt lat="45.76863" lon="4.64107">
        <ele>637</ele>
        <time>2012-12-29T08:31:10Z</time>
      </trkpt>
      <trkpt lat="45.76861" lon="4.64099">
        <ele>637</ele>
        <time>2012-12-29T08:31:18Z</time>
      </trkpt>
      <trkpt lat="45.76862" lon="4.64095">
        <ele>637</ele>
        <time>2012-12-29T08:31:21Z</time>
      </trkpt>
      <trkpt lat="45.7686" lon="4.64085">
        <ele>637</ele>
        <time>2012-12-29T08:31:29Z</time>
      </trkpt>
      <trkpt lat="45.7686" lon="4.64074">
        <ele>645</ele>
        <time>2012-12-29T08:31:36Z</time>
      </trkpt>
      <trkpt lat="45.76858" lon="4.64063">
        <ele>646</ele>
        <time>2012-12-29T08:31:44Z</time>
      </trkpt>
      <trkpt lat="45.76858" lon="4.64061">
        <ele>646</ele>
        <time>2012-12-29T08:31:45Z</time>
      </trkpt>
      <trkpt lat="45.76857" lon="4.6405">
        <ele>647</ele>
        <time>2012-12-29T08:31:52Z</time>
      </trkpt>
      <trkpt lat="45.76859" lon="4.6404">
        <ele>648</ele>
        <time>2012-12-29T08:32:00Z</time>
      </trkpt>
      <trkpt lat="45.7686" lon="4.64033">
        <ele>649</ele>
        <time>2012-12-29T08:32:05Z</time>
      </trkpt>
      <trkpt lat="45.7686" lon="4.64018">
        <ele>650</ele>
        <time>2012-12-29T08:32:15Z</time>
      </trkpt>
      <trkpt lat="45.7686" lon="4.6401">
        <ele>650</ele>
        <time>2012-12-29T08:32:22Z</time>
      </trkpt>
      <trkpt lat="45.7686" lon="4.64003">
        <ele>650</ele>
        <time>2012-12-29T08:32:28Z</time>
      </trkpt>
      <trkpt lat="45.76861" lon="4.63993">
        <ele>660</ele>
        <time>2012-12-29T08:32:35Z</time>
      </trkpt>
      <trkpt lat="45.7686" lon="4.63987">
        <ele>660</ele>
        <time>2012-12-29T08:32:41Z</time>
      </trkpt>
      <trkpt lat="45.76861" lon="4.63981">
        <ele>661</ele>
        <time>2012-12-29T08:32:48Z</time>
      </trkpt>
      <trkpt lat="45.76863" lon="4.63974">
        <ele>662</ele>
        <time>2012-12-29T08:32:54Z</time>
      </trkpt>
      <trkpt lat="45.76865" lon="4.63966">
        <ele>663</ele>
        <time>2012-12-29T08:33:01Z</time>
      </trkpt>
      <trkpt lat="45.76865" lon="4.63954">
        <ele>664</ele>
        <time>2012-12-29T08:33:11Z</time>
      </trkpt>
      <trkpt lat="45.76866" lon="4.63945">
        <ele>665</ele>
        <time>2012-12-29T08:33:19Z</time>
      </trkpt>
      <trkpt lat="45.76868" lon="4.63937">
        <ele>666</ele>
        <time>2012-12-29T08:33:26Z</time>
      </trkpt>
      <trkpt lat="45.76868" lon="4.6393">
        <ele>667</ele>
        <time>2012-12-29T08:33:35Z</time>
      </trkpt>
      <trkpt lat="45.76868" lon="4.63928">
        <ele>667</ele>
        <time>2012-12-29T08:33:37Z</time>
      </trkpt>
      <trkpt lat="45.76866" lon="4.63919">
        <ele>667</ele>
        <time>2012-12-29T08:33:45Z</time>
      </trkpt>
      <trkpt lat="45.76863" lon="4.63914">
        <ele>676</ele>
        <time>2012-12-29T08:33:51Z</time>
      </trkpt>
      <trkpt lat="45.76861" lon="4.63904">
        <ele>676</ele>
        <time>2012-12-29T08:33:59Z</time>
      </trkpt>
      <trkpt lat="45.76858" lon="4.639">
        <ele>676</ele>
        <time>2012-12-29T08:34:04Z</time>
      </trkpt>
      <trkpt lat="45.76852" lon="4.63896">
        <ele>675</ele>
        <time>2012-12-29T08:34:11Z</time>
      </trkpt>
      <trkpt lat="45.76851" lon="4.63888">
        <ele>676</ele>
        <time>2012-12-29T08:34:18Z</time>
      </trkpt>
      <trkpt lat="45.76848" lon="4.63877">
        <ele>677</ele>
        <time>2012-12-29T08:34:27Z</time>
      </trkpt>
      <trkpt lat="45.76845" lon="4.63867">
        <ele>678</ele>
        <time>2012-12-29T08:34:34Z</time>
      </trkpt>
      <trkpt lat="45.76843" lon="4.63852">
        <ele>679</ele>
        <time>2012-12-29T08:34:45Z</time>
      </trkpt>
      <trkpt lat="45.76841" lon="4.63842">
        <ele>679</ele>
        <time>2012-12-29T08:34:52Z</time>
      </trkpt>
      <trkpt lat="45.76841" lon="4.63828">
        <ele>683</ele>
        <time>2012-12-29T08:35:00Z</time>
      </trkpt>
      <trkpt lat="45.76839" lon="4.63813">
        <ele>686</ele>
        <time>2012-12-29T08:35:08Z</time>
      </trkpt>
      <trkpt lat="45.76839" lon="4.63801">
        <ele>688</ele>
        <time>2012-12-29T08:35:16Z</time>
      </trkpt>
      <trkpt lat="45.76837" lon="4.63788">
        <ele>689</ele>
        <time>2012-12-29T08:35:24Z</time>
      </trkpt>
      <trkpt lat="45.76835" lon="4.63777">
        <ele>690</ele>
        <time>2012-12-29T08:35:32Z</time>
      </trkpt>
      <trkpt lat="45.76835" lon="4.63765">
        <ele>691</ele>
        <time>2012-12-29T08:35:40Z</time>
      </trkpt>
      <trkpt lat="45.76837" lon="4.63758">
        <ele>691</ele>
        <time>2012-12-29T08:35:47Z</time>
      </trkpt>
      <trkpt lat="45.76839" lon="4.63747">
        <ele>693</ele>
        <time>2012-12-29T08:35:53Z</time>
      </trkpt>
      <trkpt lat="45.76843" lon="4.63737">
        <ele>695</ele>
        <time>2012-12-29T08:36:00Z</time>
      </trkpt>
      <trkpt lat="45.76846" lon="4.63731">
        <ele>697</ele>
        <time>2012-12-29T08:36:07Z</time>
      </trkpt>
      <trkpt lat="45.76851" lon="4.63715">
        <ele>699</ele>
        <time>2012-12-29T08:36:17Z</time>
      </trkpt>
      <trkpt lat="45.76854" lon="4.63706">
        <ele>699</ele>
        <time>2012-12-29T08:36:24Z</time>
      </trkpt>
      <trkpt lat="45.76856" lon="4.63703">
        <ele>700</ele>
        <time>2012-12-29T08:36:27Z</time>
      </trkpt>
      <trkpt lat="45.76857" lon="4.637">
        <ele>700</ele>
        <time>2012-12-29T08:36:30Z</time>
      </trkpt>
      <trkpt lat="45.76861" lon="4.63689">
        <ele>701</ele>
        <time>2012-12-29T08:36:39Z</time>
      </trkpt>
      <trkpt lat="45.76863" lon="4.63684">
        <ele>701</ele>
        <time>2012-12-29T08:36:42Z</time>
      </trkpt>
      <trkpt lat="45.76867" lon="4.63668">
        <ele>701</ele>
        <time>2012-12-29T08:36:53Z</time>
      </trkpt>
      <trkpt lat="45.76869" lon="4.63659">
        <ele>706</ele>
        <time>2012-12-29T08:37:00Z</time>
      </trkpt>
      <trkpt lat="45.76871" lon="4.63649">
        <ele>707</ele>
        <time>2012-12-29T08:37:08Z</time>
      </trkpt>
      <trkpt lat="45.76873" lon="4.63635">
        <ele>707</ele>
        <time>2012-12-29T08:37:17Z</time>
      </trkpt>
      <trkpt lat="45.76874" lon="4.63632">
        <ele>707</ele>
        <time>2012-12-29T08:37:19Z</time>
      </trkpt>
      <trkpt lat="45.76879" lon="4.63628">
        <ele>708</ele>
        <time>2012-12-29T08:37:24Z</time>
      </trkpt>
      <trkpt lat="45.76885" lon="4.63619">
        <ele>709</ele>
        <time>2012-12-29T08:37:32Z</time>
      </trkpt>
      <trkpt lat="45.76896" lon="4.636">
        <ele>711</ele>
        <time>2012-12-29T08:37:43Z</time>
      </trkpt>
      <trkpt lat="45.76904" lon="4.63594">
        <ele>713</ele>
        <time>2012-12-29T08:37:52Z</time>
      </trkpt>
      <trkpt lat="45.7691" lon="4.63587">
        <ele>715</ele>
        <time>2012-12-29T08:38:00Z</time>
      </trkpt>
      <trkpt lat="45.76911" lon="4.63586">
        <ele>716</ele>
        <time>2012-12-29T08:38:02Z</time>
      </trkpt>
      <trkpt lat="45.76916" lon="4.63584">
        <ele>718</ele>
        <time>2012-12-29T08:38:07Z</time>
      </trkpt>
      <trkpt lat="45.76919" lon="4.63585">
        <ele>718</ele>
        <time>2012-12-29T08:38:09Z</time>
      </trkpt>
      <trkpt lat="45.76922" lon="4.63587">
        <ele>718</ele>
        <time>2012-12-29T08:38:12Z</time>
      </trkpt>
      <trkpt lat="45.76929" lon="4.63582">
        <ele>722</ele>
        <time>2012-12-29T08:38:21Z</time>
      </trkpt>
      <trkpt lat="45.76932" lon="4.63574">
        <ele>723</ele>
        <time>2012-12-29T08:38:30Z</time>
      </trkpt>
      <trkpt lat="45.76932" lon="4.63566">
        <ele>724</ele>
        <time>2012-12-29T08:38:39Z</time>
      </trkpt>
      <trkpt lat="45.76934" lon="4.6356">
        <ele>724</ele>
        <time>2012-12-29T08:38:45Z</time>
      </trkpt>
      <trkpt lat="45.76939" lon="4.63547">
        <ele>726</ele>
        <time>2012-12-29T08:38:54Z</time>
      </trkpt>
      <trkpt lat="45.76942" lon="4.63536">
        <ele>727</ele>
        <time>2012-12-29T08:39:01Z</time>
      </trkpt>
      <trkpt lat="45.76941" lon="4.63526">
        <ele>727</ele>
        <time>2012-12-29T08:39:08Z</time>
      </trkpt>
      <trkpt lat="45.76942" lon="4.63515">
        <ele>727</ele>
        <time>2012-12-29T08:39:16Z</time>
      </trkpt>
      <trkpt lat="45.76941" lon="4.6351">
        <ele>727</ele>
        <time>2012-12-29T08:39:20Z</time>
      </trkpt>
      <trkpt lat="45.76936" lon="4.635">
        <ele>726</ele>
        <time>2012-12-29T08:39:27Z</time>
      </trkpt>
      <trkpt lat="45.7693" lon="4.63489">
        <ele>729</ele>
        <time>2012-12-29T08:39:34Z</time>
      </trkpt>
      <trkpt lat="45.7693" lon="4.63488">
        <ele>729</ele>
        <time>2012-12-29T08:39:35Z</time>
      </trkpt>
      <trkpt lat="45.76929" lon="4.63477">
        <ele>730</ele>
        <time>2012-12-29T08:39:40Z</time>
      </trkpt>
      <trkpt lat="45.76927" lon="4.63463">
        <ele>731</ele>
        <time>2012-12-29T08:39:49Z</time>
      </trkpt>
      <trkpt lat="45.76927" lon="4.63461">
        <ele>731</ele>
        <time>2012-12-29T08:39:50Z</time>
      </trkpt>
      <trkpt lat="45.76928" lon="4.6345">
        <ele>731</ele>
        <time>2012-12-29T08:39:55Z</time>
      </trkpt>
      <trkpt lat="45.76928" lon="4.63432">
        <ele>731</ele>
        <time>2012-12-29T08:40:03Z</time>
      </trkpt>
      <trkpt lat="45.76928" lon="4.63428">
        <ele>731</ele>
        <time>2012-12-29T08:40:05Z</time>
      </trkpt>
      <trkpt lat="45.76925" lon="4.63415">
        <ele>731</ele>
        <time>2012-12-29T08:40:13Z</time>
      </trkpt>
      <trkpt lat="45.76926" lon="4.6341">
        <ele>731</ele>
        <time>2012-12-29T08:40:17Z</time>
      </trkpt>
      <trkpt lat="45.76931" lon="4.63403">
        <ele>732</ele>
        <time>2012-12-29T08:40:23Z</time>
      </trkpt>
      <trkpt lat="45.76935" lon="4.63393">
        <ele>732</ele>
        <time>2012-12-29T08:40:30Z</time>
      </trkpt>
      <trkpt lat="45.76935" lon="4.63389">
        <ele>733</ele>
        <time>2012-12-29T08:40:36Z</time>
      </trkpt>
      <trkpt lat="45.76935" lon="4.63378">
        <ele>733</ele>
        <time>2012-12-29T08:40:43Z</time>
      </trkpt>
      <trkpt lat="45.76933" lon="4.63363">
        <ele>733</ele>
        <time>2012-12-29T08:40:51Z</time>
      </trkpt>
      <trkpt lat="45.7693" lon="4.63352">
        <ele>732</ele>
        <time>2012-12-29T08:40:59Z</time>
      </trkpt>
      <trkpt lat="45.76929" lon="4.63349">
        <ele>732</ele>
        <time>2012-12-29T08:41:01Z</time>
      </trkpt>
      <trkpt lat="45.7693" lon="4.63344">
        <ele>732</ele>
        <time>2012-12-29T08:41:04Z</time>
      </trkpt>
      <trkpt lat="45.76935" lon="4.6333">
        <ele>731</ele>
        <time>2012-12-29T08:41:13Z</time>
      </trkpt>
      <trkpt lat="45.76936" lon="4.63315">
        <ele>731</ele>
        <time>2012-12-29T08:41:21Z</time>
      </trkpt>
      <trkpt lat="45.76934" lon="4.63305">
        <ele>730</ele>
        <time>2012-12-29T08:41:26Z</time>
      </trkpt>
      <trkpt lat="45.76937" lon="4.63296">
        <ele>730</ele>
        <time>2012-12-29T08:41:31Z</time>
      </trkpt>
      <trkpt lat="45.76941" lon="4.63289">
        <ele>730</ele>
        <time>2012-12-29T08:41:35Z</time>
      </trkpt>
      <trkpt lat="45.76948" lon="4.63281">
        <ele>730</ele>
        <time>2012-12-29T08:41:42Z</time>
      </trkpt>
      <trkpt lat="45.76949" lon="4.63279">
        <ele>730</ele>
        <time>2012-12-29T08:41:44Z</time>
      </trkpt>
      <trkpt lat="45.76948" lon="4.63274">
        <ele>730</ele>
        <time>2012-12-29T08:41:48Z</time>
      </trkpt>
      <trkpt lat="45.76949" lon="4.63266">
        <ele>730</ele>
        <time>2012-12-29T08:41:55Z</time>
      </trkpt>
      <trkpt lat="45.76955" lon="4.63257">
        <ele>729</ele>
        <time>2012-12-29T08:42:04Z</time>
      </trkpt>
      <trkpt lat="45.76966" lon="4.63248">
        <ele>725</ele>
        <time>2012-12-29T08:42:13Z</time>
      </trkpt>
      <trkpt lat="45.7697" lon="4.63245">
        <ele>724</ele>
        <time>2012-12-29T08:42:16Z</time>
      </trkpt>
      <trkpt lat="45.76976" lon="4.63241">
        <ele>724</ele>
        <time>2012-12-29T08:42:20Z</time>
      </trkpt>
      <trkpt lat="45.76984" lon="4.63234">
        <ele>724</ele>
        <time>2012-12-29T08:42:25Z</time>
      </trkpt>
      <trkpt lat="45.77001" lon="4.63222">
        <ele>718</ele>
        <time>2012-12-29T08:42:33Z</time>
      </trkpt>
      <trkpt lat="45.77016" lon="4.63213">
        <ele>717</ele>
        <time>2012-12-29T08:42:40Z</time>
      </trkpt>
      <trkpt lat="45.77029" lon="4.6321">
        <ele>716</ele>
        <time>2012-12-29T08:42:45Z</time>
      </trkpt>
      <trkpt lat="45.77041" lon="4.63205">
        <ele>715</ele>
        <time>2012-12-29T08:42:51Z</time>
      </trkpt>
      <trkpt lat="45.77048" lon="4.63203">
        <ele>715</ele>
        <time>2012-12-29T08:42:56Z</time>
      </trkpt>
      <trkpt lat="45.7705" lon="4.63203">
        <ele>715</ele>
        <time>2012-12-29T08:42:57Z</time>
      </trkpt>
      <trkpt lat="45.77054" lon="4.63203">
        <ele>715</ele>
        <time>2012-12-29T08:42:59Z</time>
      </trkpt>
      <trkpt lat="45.77061" lon="4.63202">
        <ele>714</ele>
        <time>2012-12-29T08:43:03Z</time>
      </trkpt>
      <trkpt lat="45.77071" lon="4.63203">
        <ele>714</ele>
        <time>2012-12-29T08:43:07Z</time>
      </trkpt>
      <trkpt lat="45.77085" lon="4.632">
        <ele>711</ele>
        <time>2012-12-29T08:43:14Z</time>
      </trkpt>
      <trkpt lat="45.77097" lon="4.63195">
        <ele>710</ele>
        <time>2012-12-29T08:43:19Z</time>
      </trkpt>
      <trkpt lat="45.7711" lon="4.63187">
        <ele>710</ele>
        <time>2012-12-29T08:43:25Z</time>
      </trkpt>
      <trkpt lat="45.77119" lon="4.63183">
        <ele>710</ele>
        <time>2012-12-29T08:43:32Z</time>
      </trkpt>
      <trkpt lat="45.77122" lon="4.63194">
        <ele>711</ele>
        <time>2012-12-29T08:43:40Z</time>
      </trkpt>
      <trkpt lat="45.77123" lon="4.63195">
        <ele>711</ele>
        <time>2012-12-29T08:43:41Z</time>
      </trkpt>
      <trkpt lat="45.77124" lon="4.63202">
        <ele>711</ele>
        <time>2012-12-29T08:43:44Z</time>
      </trkpt>
      <trkpt lat="45.77129" lon="4.63221">
        <ele>712</ele>
        <time>2012-12-29T08:43:51Z</time>
      </trkpt>
      <trkpt lat="45.77129" lon="4.63223">
        <ele>712</ele>
        <time>2012-12-29T08:43:52Z</time>
      </trkpt>
      <trkpt lat="45.77128" lon="4.63229">
        <ele>713</ele>
        <time>2012-12-29T08:43:56Z</time>
      </trkpt>
      <trkpt lat="45.77128" lon="4.63239">
        <ele>713</ele>
        <time>2012-12-29T08:44:02Z</time>
      </trkpt>
      <trkpt lat="45.7713" lon="4.63245">
        <ele>713</ele>
        <time>2012-12-29T08:44:06Z</time>
      </trkpt>
      <trkpt lat="45.77133" lon="4.63251">
        <ele>719</ele>
        <time>2012-12-29T08:44:10Z</time>
      </trkpt>
      <trkpt lat="45.77135" lon="4.63252">
        <ele>719</ele>
        <time>2012-12-29T08:44:12Z</time>
      </trkpt>
      <trkpt lat="45.77142" lon="4.63246">
        <ele>713</ele>
        <time>2012-12-29T08:44:18Z</time>
      </trkpt>
      <trkpt lat="45.77149" lon="4.63235">
        <ele>713</ele>
        <time>2012-12-29T08:44:25Z</time>
      </trkpt>
      <trkpt lat="45.77151" lon="4.63232">
        <ele>713</ele>
        <time>2012-12-29T08:44:27Z</time>
      </trkpt>
      <trkpt lat="45.77158" lon="4.63222">
        <ele>712</ele>
        <time>2012-12-29T08:44:33Z</time>
      </trkpt>
      <trkpt lat="45.77165" lon="4.63213">
        <ele>712</ele>
        <time>2012-12-29T08:44:39Z</time>
      </trkpt>
      <trkpt lat="45.7717" lon="4.63206">
        <ele>709</ele>
        <time>2012-12-29T08:44:43Z</time>
      </trkpt>
      <trkpt lat="45.77176" lon="4.63199">
        <ele>708</ele>
        <time>2012-12-29T08:44:48Z</time>
      </trkpt>
      <trkpt lat="45.77179" lon="4.63197">
        <ele>708</ele>
        <time>2012-12-29T08:44:50Z</time>
      </trkpt>
      <trkpt lat="45.77184" lon="4.63182">
        <ele>707</ele>
        <time>2012-12-29T08:44:59Z</time>
      </trkpt>
      <trkpt lat="45.77185" lon="4.63178">
        <ele>707</ele>
        <time>2012-12-29T08:45:01Z</time>
      </trkpt>
      <trkpt lat="45.7719" lon="4.63165">
        <ele>704</ele>
        <time>2012-12-29T08:45:09Z</time>
      </trkpt>
      <trkpt lat="45.7719" lon="4.63155">
        <ele>704</ele>
        <time>2012-12-29T08:45:15Z</time>
      </trkpt>
      <trkpt lat="45.77194" lon="4.63139">
        <ele>703</ele>
        <time>2012-12-29T08:45:23Z</time>
      </trkpt>
      <trkpt lat="45.77191" lon="4.63131">
        <ele>703</ele>
        <time>2012-12-29T08:45:29Z</time>
      </trkpt>
      <trkpt lat="45.77182" lon="4.63127">
        <ele>703</ele>
        <time>2012-12-29T08:45:35Z</time>
      </trkpt>
      <trkpt lat="45.77181" lon="4.63125">
        <ele>703</ele>
        <time>2012-12-29T08:45:36Z</time>
      </trkpt>
      <trkpt lat="45.77179" lon="4.63109">
        <ele>702</ele>
        <time>2012-12-29T08:45:42Z</time>
      </trkpt>
      <trkpt lat="45.77183" lon="4.63089">
        <ele>701</ele>
        <time>2012-12-29T08:45:50Z</time>
      </trkpt>
      <trkpt lat="45.77186" lon="4.63083">
        <ele>700</ele>
        <time>2012-12-29T08:45:53Z</time>
      </trkpt>
      <trkpt lat="45.77189" lon="4.63074">
        <ele>699</ele>
        <time>2012-12-29T08:45:58Z</time>
      </trkpt>
      <trkpt lat="45.77193" lon="4.63067">
        <ele>699</ele>
        <time>2012-12-29T08:46:02Z</time>
      </trkpt>
      <trkpt lat="45.77201" lon="4.63056">
        <ele>699</ele>
        <time>2012-12-29T08:46:10Z</time>
      </trkpt>
      <trkpt lat="45.77202" lon="4.63043">
        <ele>699</ele>
        <time>2012-12-29T08:46:18Z</time>
      </trkpt>
      <trkpt lat="45.772" lon="4.63034">
        <ele>699</ele>
        <time>2012-12-29T08:46:25Z</time>
      </trkpt>
      <trkpt lat="45.772" lon="4.63032">
        <ele>699</ele>
        <time>2012-12-29T08:46:26Z</time>
      </trkpt>
      <trkpt lat="45.77196" lon="4.6302">
        <ele>698</ele>
        <time>2012-12-29T08:46:34Z</time>
      </trkpt>
      <trkpt lat="45.77188" lon="4.6301">
        <ele>698</ele>
        <time>2012-12-29T08:46:42Z</time>
      </trkpt>
      <trkpt lat="45.77188" lon="4.63008">
        <ele>698</ele>
        <time>2012-12-29T08:46:43Z</time>
      </trkpt>
      <trkpt lat="45.7718" lon="4.63">
        <ele>696</ele>
        <time>2012-12-29T08:46:50Z</time>
      </trkpt>
      <trkpt lat="45.77173" lon="4.62992">
        <ele>696</ele>
        <time>2012-12-29T08:46:57Z</time>
      </trkpt>
      <trkpt lat="45.77166" lon="4.62983">
        <ele>692</ele>
        <time>2012-12-29T08:47:04Z</time>
      </trkpt>
      <trkpt lat="45.77162" lon="4.6297">
        <ele>690</ele>
        <time>2012-12-29T08:47:11Z</time>
      </trkpt>
      <trkpt lat="45.7716" lon="4.62958">
        <ele>689</ele>
        <time>2012-12-29T08:47:17Z</time>
      </trkpt>
      <trkpt lat="45.77159" lon="4.62945">
        <ele>689</ele>
        <time>2012-12-29T08:47:24Z</time>
      </trkpt>
      <trkpt lat="45.77158" lon="4.62944">
        <ele>688</ele>
        <time>2012-12-29T08:47:25Z</time>
      </trkpt>
      <trkpt lat="45.77149" lon="4.62937">
        <ele>688</ele>
        <time>2012-12-29T08:47:33Z</time>
      </trkpt>
      <trkpt lat="45.7714" lon="4.62931">
        <ele>687</ele>
        <time>2012-12-29T08:47:40Z</time>
      </trkpt>
      <trkpt lat="45.77131" lon="4.62933">
        <ele>686</ele>
        <time>2012-12-29T08:47:46Z</time>
      </trkpt>
      <trkpt lat="45.77125" lon="4.62935">
        <ele>685</ele>
        <time>2012-12-29T08:47:52Z</time>
      </trkpt>
      <trkpt lat="45.77118" lon="4.62934">
        <ele>685</ele>
        <time>2012-12-29T08:47:56Z</time>
      </trkpt>
      <trkpt lat="45.7711" lon="4.62929">
        <ele>683</ele>
        <time>2012-12-29T08:48:02Z</time>
      </trkpt>
      <trkpt lat="45.77106" lon="4.62915">
        <ele>678</ele>
        <time>2012-12-29T08:48:11Z</time>
      </trkpt>
      <trkpt lat="45.77105" lon="4.62913">
        <ele>678</ele>
        <time>2012-12-29T08:48:12Z</time>
      </trkpt>
      <trkpt lat="45.77096" lon="4.62896">
        <ele>677</ele>
        <time>2012-12-29T08:48:22Z</time>
      </trkpt>
      <trkpt lat="45.77094" lon="4.62892">
        <ele>677</ele>
        <time>2012-12-29T08:48:24Z</time>
      </trkpt>
      <trkpt lat="45.77093" lon="4.62888">
        <ele>677</ele>
        <time>2012-12-29T08:48:26Z</time>
      </trkpt>
      <trkpt lat="45.77092" lon="4.62883">
        <ele>677</ele>
        <time>2012-12-29T08:48:29Z</time>
      </trkpt>
      <trkpt lat="45.77088" lon="4.62866">
        <ele>676</ele>
        <time>2012-12-29T08:48:37Z</time>
      </trkpt>
      <trkpt lat="45.77083" lon="4.62848">
        <ele>671</ele>
        <time>2012-12-29T08:48:44Z</time>
      </trkpt>
      <trkpt lat="45.77081" lon="4.62839">
        <ele>670</ele>
        <time>2012-12-29T08:48:50Z</time>
      </trkpt>
      <trkpt lat="45.77077" lon="4.62828">
        <ele>668</ele>
        <time>2012-12-29T08:48:56Z</time>
      </trkpt>
      <trkpt lat="45.77076" lon="4.62816">
        <ele>667</ele>
        <time>2012-12-29T08:49:03Z</time>
      </trkpt>
      <trkpt lat="45.77074" lon="4.6281">
        <ele>667</ele>
        <time>2012-12-29T08:49:07Z</time>
      </trkpt>
      <trkpt lat="45.77066" lon="4.62793">
        <ele>666</ele>
        <time>2012-12-29T08:49:15Z</time>
      </trkpt>
      <trkpt lat="45.77063" lon="4.62788">
        <ele>666</ele>
        <time>2012-12-29T08:49:19Z</time>
      </trkpt>
      <trkpt lat="45.77058" lon="4.62773">
        <ele>666</ele>
        <time>2012-12-29T08:49:28Z</time>
      </trkpt>
      <trkpt lat="45.77055" lon="4.62761">
        <ele>665</ele>
        <time>2012-12-29T08:49:34Z</time>
      </trkpt>
      <trkpt lat="45.77051" lon="4.62748">
        <ele>662</ele>
        <time>2012-12-29T08:49:41Z</time>
      </trkpt>
      <trkpt lat="45.77048" lon="4.62735">
        <ele>662</ele>
        <time>2012-12-29T08:49:47Z</time>
      </trkpt>
      <trkpt lat="45.77045" lon="4.62725">
        <ele>661</ele>
        <time>2012-12-29T08:49:53Z</time>
      </trkpt>
      <trkpt lat="45.77042" lon="4.62711">
        <ele>661</ele>
        <time>2012-12-29T08:50:01Z</time>
      </trkpt>
      <trkpt lat="45.77039" lon="4.62703">
        <ele>660</ele>
        <time>2012-12-29T08:50:06Z</time>
      </trkpt>
      <trkpt lat="45.77033" lon="4.62682">
        <ele>659</ele>
        <time>2012-12-29T08:50:15Z</time>
      </trkpt>
      <trkpt lat="45.77027" lon="4.6267">
        <ele>657</ele>
        <time>2012-12-29T08:50:22Z</time>
      </trkpt>
      <trkpt lat="45.77024" lon="4.62663">
        <ele>653</ele>
        <time>2012-12-29T08:50:26Z</time>
      </trkpt>
      <trkpt lat="45.77021" lon="4.62651">
        <ele>652</ele>
        <time>2012-12-29T08:50:33Z</time>
      </trkpt>
      <trkpt lat="45.77016" lon="4.62644">
        <ele>652</ele>
        <time>2012-12-29T08:50:41Z</time>
      </trkpt>
      <trkpt lat="45.77015" lon="4.62641">
        <ele>652</ele>
        <time>2012-12-29T08:50:45Z</time>
      </trkpt>
      <trkpt lat="45.77013" lon="4.62632">
        <ele>651</ele>
        <time>2012-12-29T08:50:51Z</time>
      </trkpt>
      <trkpt lat="45.77014" lon="4.62621">
        <ele>650</ele>
        <time>2012-12-29T08:50:58Z</time>
      </trkpt>
      <trkpt lat="45.77011" lon="4.62609">
        <ele>649</ele>
        <time>2012-12-29T08:51:07Z</time>
      </trkpt>
      <trkpt lat="45.7701" lon="4.62602">
        <ele>647</ele>
        <time>2012-12-29T08:51:11Z</time>
      </trkpt>
      <trkpt lat="45.77009" lon="4.6259">
        <ele>644</ele>
        <time>2012-12-29T08:51:18Z</time>
      </trkpt>
      <trkpt lat="45.7701" lon="4.62581">
        <ele>641</ele>
        <time>2012-12-29T08:51:25Z</time>
      </trkpt>
      <trkpt lat="45.7701" lon="4.62564">
        <ele>641</ele>
        <time>2012-12-29T08:51:32Z</time>
      </trkpt>
      <trkpt lat="45.77008" lon="4.62533">
        <ele>638</ele>
        <time>2012-12-29T08:51:41Z</time>
      </trkpt>
      <trkpt lat="45.77008" lon="4.62516">
        <ele>635</ele>
        <time>2012-12-29T08:51:47Z</time>
      </trkpt>
      <trkpt lat="45.77008" lon="4.62508">
        <ele>632</ele>
        <time>2012-12-29T08:51:50Z</time>
      </trkpt>
      <trkpt lat="45.7701" lon="4.62486">
        <ele>631</ele>
        <time>2012-12-29T08:51:57Z</time>
      </trkpt>
      <trkpt lat="45.77009" lon="4.62466">
        <ele>632</ele>
        <time>2012-12-29T08:52:04Z</time>
      </trkpt>
      <trkpt lat="45.77006" lon="4.62448">
        <ele>631</ele>
        <time>2012-12-29T08:52:11Z</time>
      </trkpt>
      <trkpt lat="45.77003" lon="4.62437">
        <ele>629</ele>
        <time>2012-12-29T08:52:18Z</time>
      </trkpt>
      <trkpt lat="45.77001" lon="4.62429">
        <ele>628</ele>
        <time>2012-12-29T08:52:22Z</time>
      </trkpt>
      <trkpt lat="45.77" lon="4.62424">
        <ele>626</ele>
        <time>2012-12-29T08:52:24Z</time>
      </trkpt>
      <trkpt lat="45.76998" lon="4.62412">
        <ele>622</ele>
        <time>2012-12-29T08:52:31Z</time>
      </trkpt>
      <trkpt lat="45.76997" lon="4.624">
        <ele>621</ele>
        <time>2012-12-29T08:52:38Z</time>
      </trkpt>
      <trkpt lat="45.76993" lon="4.62386">
        <ele>620</ele>
        <time>2012-12-29T08:52:46Z</time>
      </trkpt>
      <trkpt lat="45.76991" lon="4.62381">
        <ele>620</ele>
        <time>2012-12-29T08:52:49Z</time>
      </trkpt>
      <trkpt lat="45.76986" lon="4.62369">
        <ele>619</ele>
        <time>2012-12-29T08:52:56Z</time>
      </trkpt>
      <trkpt lat="45.76981" lon="4.62358">
        <ele>619</ele>
        <time>2012-12-29T08:53:04Z</time>
      </trkpt>
      <trkpt lat="45.76978" lon="4.62347">
        <ele>619</ele>
        <time>2012-12-29T08:53:11Z</time>
      </trkpt>
      <trkpt lat="45.76974" lon="4.62334">
        <ele>618</ele>
        <time>2012-12-29T08:53:20Z</time>
      </trkpt>
      <trkpt lat="45.76967" lon="4.62335">
        <ele>618</ele>
        <time>2012-12-29T08:53:29Z</time>
      </trkpt>
      <trkpt lat="45.76965" lon="4.62343">
        <ele>618</ele>
        <time>2012-12-29T08:53:35Z</time>
      </trkpt>
      <trkpt lat="45.76963" lon="4.62348">
        <ele>618</ele>
        <time>2012-12-29T08:53:39Z</time>
      </trkpt>
      <trkpt lat="45.76962" lon="4.62354">
        <ele>618</ele>
        <time>2012-12-29T08:53:45Z</time>
      </trkpt>
      <trkpt lat="45.76955" lon="4.6237">
        <ele>618</ele>
        <time>2012-12-29T08:53:54Z</time>
      </trkpt>
      <trkpt lat="45.76948" lon="4.6238">
        <ele>618</ele>
        <time>2012-12-29T08:54:00Z</time>
      </trkpt>
      <trkpt lat="45.76947" lon="4.62381">
        <ele>618</ele>
        <time>2012-12-29T08:54:01Z</time>
      </trkpt>
      <trkpt lat="45.76943" lon="4.6239">
        <ele>618</ele>
        <time>2012-12-29T08:54:07Z</time>
      </trkpt>
      <trkpt lat="45.76942" lon="4.62394">
        <ele>618</ele>
        <time>2012-12-29T08:54:10Z</time>
      </trkpt>
      <trkpt lat="45.76941" lon="4.62396">
        <ele>618</ele>
        <time>2012-12-29T08:54:12Z</time>
      </trkpt>
      <trkpt lat="45.76936" lon="4.62409">
        <ele>618</ele>
        <time>2012-12-29T08:54:20Z</time>
      </trkpt>
      <trkpt lat="45.76932" lon="4.6242">
        <ele>621</ele>
        <time>2012-12-29T08:54:26Z</time>
      </trkpt>
      <trkpt lat="45.76928" lon="4.62422">
        <ele>621</ele>
        <time>2012-12-29T08:54:30Z</time>
      </trkpt>
      <trkpt lat="45.76917" lon="4.62428">
        <ele>621</ele>
        <time>2012-12-29T08:54:39Z</time>
      </trkpt>
      <trkpt lat="45.76909" lon="4.62439">
        <ele>624</ele>
        <time>2012-12-29T08:54:48Z</time>
      </trkpt>
      <trkpt lat="45.76905" lon="4.62445">
        <ele>625</ele>
        <time>2012-12-29T08:54:54Z</time>
      </trkpt>
      <trkpt lat="45.769" lon="4.62449">
        <ele>625</ele>
        <time>2012-12-29T08:54:59Z</time>
      </trkpt>
      <trkpt lat="45.7689" lon="4.62458">
        <ele>626</ele>
        <time>2012-12-29T08:55:08Z</time>
      </trkpt>
      <trkpt lat="45.76883" lon="4.62464">
        <ele>627</ele>
        <time>2012-12-29T08:55:15Z</time>
      </trkpt>
      <trkpt lat="45.76874" lon="4.62472">
        <ele>628</ele>
        <time>2012-12-29T08:55:23Z</time>
      </trkpt>
      <trkpt lat="45.76866" lon="4.62478">
        <ele>628</ele>
        <time>2012-12-29T08:55:30Z</time>
      </trkpt>
      <trkpt lat="45.76862" lon="4.62482">
        <ele>628</ele>
        <time>2012-12-29T08:55:35Z</time>
      </trkpt>
      <trkpt lat="45.76854" lon="4.62486">
        <ele>629</ele>
        <time>2012-12-29T08:55:43Z</time>
      </trkpt>
      <trkpt lat="45.76845" lon="4.62492">
        <ele>630</ele>
        <time>2012-12-29T08:55:51Z</time>
      </trkpt>
      <trkpt lat="45.76837" lon="4.62496">
        <ele>631</ele>
        <time>2012-12-29T08:55:56Z</time>
      </trkpt>
      <trkpt lat="45.7683" lon="4.62499">
        <ele>632</ele>
        <time>2012-12-29T08:56:02Z</time>
      </trkpt>
      <trkpt lat="45.76813" lon="4.62499">
        <ele>633</ele>
        <time>2012-12-29T08:56:10Z</time>
      </trkpt>
      <trkpt lat="45.7681" lon="4.62498">
        <ele>633</ele>
        <time>2012-12-29T08:56:11Z</time>
      </trkpt>
      <trkpt lat="45.76803" lon="4.62501">
        <ele>639</ele>
        <time>2012-12-29T08:56:17Z</time>
      </trkpt>
      <trkpt lat="45.76796" lon="4.62506">
        <ele>640</ele>
        <time>2012-12-29T08:56:23Z</time>
      </trkpt>
      <trkpt lat="45.76795" lon="4.62506">
        <ele>640</ele>
        <time>2012-12-29T08:56:24Z</time>
      </trkpt>
      <trkpt lat="45.76792" lon="4.62507">
        <ele>640</ele>
        <time>2012-12-29T08:56:26Z</time>
      </trkpt>
      <trkpt lat="45.76788" lon="4.6251">
        <ele>640</ele>
        <time>2012-12-29T08:56:30Z</time>
      </trkpt>
      <trkpt lat="45.76781" lon="4.62513">
        <ele>641</ele>
        <time>2012-12-29T08:56:35Z</time>
      </trkpt>
      <trkpt lat="45.76766" lon="4.62516">
        <ele>641</ele>
        <time>2012-12-29T08:56:43Z</time>
      </trkpt>
      <trkpt lat="45.76764" lon="4.62516">
        <ele>640</ele>
        <time>2012-12-29T08:56:44Z</time>
      </trkpt>
      <trkpt lat="45.76752" lon="4.62516">
        <ele>640</ele>
        <time>2012-12-29T08:56:51Z</time>
      </trkpt>
      <trkpt lat="45.7675" lon="4.62516">
        <ele>640</ele>
        <time>2012-12-29T08:56:53Z</time>
      </trkpt>
      <trkpt lat="45.76744" lon="4.62521">
        <ele>645</ele>
        <time>2012-12-29T08:57:00Z</time>
      </trkpt>
      <trkpt lat="45.76739" lon="4.62522">
        <ele>645</ele>
        <time>2012-12-29T08:57:06Z</time>
      </trkpt>
      <trkpt lat="45.76739" lon="4.62522">
        <ele>645</ele>
        <time>2012-12-29T08:57:07Z</time>
      </trkpt>
      <trkpt lat="45.76737" lon="4.62531">
        <ele>647</ele>
        <time>2012-12-29T08:57:17Z</time>
      </trkpt>
      <trkpt lat="45.76724" lon="4.62533">
        <ele>648</ele>
        <time>2012-12-29T08:57:27Z</time>
      </trkpt>
      <trkpt lat="45.76714" lon="4.62535">
        <ele>649</ele>
        <time>2012-12-29T08:57:36Z</time>
      </trkpt>
      <trkpt lat="45.767" lon="4.6254">
        <ele>650</ele>
        <time>2012-12-29T08:57:48Z</time>
      </trkpt>
      <trkpt lat="45.7669" lon="4.6254">
        <ele>651</ele>
        <time>2012-12-29T08:57:54Z</time>
      </trkpt>
      <trkpt lat="45.76683" lon="4.62539">
        <ele>651</ele>
        <time>2012-12-29T08:58:00Z</time>
      </trkpt>
      <trkpt lat="45.76682" lon="4.62539">
        <ele>651</ele>
        <time>2012-12-29T08:58:01Z</time>
      </trkpt>
      <trkpt lat="45.7667" lon="4.62551">
        <ele>653</ele>
        <time>2012-12-29T08:58:12Z</time>
      </trkpt>
      <trkpt lat="45.76665" lon="4.62558">
        <ele>660</ele>
        <time>2012-12-29T08:58:18Z</time>
      </trkpt>
      <trkpt lat="45.7666" lon="4.62567">
        <ele>661</ele>
        <time>2012-12-29T08:58:27Z</time>
      </trkpt>
      <trkpt lat="45.76653" lon="4.62569">
        <ele>661</ele>
        <time>2012-12-29T08:58:35Z</time>
      </trkpt>
      <trkpt lat="45.76641" lon="4.62576">
        <ele>662</ele>
        <time>2012-12-29T08:58:46Z</time>
      </trkpt>
      <trkpt lat="45.76633" lon="4.6258">
        <ele>662</ele>
        <time>2012-12-29T08:58:55Z</time>
      </trkpt>
      <trkpt lat="45.76628" lon="4.62584">
        <ele>671</ele>
        <time>2012-12-29T08:59:03Z</time>
      </trkpt>
      <trkpt lat="45.76622" lon="4.62589">
        <ele>672</ele>
        <time>2012-12-29T08:59:12Z</time>
      </trkpt>
      <trkpt lat="45.7662" lon="4.62589">
        <ele>672</ele>
        <time>2012-12-29T08:59:15Z</time>
      </trkpt>
      <trkpt lat="45.7661" lon="4.62595">
        <ele>673</ele>
        <time>2012-12-29T08:59:25Z</time>
      </trkpt>
      <trkpt lat="45.76603" lon="4.62599">
        <ele>673</ele>
        <time>2012-12-29T08:59:34Z</time>
      </trkpt>
      <trkpt lat="45.76598" lon="4.62602">
        <ele>673</ele>
        <time>2012-12-29T08:59:40Z</time>
      </trkpt>
      <trkpt lat="45.76587" lon="4.62599">
        <ele>673</ele>
        <time>2012-12-29T08:59:48Z</time>
      </trkpt>
      <trkpt lat="45.76577" lon="4.626">
        <ele>677</ele>
        <time>2012-12-29T08:59:55Z</time>
      </trkpt>
      <trkpt lat="45.76571" lon="4.62601">
        <ele>677</ele>
        <time>2012-12-29T09:00:00Z</time>
      </trkpt>
      <trkpt lat="45.76569" lon="4.62602">
        <ele>677</ele>
        <time>2012-12-29T09:00:01Z</time>
      </trkpt>
      <trkpt lat="45.76559" lon="4.62602">
        <ele>678</ele>
        <time>2012-12-29T09:00:08Z</time>
      </trkpt>
      <trkpt lat="45.76548" lon="4.62606">
        <ele>680</ele>
        <time>2012-12-29T09:00:18Z</time>
      </trkpt>
      <trkpt lat="45.76539" lon="4.62616">
        <ele>681</ele>
        <time>2012-12-29T09:00:30Z</time>
      </trkpt>
      <trkpt lat="45.76533" lon="4.62623">
        <ele>681</ele>
        <time>2012-12-29T09:00:39Z</time>
      </trkpt>
      <trkpt lat="45.76528" lon="4.62627">
        <ele>682</ele>
        <time>2012-12-29T09:00:46Z</time>
      </trkpt>
      <trkpt lat="45.76519" lon="4.62634">
        <ele>682</ele>
        <time>2012-12-29T09:00:55Z</time>
      </trkpt>
      <trkpt lat="45.76514" lon="4.62645">
        <ele>683</ele>
        <time>2012-12-29T09:01:04Z</time>
      </trkpt>
      <trkpt lat="45.76512" lon="4.6265">
        <ele>684</ele>
        <time>2012-12-29T09:01:08Z</time>
      </trkpt>
      <trkpt lat="45.76506" lon="4.62655">
        <ele>685</ele>
        <time>2012-12-29T09:01:15Z</time>
      </trkpt>
      <trkpt lat="45.76494" lon="4.62659">
        <ele>688</ele>
        <time>2012-12-29T09:01:25Z</time>
      </trkpt>
      <trkpt lat="45.76489" lon="4.62661">
        <ele>688</ele>
        <time>2012-12-29T09:01:29Z</time>
      </trkpt>
      <trkpt lat="45.76483" lon="4.62667">
        <ele>692</ele>
        <time>2012-12-29T09:01:36Z</time>
      </trkpt>
      <trkpt lat="45.76481" lon="4.6267">
        <ele>692</ele>
        <time>2012-12-29T09:01:39Z</time>
      </trkpt>
      <trkpt lat="45.76475" lon="4.62676">
        <ele>694</ele>
        <time>2012-12-29T09:01:45Z</time>
      </trkpt>
      <trkpt lat="45.76472" lon="4.62677">
        <ele>694</ele>
        <time>2012-12-29T09:01:47Z</time>
      </trkpt>
      <trkpt lat="45.76464" lon="4.62682">
        <ele>695</ele>
        <time>2012-12-29T09:01:54Z</time>
      </trkpt>
      <trkpt lat="45.76461" lon="4.62686">
        <ele>695</ele>
        <time>2012-12-29T09:01:58Z</time>
      </trkpt>
      <trkpt lat="45.76459" lon="4.6269">
        <ele>696</ele>
        <time>2012-12-29T09:02:02Z</time>
      </trkpt>
      <trkpt lat="45.76455" lon="4.62696">
        <ele>696</ele>
        <time>2012-12-29T09:02:10Z</time>
      </trkpt>
      <trkpt lat="45.76447" lon="4.62709">
        <ele>697</ele>
        <time>2012-12-29T09:02:22Z</time>
      </trkpt>
      <trkpt lat="45.76438" lon="4.62722">
        <ele>698</ele>
        <time>2012-12-29T09:02:35Z</time>
      </trkpt>
      <trkpt lat="45.76437" lon="4.62722">
        <ele>698</ele>
        <time>2012-12-29T09:02:36Z</time>
      </trkpt>
      <trkpt lat="45.7643" lon="4.62727">
        <ele>699</ele>
        <time>2012-12-29T09:02:40Z</time>
      </trkpt>
      <trkpt lat="45.76422" lon="4.6274">
        <ele>700</ele>
        <time>2012-12-29T09:02:48Z</time>
      </trkpt>
      <trkpt lat="45.76422" lon="4.62751">
        <ele>703</ele>
        <time>2012-12-29T09:02:54Z</time>
      </trkpt>
      <trkpt lat="45.76418" lon="4.62765">
        <ele>705</ele>
        <time>2012-12-29T09:03:02Z</time>
      </trkpt>
      <trkpt lat="45.76416" lon="4.62775">
        <ele>708</ele>
        <time>2012-12-29T09:03:08Z</time>
      </trkpt>
      <trkpt lat="45.76415" lon="4.62777">
        <ele>709</ele>
        <time>2012-12-29T09:03:10Z</time>
      </trkpt>
      <trkpt lat="45.7641" lon="4.62783">
        <ele>710</ele>
        <time>2012-12-29T09:03:15Z</time>
      </trkpt>
      <trkpt lat="45.76405" lon="4.62792">
        <ele>711</ele>
        <time>2012-12-29T09:03:22Z</time>
      </trkpt>
      <trkpt lat="45.764" lon="4.62797">
        <ele>711</ele>
        <time>2012-12-29T09:03:28Z</time>
      </trkpt>
      <trkpt lat="45.76392" lon="4.62803">
        <ele>712</ele>
        <time>2012-12-29T09:03:36Z</time>
      </trkpt>
      <trkpt lat="45.7639" lon="4.62807">
        <ele>712</ele>
        <time>2012-12-29T09:03:39Z</time>
      </trkpt>
      <trkpt lat="45.76388" lon="4.62809">
        <ele>712</ele>
        <time>2012-12-29T09:03:41Z</time>
      </trkpt>
      <trkpt lat="45.76383" lon="4.62816">
        <ele>713</ele>
        <time>2012-12-29T09:03:48Z</time>
      </trkpt>
      <trkpt lat="45.76377" lon="4.6282">
        <ele>713</ele>
        <time>2012-12-29T09:03:54Z</time>
      </trkpt>
      <trkpt lat="45.7637" lon="4.62823">
        <ele>714</ele>
        <time>2012-12-29T09:04:01Z</time>
      </trkpt>
      <trkpt lat="45.76364" lon="4.62821">
        <ele>714</ele>
        <time>2012-12-29T09:04:08Z</time>
      </trkpt>
      <trkpt lat="45.7636" lon="4.62815">
        <ele>714</ele>
        <time>2012-12-29T09:04:14Z</time>
      </trkpt>
      <trkpt lat="45.76355" lon="4.62806">
        <ele>714</ele>
        <time>2012-12-29T09:04:21Z</time>
      </trkpt>
      <trkpt lat="45.76352" lon="4.62795">
        <ele>714</ele>
        <time>2012-12-29T09:04:30Z</time>
      </trkpt>
      <trkpt lat="45.76346" lon="4.62785">
        <ele>714</ele>
        <time>2012-12-29T09:04:42Z</time>
      </trkpt>
      <trkpt lat="45.76344" lon="4.62795">
        <ele>714</ele>
        <time>2012-12-29T09:04:49Z</time>
      </trkpt>
      <trkpt lat="45.76341" lon="4.62806">
        <ele>715</ele>
        <time>2012-12-29T09:04:58Z</time>
      </trkpt>
      <trkpt lat="45.76337" lon="4.62816">
        <ele>715</ele>
        <time>2012-12-29T09:05:04Z</time>
      </trkpt>
      <trkpt lat="45.76334" lon="4.62827">
        <ele>716</ele>
        <time>2012-12-29T09:05:12Z</time>
      </trkpt>
      <trkpt lat="45.76328" lon="4.6284">
        <ele>719</ele>
        <time>2012-12-29T09:05:21Z</time>
      </trkpt>
      <trkpt lat="45.76324" lon="4.62848">
        <ele>720</ele>
        <time>2012-12-29T09:05:27Z</time>
      </trkpt>
      <trkpt lat="45.76318" lon="4.62857">
        <ele>721</ele>
        <time>2012-12-29T09:05:34Z</time>
      </trkpt>
      <trkpt lat="45.7631" lon="4.62868">
        <ele>722</ele>
        <time>2012-12-29T09:05:43Z</time>
      </trkpt>
      <trkpt lat="45.76305" lon="4.62879">
        <ele>722</ele>
        <time>2012-12-29T09:05:51Z</time>
      </trkpt>
      <trkpt lat="45.76296" lon="4.62878">
        <ele>723</ele>
        <time>2012-12-29T09:05:58Z</time>
      </trkpt>
      <trkpt lat="45.76283" lon="4.62877">
        <ele>723</ele>
        <time>2012-12-29T09:06:07Z</time>
      </trkpt>
      <trkpt lat="45.76276" lon="4.62873">
        <ele>724</ele>
        <time>2012-12-29T09:06:13Z</time>
      </trkpt>
      <trkpt lat="45.76273" lon="4.62871">
        <ele>724</ele>
        <time>2012-12-29T09:06:16Z</time>
      </trkpt>
      <trkpt lat="45.7626" lon="4.62868">
        <ele>725</ele>
        <time>2012-12-29T09:06:25Z</time>
      </trkpt>
      <trkpt lat="45.76249" lon="4.62863">
        <ele>727</ele>
        <time>2012-12-29T09:06:34Z</time>
      </trkpt>
      <trkpt lat="45.7624" lon="4.62864">
        <ele>726</ele>
        <time>2012-12-29T09:06:40Z</time>
      </trkpt>
      <trkpt lat="45.76235" lon="4.62866">
        <ele>726</ele>
        <time>2012-12-29T09:06:45Z</time>
      </trkpt>
      <trkpt lat="45.76225" lon="4.62865">
        <ele>726</ele>
        <time>2012-12-29T09:06:53Z</time>
      </trkpt>
      <trkpt lat="45.76215" lon="4.62867">
        <ele>725</ele>
        <time>2012-12-29T09:07:00Z</time>
      </trkpt>
      <trkpt lat="45.76205" lon="4.62863">
        <ele>726</ele>
        <time>2012-12-29T09:07:08Z</time>
      </trkpt>
      <trkpt lat="45.76195" lon="4.6286">
        <ele>726</ele>
        <time>2012-12-29T09:07:15Z</time>
      </trkpt>
      <trkpt lat="45.76192" lon="4.62857">
        <ele>726</ele>
        <time>2012-12-29T09:07:18Z</time>
      </trkpt>
      <trkpt lat="45.76184" lon="4.62855">
        <ele>726</ele>
        <time>2012-12-29T09:07:25Z</time>
      </trkpt>
      <trkpt lat="45.76181" lon="4.6285">
        <ele>727</ele>
        <time>2012-12-29T09:07:33Z</time>
      </trkpt>
      <trkpt lat="45.76179" lon="4.62847">
        <ele>727</ele>
        <time>2012-12-29T09:07:35Z</time>
      </trkpt>
      <trkpt lat="45.76175" lon="4.62841">
        <ele>729</ele>
        <time>2012-12-29T09:07:39Z</time>
      </trkpt>
      <trkpt lat="45.76167" lon="4.62837">
        <ele>730</ele>
        <time>2012-12-29T09:07:46Z</time>
      </trkpt>
      <trkpt lat="45.76158" lon="4.62839">
        <ele>729</ele>
        <time>2012-12-29T09:07:52Z</time>
      </trkpt>
      <trkpt lat="45.76152" lon="4.62841">
        <ele>728</ele>
        <time>2012-12-29T09:07:57Z</time>
      </trkpt>
      <trkpt lat="45.76145" lon="4.62847">
        <ele>728</ele>
        <time>2012-12-29T09:08:03Z</time>
      </trkpt>
      <trkpt lat="45.76139" lon="4.6286">
        <ele>726</ele>
        <time>2012-12-29T09:08:10Z</time>
      </trkpt>
      <trkpt lat="45.76139" lon="4.62866">
        <ele>726</ele>
        <time>2012-12-29T09:08:13Z</time>
      </trkpt>
      <trkpt lat="45.76136" lon="4.62873">
        <ele>725</ele>
        <time>2012-12-29T09:08:18Z</time>
      </trkpt>
      <trkpt lat="45.76131" lon="4.62889">
        <ele>723</ele>
        <time>2012-12-29T09:08:27Z</time>
      </trkpt>
      <trkpt lat="45.76124" lon="4.62907">
        <ele>722</ele>
        <time>2012-12-29T09:08:35Z</time>
      </trkpt>
      <trkpt lat="45.76119" lon="4.62916">
        <ele>721</ele>
        <time>2012-12-29T09:08:40Z</time>
      </trkpt>
      <trkpt lat="45.76114" lon="4.6293">
        <ele>713</ele>
        <time>2012-12-29T09:08:48Z</time>
      </trkpt>
      <trkpt lat="45.76112" lon="4.62943">
        <ele>713</ele>
        <time>2012-12-29T09:08:54Z</time>
      </trkpt>
      <trkpt lat="45.76114" lon="4.6296">
        <ele>712</ele>
        <time>2012-12-29T09:09:04Z</time>
      </trkpt>
      <trkpt lat="45.76114" lon="4.62962">
        <ele>712</ele>
        <time>2012-12-29T09:09:05Z</time>
      </trkpt>
      <trkpt lat="45.7611" lon="4.62973">
        <ele>712</ele>
        <time>2012-12-29T09:09:12Z</time>
      </trkpt>
      <trkpt lat="45.76106" lon="4.62986">
        <ele>711</ele>
        <time>2012-12-29T09:09:20Z</time>
      </trkpt>
      <trkpt lat="45.76101" lon="4.62998">
        <ele>711</ele>
        <time>2012-12-29T09:09:27Z</time>
      </trkpt>
      <trkpt lat="45.76096" lon="4.63013">
        <ele>708</ele>
        <time>2012-12-29T09:09:33Z</time>
      </trkpt>
      <trkpt lat="45.7609" lon="4.63026">
        <ele>707</ele>
        <time>2012-12-29T09:09:40Z</time>
      </trkpt>
      <trkpt lat="45.76087" lon="4.63037">
        <ele>706</ele>
        <time>2012-12-29T09:09:45Z</time>
      </trkpt>
      <trkpt lat="45.76084" lon="4.63051">
        <ele>705</ele>
        <time>2012-12-29T09:09:52Z</time>
      </trkpt>
      <trkpt lat="45.76081" lon="4.63061">
        <ele>711</ele>
        <time>2012-12-29T09:09:58Z</time>
      </trkpt>
      <trkpt lat="45.76079" lon="4.63071">
        <ele>709</ele>
        <time>2012-12-29T09:10:04Z</time>
      </trkpt>
      <trkpt lat="45.76078" lon="4.63073">
        <ele>709</ele>
        <time>2012-12-29T09:10:05Z</time>
      </trkpt>
      <trkpt lat="45.76071" lon="4.63087">
        <ele>704</ele>
        <time>2012-12-29T09:10:14Z</time>
      </trkpt>
      <trkpt lat="45.76069" lon="4.6309">
        <ele>704</ele>
        <time>2012-12-29T09:10:16Z</time>
      </trkpt>
      <trkpt lat="45.76063" lon="4.63098">
        <ele>704</ele>
        <time>2012-12-29T09:10:23Z</time>
      </trkpt>
      <trkpt lat="45.76056" lon="4.63106">
        <ele>704</ele>
        <time>2012-12-29T09:10:29Z</time>
      </trkpt>
      <trkpt lat="45.76053" lon="4.63108">
        <ele>704</ele>
        <time>2012-12-29T09:10:31Z</time>
      </trkpt>
      <trkpt lat="45.76041" lon="4.63113">
        <ele>704</ele>
        <time>2012-12-29T09:10:40Z</time>
      </trkpt>
      <trkpt lat="45.76029" lon="4.63109">
        <ele>706</ele>
        <time>2012-12-29T09:10:46Z</time>
      </trkpt>
      <trkpt lat="45.76019" lon="4.63105">
        <ele>708</ele>
        <time>2012-12-29T09:10:52Z</time>
      </trkpt>
      <trkpt lat="45.76012" lon="4.63102">
        <ele>709</ele>
        <time>2012-12-29T09:10:57Z</time>
      </trkpt>
      <trkpt lat="45.76003" lon="4.63099">
        <ele>711</ele>
        <time>2012-12-29T09:11:03Z</time>
      </trkpt>
      <trkpt lat="45.75995" lon="4.63095">
        <ele>713</ele>
        <time>2012-12-29T09:11:09Z</time>
      </trkpt>
      <trkpt lat="45.75987" lon="4.6309">
        <ele>712</ele>
        <time>2012-12-29T09:11:16Z</time>
      </trkpt>
      <trkpt lat="45.7598" lon="4.63081">
        <ele>719</ele>
        <time>2012-12-29T09:11:23Z</time>
      </trkpt>
      <trkpt lat="45.75975" lon="4.63078">
        <ele>719</ele>
        <time>2012-12-29T09:11:28Z</time>
      </trkpt>
      <trkpt lat="45.75968" lon="4.63074">
        <ele>719</ele>
        <time>2012-12-29T09:11:34Z</time>
      </trkpt>
      <trkpt lat="45.75963" lon="4.63068">
        <ele>719</ele>
        <time>2012-12-29T09:11:39Z</time>
      </trkpt>
      <trkpt lat="45.75955" lon="4.6306">
        <ele>719</ele>
        <time>2012-12-29T09:11:46Z</time>
      </trkpt>
      <trkpt lat="45.7595" lon="4.63055">
        <ele>719</ele>
        <time>2012-12-29T09:11:51Z</time>
      </trkpt>
      <trkpt lat="45.75942" lon="4.63046">
        <ele>720</ele>
        <time>2012-12-29T09:11:59Z</time>
      </trkpt>
      <trkpt lat="45.75939" lon="4.63044">
        <ele>720</ele>
        <time>2012-12-29T09:12:01Z</time>
      </trkpt>
      <trkpt lat="45.75931" lon="4.63035">
        <ele>721</ele>
        <time>2012-12-29T09:12:08Z</time>
      </trkpt>
      <trkpt lat="45.75922" lon="4.63028">
        <ele>722</ele>
        <time>2012-12-29T09:12:16Z</time>
      </trkpt>
      <trkpt lat="45.75921" lon="4.63027">
        <ele>722</ele>
        <time>2012-12-29T09:12:17Z</time>
      </trkpt>
      <trkpt lat="45.75914" lon="4.63023">
        <ele>716</ele>
        <time>2012-12-29T09:12:23Z</time>
      </trkpt>
      <trkpt lat="45.75904" lon="4.63016">
        <ele>717</ele>
        <time>2012-12-29T09:12:31Z</time>
      </trkpt>
      <trkpt lat="45.75896" lon="4.6301">
        <ele>715</ele>
        <time>2012-12-29T09:12:38Z</time>
      </trkpt>
      <trkpt lat="45.75889" lon="4.63004">
        <ele>714</ele>
        <time>2012-12-29T09:12:45Z</time>
      </trkpt>
      <trkpt lat="45.75882" lon="4.62999">
        <ele>726</ele>
        <time>2012-12-29T09:12:51Z</time>
      </trkpt>
      <trkpt lat="45.75873" lon="4.62995">
        <ele>725</ele>
        <time>2012-12-29T09:12:57Z</time>
      </trkpt>
      <trkpt lat="45.75865" lon="4.6299">
        <ele>723</ele>
        <time>2012-12-29T09:13:04Z</time>
      </trkpt>
      <trkpt lat="45.75858" lon="4.62981">
        <ele>723</ele>
        <time>2012-12-29T09:13:11Z</time>
      </trkpt>
      <trkpt lat="45.7585" lon="4.62973">
        <ele>724</ele>
        <time>2012-12-29T09:13:18Z</time>
      </trkpt>
      <trkpt lat="45.75847" lon="4.62966">
        <ele>725</ele>
        <time>2012-12-29T09:13:22Z</time>
      </trkpt>
      <trkpt lat="45.75845" lon="4.62964">
        <ele>725</ele>
        <time>2012-12-29T09:13:24Z</time>
      </trkpt>
      <trkpt lat="45.75835" lon="4.62956">
        <ele>727</ele>
        <time>2012-12-29T09:13:32Z</time>
      </trkpt>
      <trkpt lat="45.75831" lon="4.62953">
        <ele>718</ele>
        <time>2012-12-29T09:13:35Z</time>
      </trkpt>
      <trkpt lat="45.75819" lon="4.62947">
        <ele>719</ele>
        <time>2012-12-29T09:13:42Z</time>
      </trkpt>
      <trkpt lat="45.75818" lon="4.62946">
        <ele>719</ele>
        <time>2012-12-29T09:13:43Z</time>
      </trkpt>
      <trkpt lat="45.7581" lon="4.62943">
        <ele>719</ele>
        <time>2012-12-29T09:13:49Z</time>
      </trkpt>
      <trkpt lat="45.75805" lon="4.62943">
        <ele>718</ele>
        <time>2012-12-29T09:13:52Z</time>
      </trkpt>
      <trkpt lat="45.75798" lon="4.62943">
        <ele>717</ele>
        <time>2012-12-29T09:13:57Z</time>
      </trkpt>
      <trkpt lat="45.75787" lon="4.62937">
        <ele>717</ele>
        <time>2012-12-29T09:14:05Z</time>
      </trkpt>
      <trkpt lat="45.75784" lon="4.62936">
        <ele>717</ele>
        <time>2012-12-29T09:14:07Z</time>
      </trkpt>
      <trkpt lat="45.75781" lon="4.62934">
        <ele>717</ele>
        <time>2012-12-29T09:14:09Z</time>
      </trkpt>
      <trkpt lat="45.75773" lon="4.62932">
        <ele>717</ele>
        <time>2012-12-29T09:14:15Z</time>
      </trkpt>
      <trkpt lat="45.7577" lon="4.6293">
        <ele>717</ele>
        <time>2012-12-29T09:14:18Z</time>
      </trkpt>
      <trkpt lat="45.75762" lon="4.62923">
        <ele>718</ele>
        <time>2012-12-29T09:14:26Z</time>
      </trkpt>
      <trkpt lat="45.75757" lon="4.6292">
        <ele>719</ele>
        <time>2012-12-29T09:14:31Z</time>
      </trkpt>
      <trkpt lat="45.75745" lon="4.62919">
        <ele>716</ele>
        <time>2012-12-29T09:14:39Z</time>
      </trkpt>
      <trkpt lat="45.75737" lon="4.62915">
        <ele>722</ele>
        <time>2012-12-29T09:14:46Z</time>
      </trkpt>
      <trkpt lat="45.7573" lon="4.62911">
        <ele>721</ele>
        <time>2012-12-29T09:14:53Z</time>
      </trkpt>
      <trkpt lat="45.75723" lon="4.62908">
        <ele>721</ele>
        <time>2012-12-29T09:14:58Z</time>
      </trkpt>
      <trkpt lat="45.75713" lon="4.62904">
        <ele>720</ele>
        <time>2012-12-29T09:15:04Z</time>
      </trkpt>
      <trkpt lat="45.75709" lon="4.62902">
        <ele>720</ele>
        <time>2012-12-29T09:15:07Z</time>
      </trkpt>
      <trkpt lat="45.75699" lon="4.62896">
        <ele>718</ele>
        <time>2012-12-29T09:15:14Z</time>
      </trkpt>
      <trkpt lat="45.7569" lon="4.62891">
        <ele>718</ele>
        <time>2012-12-29T09:15:20Z</time>
      </trkpt>
      <trkpt lat="45.75675" lon="4.62882">
        <ele>718</ele>
        <time>2012-12-29T09:15:32Z</time>
      </trkpt>
      <trkpt lat="45.75663" lon="4.62875">
        <ele>708</ele>
        <time>2012-12-29T09:15:40Z</time>
      </trkpt>
      <trkpt lat="45.75656" lon="4.62869">
        <ele>709</ele>
        <time>2012-12-29T09:15:47Z</time>
      </trkpt>
      <trkpt lat="45.75644" lon="4.62862">
        <ele>710</ele>
        <time>2012-12-29T09:15:55Z</time>
      </trkpt>
      <trkpt lat="45.75634" lon="4.62854">
        <ele>710</ele>
        <time>2012-12-29T09:16:03Z</time>
      </trkpt>
      <trkpt lat="45.75626" lon="4.62848">
        <ele>709</ele>
        <time>2012-12-29T09:16:09Z</time>
      </trkpt>
      <trkpt lat="45.75618" lon="4.62844">
        <ele>708</ele>
        <time>2012-12-29T09:16:14Z</time>
      </trkpt>
      <trkpt lat="45.75604" lon="4.62838">
        <ele>707</ele>
        <time>2012-12-29T09:16:23Z</time>
      </trkpt>
      <trkpt lat="45.7559" lon="4.62832">
        <ele>710</ele>
        <time>2012-12-29T09:16:33Z</time>
      </trkpt>
      <trkpt lat="45.75585" lon="4.62832">
        <ele>707</ele>
        <time>2012-12-29T09:16:36Z</time>
      </trkpt>
      <trkpt lat="45.75573" lon="4.62836">
        <ele>703</ele>
        <time>2012-12-29T09:16:45Z</time>
      </trkpt>
      <trkpt lat="45.75562" lon="4.62841">
        <ele>701</ele>
        <time>2012-12-29T09:16:55Z</time>
      </trkpt>
      <trkpt lat="45.7555" lon="4.62845">
        <ele>699</ele>
        <time>2012-12-29T09:17:04Z</time>
      </trkpt>
      <trkpt lat="45.75541" lon="4.62847">
        <ele>699</ele>
        <time>2012-12-29T09:17:11Z</time>
      </trkpt>
      <trkpt lat="45.75531" lon="4.62847">
        <ele>698</ele>
        <time>2012-12-29T09:17:18Z</time>
      </trkpt>
      <trkpt lat="45.75524" lon="4.6285">
        <ele>698</ele>
        <time>2012-12-29T09:17:24Z</time>
      </trkpt>
      <trkpt lat="45.75512" lon="4.62852">
        <ele>698</ele>
        <time>2012-12-29T09:17:31Z</time>
      </trkpt>
      <trkpt lat="45.75504" lon="4.62854">
        <ele>697</ele>
        <time>2012-12-29T09:17:37Z</time>
      </trkpt>
      <trkpt lat="45.75493" lon="4.62861">
        <ele>694</ele>
        <time>2012-12-29T09:17:45Z</time>
      </trkpt>
      <trkpt lat="45.75489" lon="4.62871">
        <ele>693</ele>
        <time>2012-12-29T09:17:50Z</time>
      </trkpt>
      <trkpt lat="45.75485" lon="4.62879">
        <ele>693</ele>
        <time>2012-12-29T09:17:55Z</time>
      </trkpt>
      <trkpt lat="45.75477" lon="4.62904">
        <ele>693</ele>
        <time>2012-12-29T09:18:07Z</time>
      </trkpt>
      <trkpt lat="45.7547" lon="4.62924">
        <ele>695</ele>
        <time>2012-12-29T09:18:17Z</time>
      </trkpt>
      <trkpt lat="45.75467" lon="4.62938">
        <ele>695</ele>
        <time>2012-12-29T09:18:25Z</time>
      </trkpt>
      <trkpt lat="45.75465" lon="4.62946">
        <ele>695</ele>
        <time>2012-12-29T09:18:30Z</time>
      </trkpt>
      <trkpt lat="45.75461" lon="4.62955">
        <ele>695</ele>
        <time>2012-12-29T09:18:36Z</time>
      </trkpt>
      <trkpt lat="45.75455" lon="4.62964">
        <ele>695</ele>
        <time>2012-12-29T09:18:42Z</time>
      </trkpt>
      <trkpt lat="45.75446" lon="4.62985">
        <ele>695</ele>
        <time>2012-12-29T09:18:54Z</time>
      </trkpt>
      <trkpt lat="45.75442" lon="4.63001">
        <ele>697</ele>
        <time>2012-12-29T09:19:01Z</time>
      </trkpt>
      <trkpt lat="45.75439" lon="4.63018">
        <ele>697</ele>
        <time>2012-12-29T09:19:08Z</time>
      </trkpt>
      <trkpt lat="45.75437" lon="4.63035">
        <ele>698</ele>
        <time>2012-12-29T09:19:14Z</time>
      </trkpt>
      <trkpt lat="45.75435" lon="4.6304">
        <ele>698</ele>
        <time>2012-12-29T09:19:16Z</time>
      </trkpt>
      <trkpt lat="45.75425" lon="4.63063">
        <ele>698</ele>
        <time>2012-12-29T09:19:25Z</time>
      </trkpt>
      <trkpt lat="45.75418" lon="4.63082">
        <ele>700</ele>
        <time>2012-12-29T09:19:32Z</time>
      </trkpt>
      <trkpt lat="45.75412" lon="4.63101">
        <ele>697</ele>
        <time>2012-12-29T09:19:38Z</time>
      </trkpt>
      <trkpt lat="45.75405" lon="4.63118">
        <ele>697</ele>
        <time>2012-12-29T09:19:45Z</time>
      </trkpt>
      <trkpt lat="45.75398" lon="4.6313">
        <ele>697</ele>
        <time>2012-12-29T09:19:51Z</time>
      </trkpt>
      <trkpt lat="45.75394" lon="4.63138">
        <ele>697</ele>
        <time>2012-12-29T09:19:56Z</time>
      </trkpt>
      <trkpt lat="45.75382" lon="4.63153">
        <ele>696</ele>
        <time>2012-12-29T09:20:05Z</time>
      </trkpt>
      <trkpt lat="45.75375" lon="4.63167">
        <ele>699</ele>
        <time>2012-12-29T09:20:12Z</time>
      </trkpt>
      <trkpt lat="45.75369" lon="4.63188">
        <ele>699</ele>
        <time>2012-12-29T09:20:19Z</time>
      </trkpt>
      <trkpt lat="45.75363" lon="4.63201">
        <ele>699</ele>
        <time>2012-12-29T09:20:25Z</time>
      </trkpt>
      <trkpt lat="45.75357" lon="4.63213">
        <ele>699</ele>
        <time>2012-12-29T09:20:31Z</time>
      </trkpt>
      <trkpt lat="45.75346" lon="4.6323">
        <ele>699</ele>
        <time>2012-12-29T09:20:39Z</time>
      </trkpt>
      <trkpt lat="45.75339" lon="4.63241">
        <ele>699</ele>
        <time>2012-12-29T09:20:45Z</time>
      </trkpt>
      <trkpt lat="45.75329" lon="4.63257">
        <ele>696</ele>
        <time>2012-12-29T09:20:52Z</time>
      </trkpt>
      <trkpt lat="45.75321" lon="4.63276">
        <ele>693</ele>
        <time>2012-12-29T09:20:59Z</time>
      </trkpt>
      <trkpt lat="45.75313" lon="4.63289">
        <ele>692</ele>
        <time>2012-12-29T09:21:04Z</time>
      </trkpt>
      <trkpt lat="45.75309" lon="4.63296">
        <ele>692</ele>
        <time>2012-12-29T09:21:07Z</time>
      </trkpt>
      <trkpt lat="45.75302" lon="4.63309">
        <ele>692</ele>
        <time>2012-12-29T09:21:12Z</time>
      </trkpt>
      <trkpt lat="45.75301" lon="4.63312">
        <ele>692</ele>
        <time>2012-12-29T09:21:13Z</time>
      </trkpt>
      <trkpt lat="45.75291" lon="4.63335">
        <ele>692</ele>
        <time>2012-12-29T09:21:22Z</time>
      </trkpt>
      <trkpt lat="45.75279" lon="4.63361">
        <ele>690</ele>
        <time>2012-12-29T09:21:30Z</time>
      </trkpt>
      <trkpt lat="45.75269" lon="4.63383">
        <ele>689</ele>
        <time>2012-12-29T09:21:38Z</time>
      </trkpt>
      <trkpt lat="45.75261" lon="4.63398">
        <ele>688</ele>
        <time>2012-12-29T09:21:45Z</time>
      </trkpt>
      <trkpt lat="45.75255" lon="4.63408">
        <ele>686</ele>
        <time>2012-12-29T09:21:51Z</time>
      </trkpt>
      <trkpt lat="45.7525" lon="4.63427">
        <ele>685</ele>
        <time>2012-12-29T09:22:00Z</time>
      </trkpt>
      <trkpt lat="45.75251" lon="4.63442">
        <ele>686</ele>
        <time>2012-12-29T09:22:07Z</time>
      </trkpt>
      <trkpt lat="45.7525" lon="4.63463">
        <ele>686</ele>
        <time>2012-12-29T09:22:15Z</time>
      </trkpt>
      <trkpt lat="45.75251" lon="4.63484">
        <ele>684</ele>
        <time>2012-12-29T09:22:23Z</time>
      </trkpt>
      <trkpt lat="45.75256" lon="4.635">
        <ele>681</ele>
        <time>2012-12-29T09:22:29Z</time>
      </trkpt>
      <trkpt lat="45.75256" lon="4.63519">
        <ele>680</ele>
        <time>2012-12-29T09:22:36Z</time>
      </trkpt>
      <trkpt lat="45.75258" lon="4.63541">
        <ele>679</ele>
        <time>2012-12-29T09:22:43Z</time>
      </trkpt>
      <trkpt lat="45.7526" lon="4.63555">
        <ele>678</ele>
        <time>2012-12-29T09:22:48Z</time>
      </trkpt>
      <trkpt lat="45.75264" lon="4.63579">
        <ele>674</ele>
        <time>2012-12-29T09:22:57Z</time>
      </trkpt>
      <trkpt lat="45.75267" lon="4.636">
        <ele>670</ele>
        <time>2012-12-29T09:23:04Z</time>
      </trkpt>
      <trkpt lat="45.75269" lon="4.63616">
        <ele>670</ele>
        <time>2012-12-29T09:23:10Z</time>
      </trkpt>
      <trkpt lat="45.75271" lon="4.63628">
        <ele>670</ele>
        <time>2012-12-29T09:23:14Z</time>
      </trkpt>
      <trkpt lat="45.75275" lon="4.63651">
        <ele>668</ele>
        <time>2012-12-29T09:23:23Z</time>
      </trkpt>
      <trkpt lat="45.75275" lon="4.63653">
        <ele>668</ele>
        <time>2012-12-29T09:23:24Z</time>
      </trkpt>
      <trkpt lat="45.75276" lon="4.63658">
        <ele>668</ele>
        <time>2012-12-29T09:23:27Z</time>
      </trkpt>
      <trkpt lat="45.75277" lon="4.6367">
        <ele>662</ele>
        <time>2012-12-29T09:23:33Z</time>
      </trkpt>
      <trkpt lat="45.75277" lon="4.6369">
        <ele>662</ele>
        <time>2012-12-29T09:23:43Z</time>
      </trkpt>
      <trkpt lat="45.75277" lon="4.63691">
        <ele>662</ele>
        <time>2012-12-29T09:23:44Z</time>
      </trkpt>
      <trkpt lat="45.75278" lon="4.63695">
        <ele>662</ele>
        <time>2012-12-29T09:23:47Z</time>
      </trkpt>
      <trkpt lat="45.75281" lon="4.63698">
        <ele>662</ele>
        <time>2012-12-29T09:23:51Z</time>
      </trkpt>
      <trkpt lat="45.75287" lon="4.63698">
        <ele>662</ele>
        <time>2012-12-29T09:23:58Z</time>
      </trkpt>
      <trkpt lat="45.75293" lon="4.6369">
        <ele>663</ele>
        <time>2012-12-29T09:24:05Z</time>
      </trkpt>
      <trkpt lat="45.75295" lon="4.63688">
        <ele>663</ele>
        <time>2012-12-29T09:24:07Z</time>
      </trkpt>
      <trkpt lat="45.753" lon="4.63684">
        <ele>664</ele>
        <time>2012-12-29T09:24:12Z</time>
      </trkpt>
      <trkpt lat="45.75311" lon="4.63677">
        <ele>666</ele>
        <time>2012-12-29T09:24:20Z</time>
      </trkpt>
      <trkpt lat="45.75323" lon="4.63669">
        <ele>669</ele>
        <time>2012-12-29T09:24:28Z</time>
      </trkpt>
      <trkpt lat="45.75331" lon="4.63661">
        <ele>673</ele>
        <time>2012-12-29T09:24:35Z</time>
      </trkpt>
      <trkpt lat="45.75339" lon="4.63653">
        <ele>674</ele>
        <time>2012-12-29T09:24:41Z</time>
      </trkpt>
      <trkpt lat="45.75347" lon="4.63646">
        <ele>675</ele>
        <time>2012-12-29T09:24:48Z</time>
      </trkpt>
      <trkpt lat="45.75355" lon="4.63638">
        <ele>675</ele>
        <time>2012-12-29T09:24:55Z</time>
      </trkpt>
      <trkpt lat="45.75361" lon="4.63633">
        <ele>675</ele>
        <time>2012-12-29T09:25:01Z</time>
      </trkpt>
      <trkpt lat="45.7537" lon="4.63625">
        <ele>675</ele>
        <time>2012-12-29T09:25:08Z</time>
      </trkpt>
      <trkpt lat="45.75371" lon="4.63624">
        <ele>675</ele>
        <time>2012-12-29T09:25:09Z</time>
      </trkpt>
      <trkpt lat="45.75379" lon="4.63615">
        <ele>676</ele>
        <time>2012-12-29T09:25:16Z</time>
      </trkpt>
      <trkpt lat="45.75387" lon="4.6361">
        <ele>676</ele>
        <time>2012-12-29T09:25:22Z</time>
      </trkpt>
      <trkpt lat="45.75397" lon="4.63603">
        <ele>676</ele>
        <time>2012-12-29T09:25:29Z</time>
      </trkpt>
      <trkpt lat="45.75398" lon="4.63602">
        <ele>676</ele>
        <time>2012-12-29T09:25:30Z</time>
      </trkpt>
      <trkpt lat="45.7541" lon="4.63598">
        <ele>676</ele>
        <time>2012-12-29T09:25:38Z</time>
      </trkpt>
      <trkpt lat="45.75421" lon="4.63597">
        <ele>671</ele>
        <time>2012-12-29T09:25:45Z</time>
      </trkpt>
      <trkpt lat="45.75429" lon="4.63595">
        <ele>670</ele>
        <time>2012-12-29T09:25:51Z</time>
      </trkpt>
      <trkpt lat="45.75442" lon="4.63592">
        <ele>668</ele>
        <time>2012-12-29T09:26:00Z</time>
      </trkpt>
      <trkpt lat="45.75454" lon="4.63591">
        <ele>666</ele>
        <time>2012-12-29T09:26:08Z</time>
      </trkpt>
      <trkpt lat="45.75469" lon="4.63592">
        <ele>664</ele>
        <time>2012-12-29T09:26:16Z</time>
      </trkpt>
      <trkpt lat="45.7548" lon="4.63593">
        <ele>663</ele>
        <time>2012-12-29T09:26:23Z</time>
      </trkpt>
      <trkpt lat="45.75486" lon="4.63592">
        <ele>663</ele>
        <time>2012-12-29T09:26:28Z</time>
      </trkpt>
      <trkpt lat="45.75498" lon="4.63589">
        <ele>662</ele>
        <time>2012-12-29T09:26:37Z</time>
      </trkpt>
      <trkpt lat="45.75507" lon="4.63588">
        <ele>656</ele>
        <time>2012-12-29T09:26:43Z</time>
      </trkpt>
      <trkpt lat="45.75516" lon="4.63585">
        <ele>653</ele>
        <time>2012-12-29T09:26:49Z</time>
      </trkpt>
      <trkpt lat="45.75525" lon="4.63579">
        <ele>654</ele>
        <time>2012-12-29T09:26:56Z</time>
      </trkpt>
      <trkpt lat="45.75528" lon="4.63572">
        <ele>653</ele>
        <time>2012-12-29T09:27:02Z</time>
      </trkpt>
      <trkpt lat="45.75533" lon="4.63558">
        <ele>651</ele>
        <time>2012-12-29T09:27:10Z</time>
      </trkpt>
      <trkpt lat="45.75537" lon="4.63539">
        <ele>651</ele>
        <time>2012-12-29T09:27:20Z</time>
      </trkpt>
      <trkpt lat="45.75538" lon="4.63524">
        <ele>651</ele>
        <time>2012-12-29T09:27:27Z</time>
      </trkpt>
      <trkpt lat="45.75539" lon="4.63506">
        <ele>651</ele>
        <time>2012-12-29T09:27:36Z</time>
      </trkpt>
      <trkpt lat="45.75539" lon="4.63504">
        <ele>652</ele>
        <time>2012-12-29T09:27:37Z</time>
      </trkpt>
      <trkpt lat="45.7554" lon="4.63487">
        <ele>654</ele>
        <time>2012-12-29T09:27:46Z</time>
      </trkpt>
      <trkpt lat="45.75541" lon="4.63484">
        <ele>654</ele>
        <time>2012-12-29T09:27:48Z</time>
      </trkpt>
      <trkpt lat="45.75542" lon="4.63471">
        <ele>653</ele>
        <time>2012-12-29T09:27:54Z</time>
      </trkpt>
      <trkpt lat="45.75543" lon="4.63465">
        <ele>653</ele>
        <time>2012-12-29T09:27:57Z</time>
      </trkpt>
      <trkpt lat="45.75545" lon="4.63451">
        <ele>653</ele>
        <time>2012-12-29T09:28:04Z</time>
      </trkpt>
      <trkpt lat="45.75545" lon="4.63437">
        <ele>653</ele>
        <time>2012-12-29T09:28:11Z</time>
      </trkpt>
      <trkpt lat="45.75546" lon="4.63419">
        <ele>653</ele>
        <time>2012-12-29T09:28:20Z</time>
      </trkpt>
      <trkpt lat="45.75547" lon="4.6341">
        <ele>655</ele>
        <time>2012-12-29T09:28:24Z</time>
      </trkpt>
      <trkpt lat="45.75548" lon="4.63393">
        <ele>655</ele>
        <time>2012-12-29T09:28:31Z</time>
      </trkpt>
      <trkpt lat="45.7555" lon="4.6338">
        <ele>655</ele>
        <time>2012-12-29T09:28:38Z</time>
      </trkpt>
      <trkpt lat="45.7555" lon="4.63378">
        <ele>655</ele>
        <time>2012-12-29T09:28:39Z</time>
      </trkpt>
      <trkpt lat="45.75553" lon="4.63358">
        <ele>655</ele>
        <time>2012-12-29T09:28:48Z</time>
      </trkpt>
      <trkpt lat="45.75553" lon="4.6335">
        <ele>654</ele>
        <time>2012-12-29T09:28:52Z</time>
      </trkpt>
      <trkpt lat="45.75553" lon="4.63341">
        <ele>654</ele>
        <time>2012-12-29T09:28:56Z</time>
      </trkpt>
      <trkpt lat="45.75553" lon="4.63332">
        <ele>656</ele>
        <time>2012-12-29T09:29:00Z</time>
      </trkpt>
      <trkpt lat="45.75553" lon="4.63321">
        <ele>657</ele>
        <time>2012-12-29T09:29:05Z</time>
      </trkpt>
      <trkpt lat="45.75556" lon="4.63308">
        <ele>657</ele>
        <time>2012-12-29T09:29:11Z</time>
      </trkpt>
      <trkpt lat="45.75557" lon="4.63304">
        <ele>657</ele>
        <time>2012-12-29T09:29:13Z</time>
      </trkpt>
      <trkpt lat="45.7556" lon="4.63291">
        <ele>657</ele>
        <time>2012-12-29T09:29:20Z</time>
      </trkpt>
      <trkpt lat="45.75561" lon="4.63287">
        <ele>657</ele>
        <time>2012-12-29T09:29:22Z</time>
      </trkpt>
      <trkpt lat="45.75562" lon="4.6328">
        <ele>656</ele>
        <time>2012-12-29T09:29:25Z</time>
      </trkpt>
      <trkpt lat="45.75565" lon="4.63263">
        <ele>654</ele>
        <time>2012-12-29T09:29:34Z</time>
      </trkpt>
      <trkpt lat="45.75568" lon="4.63256">
        <ele>652</ele>
        <time>2012-12-29T09:29:38Z</time>
      </trkpt>
      <trkpt lat="45.7557" lon="4.63249">
        <ele>653</ele>
        <time>2012-12-29T09:29:42Z</time>
      </trkpt>
      <trkpt lat="45.75576" lon="4.63234">
        <ele>655</ele>
        <time>2012-12-29T09:29:51Z</time>
      </trkpt>
      <trkpt lat="45.75576" lon="4.63232">
        <ele>655</ele>
        <time>2012-12-29T09:29:52Z</time>
      </trkpt>
      <trkpt lat="45.75577" lon="4.63227">
        <ele>657</ele>
        <time>2012-12-29T09:29:55Z</time>
      </trkpt>
      <trkpt lat="45.75582" lon="4.63217">
        <ele>658</ele>
        <time>2012-12-29T09:30:04Z</time>
      </trkpt>
      <trkpt lat="45.75582" lon="4.63216">
        <ele>658</ele>
        <time>2012-12-29T09:30:05Z</time>
      </trkpt>
      <trkpt lat="45.75584" lon="4.63213">
        <ele>640</ele>
        <time>2012-12-29T09:30:07Z</time>
      </trkpt>
      <trkpt lat="45.75587" lon="4.63207">
        <ele>640</ele>
        <time>2012-12-29T09:30:11Z</time>
      </trkpt>
      <trkpt lat="45.75591" lon="4.63199">
        <ele>640</ele>
        <time>2012-12-29T09:30:15Z</time>
      </trkpt>
      <trkpt lat="45.75592" lon="4.63196">
        <ele>641</ele>
        <time>2012-12-29T09:30:17Z</time>
      </trkpt>
      <trkpt lat="45.75594" lon="4.63185">
        <ele>642</ele>
        <time>2012-12-29T09:30:23Z</time>
      </trkpt>
      <trkpt lat="45.756" lon="4.63173">
        <ele>643</ele>
        <time>2012-12-29T09:30:30Z</time>
      </trkpt>
      <trkpt lat="45.75607" lon="4.63159">
        <ele>648</ele>
        <time>2012-12-29T09:30:38Z</time>
      </trkpt>
      <trkpt lat="45.75607" lon="4.63156">
        <ele>648</ele>
        <time>2012-12-29T09:30:41Z</time>
      </trkpt>
      <trkpt lat="45.75608" lon="4.63153">
        <ele>648</ele>
        <time>2012-12-29T09:30:46Z</time>
      </trkpt>
      <trkpt lat="45.75611" lon="4.63148">
        <ele>648</ele>
        <time>2012-12-29T09:30:51Z</time>
      </trkpt>
      <trkpt lat="45.75613" lon="4.63145">
        <ele>648</ele>
        <time>2012-12-29T09:30:53Z</time>
      </trkpt>
      <trkpt lat="45.75617" lon="4.63139">
        <ele>648</ele>
        <time>2012-12-29T09:30:58Z</time>
      </trkpt>
      <trkpt lat="45.75622" lon="4.63134">
        <ele>648</ele>
        <time>2012-12-29T09:31:02Z</time>
      </trkpt>
      <trkpt lat="45.75628" lon="4.63127">
        <ele>648</ele>
        <time>2012-12-29T09:31:08Z</time>
      </trkpt>
      <trkpt lat="45.75632" lon="4.63116">
        <ele>649</ele>
        <time>2012-12-29T09:31:15Z</time>
      </trkpt>
      <trkpt lat="45.75633" lon="4.63113">
        <ele>649</ele>
        <time>2012-12-29T09:31:18Z</time>
      </trkpt>
      <trkpt lat="45.75635" lon="4.6311">
        <ele>649</ele>
        <time>2012-12-29T09:31:20Z</time>
      </trkpt>
      <trkpt lat="45.75643" lon="4.63108">
        <ele>648</ele>
        <time>2012-12-29T09:31:27Z</time>
      </trkpt>
      <trkpt lat="45.75655" lon="4.63114">
        <ele>647</ele>
        <time>2012-12-29T09:31:36Z</time>
      </trkpt>
      <trkpt lat="45.75665" lon="4.63118">
        <ele>646</ele>
        <time>2012-12-29T09:31:44Z</time>
      </trkpt>
      <trkpt lat="45.75672" lon="4.63118">
        <ele>645</ele>
        <time>2012-12-29T09:31:53Z</time>
      </trkpt>
      <trkpt lat="45.75679" lon="4.63125">
        <ele>644</ele>
        <time>2012-12-29T09:32:08Z</time>
      </trkpt>
      <trkpt lat="45.75679" lon="4.63136">
        <ele>642</ele>
        <time>2012-12-29T09:32:21Z</time>
      </trkpt>
      <trkpt lat="45.75684" lon="4.63141">
        <ele>642</ele>
        <time>2012-12-29T09:32:31Z</time>
      </trkpt>
      <trkpt lat="45.7569" lon="4.63143">
        <ele>642</ele>
        <time>2012-12-29T09:32:43Z</time>
      </trkpt>
      <trkpt lat="45.7569" lon="4.63141">
        <ele>643</ele>
        <time>2012-12-29T09:32:52Z</time>
      </trkpt>
      <trkpt lat="45.7569" lon="4.63138">
        <ele>643</ele>
        <time>2012-12-29T09:33:01Z</time>
      </trkpt>
      <trkpt lat="45.75691" lon="4.63135">
        <ele>644</ele>
        <time>2012-12-29T09:33:10Z</time>
      </trkpt>
      <trkpt lat="45.75696" lon="4.63134">
        <ele>644</ele>
        <time>2012-12-29T09:33:20Z</time>
      </trkpt>
      <trkpt lat="45.75699" lon="4.63135">
        <ele>645</ele>
        <time>2012-12-29T09:33:26Z</time>
      </trkpt>
      <trkpt lat="45.75706" lon="4.63141">
        <ele>644</ele>
        <time>2012-12-29T09:33:35Z</time>
      </trkpt>
      <trkpt lat="45.75709" lon="4.63144">
        <ele>644</ele>
        <time>2012-12-29T09:33:46Z</time>
      </trkpt>
      <trkpt lat="45.75711" lon="4.63153">
        <ele>644</ele>
        <time>2012-12-29T09:33:55Z</time>
      </trkpt>
      <trkpt lat="45.75715" lon="4.6316">
        <ele>644</ele>
        <time>2012-12-29T09:34:04Z</time>
      </trkpt>
      <trkpt lat="45.7572" lon="4.63168">
        <ele>633</ele>
        <time>2012-12-29T09:34:14Z</time>
      </trkpt>
      <trkpt lat="45.75725" lon="4.6317">
        <ele>634</ele>
        <time>2012-12-29T09:34:23Z</time>
      </trkpt>
      <trkpt lat="45.75733" lon="4.63175">
        <ele>635</ele>
        <time>2012-12-29T09:34:33Z</time>
      </trkpt>
      <trkpt lat="45.75741" lon="4.63177">
        <ele>637</ele>
        <time>2012-12-29T09:34:44Z</time>
      </trkpt>
      <trkpt lat="45.75748" lon="4.63177">
        <ele>638</ele>
        <time>2012-12-29T09:34:56Z</time>
      </trkpt>
      <trkpt lat="45.75752" lon="4.63179">
        <ele>642</ele>
        <time>2012-12-29T09:35:04Z</time>
      </trkpt>
      <trkpt lat="45.75756" lon="4.63177">
        <ele>642</ele>
        <time>2012-12-29T09:35:13Z</time>
      </trkpt>
      <trkpt lat="45.7576" lon="4.63173">
        <ele>643</ele>
        <time>2012-12-29T09:35:23Z</time>
      </trkpt>
      <trkpt lat="45.75764" lon="4.63171">
        <ele>643</ele>
        <time>2012-12-29T09:35:31Z</time>
      </trkpt>
      <trkpt lat="45.7577" lon="4.63169">
        <ele>643</ele>
        <time>2012-12-29T09:35:41Z</time>
      </trkpt>
      <trkpt lat="45.75774" lon="4.63168">
        <ele>643</ele>
        <time>2012-12-29T09:35:48Z</time>
      </trkpt>
      <trkpt lat="45.75777" lon="4.63171">
        <ele>643</ele>
        <time>2012-12-29T09:35:55Z</time>
      </trkpt>
      <trkpt lat="45.75784" lon="4.63173">
        <ele>644</ele>
        <time>2012-12-29T09:36:02Z</time>
      </trkpt>
      <trkpt lat="45.75789" lon="4.63172">
        <ele>645</ele>
        <time>2012-12-29T09:36:13Z</time>
      </trkpt>
      <trkpt lat="45.7579" lon="4.63169">
        <ele>645</ele>
        <time>2012-12-29T09:36:19Z</time>
      </trkpt>
      <trkpt lat="45.75793" lon="4.63168">
        <ele>645</ele>
        <time>2012-12-29T09:36:26Z</time>
      </trkpt>
      <trkpt lat="45.75794" lon="4.63176">
        <ele>645</ele>
        <time>2012-12-29T09:36:32Z</time>
      </trkpt>
      <trkpt lat="45.758" lon="4.63183">
        <ele>646</ele>
        <time>2012-12-29T09:36:41Z</time>
      </trkpt>
      <trkpt lat="45.75802" lon="4.63186">
        <ele>645</ele>
        <time>2012-12-29T09:36:51Z</time>
      </trkpt>
      <trkpt lat="45.75806" lon="4.63189">
        <ele>646</ele>
        <time>2012-12-29T09:37:03Z</time>
      </trkpt>
      <trkpt lat="45.75811" lon="4.63199">
        <ele>645</ele>
        <time>2012-12-29T09:37:12Z</time>
      </trkpt>
      <trkpt lat="45.75815" lon="4.63202">
        <ele>645</ele>
        <time>2012-12-29T09:37:16Z</time>
      </trkpt>
      <trkpt lat="45.75829" lon="4.63211">
        <ele>644</ele>
        <time>2012-12-29T09:37:28Z</time>
      </trkpt>
      <trkpt lat="45.75835" lon="4.63216">
        <ele>657</ele>
        <time>2012-12-29T09:37:38Z</time>
      </trkpt>
      <trkpt lat="45.75843" lon="4.63224">
        <ele>656</ele>
        <time>2012-12-29T09:37:48Z</time>
      </trkpt>
      <trkpt lat="45.7585" lon="4.63234">
        <ele>655</ele>
        <time>2012-12-29T09:37:59Z</time>
      </trkpt>
      <trkpt lat="45.75859" lon="4.63242">
        <ele>656</ele>
        <time>2012-12-29T09:38:06Z</time>
      </trkpt>
      <trkpt lat="45.75864" lon="4.63247">
        <ele>657</ele>
        <time>2012-12-29T09:38:09Z</time>
      </trkpt>
      <trkpt lat="45.75868" lon="4.63253">
        <ele>645</ele>
        <time>2012-12-29T09:38:12Z</time>
      </trkpt>
      <trkpt lat="45.75873" lon="4.6326">
        <ele>645</ele>
        <time>2012-12-29T09:38:19Z</time>
      </trkpt>
      <trkpt lat="45.75879" lon="4.63269">
        <ele>646</ele>
        <time>2012-12-29T09:38:27Z</time>
      </trkpt>
      <trkpt lat="45.75885" lon="4.63278">
        <ele>645</ele>
        <time>2012-12-29T09:38:34Z</time>
      </trkpt>
      <trkpt lat="45.75892" lon="4.63283">
        <ele>646</ele>
        <time>2012-12-29T09:38:43Z</time>
      </trkpt>
      <trkpt lat="45.75901" lon="4.63292">
        <ele>645</ele>
        <time>2012-12-29T09:38:52Z</time>
      </trkpt>
      <trkpt lat="45.75908" lon="4.63304">
        <ele>644</ele>
        <time>2012-12-29T09:39:00Z</time>
      </trkpt>
      <trkpt lat="45.75914" lon="4.63315">
        <ele>642</ele>
        <time>2012-12-29T09:39:08Z</time>
      </trkpt>
      <trkpt lat="45.75915" lon="4.63319">
        <ele>642</ele>
        <time>2012-12-29T09:39:10Z</time>
      </trkpt>
      <trkpt lat="45.75918" lon="4.63332">
        <ele>642</ele>
        <time>2012-12-29T09:39:17Z</time>
      </trkpt>
      <trkpt lat="45.75918" lon="4.63345">
        <ele>638</ele>
        <time>2012-12-29T09:39:27Z</time>
      </trkpt>
      <trkpt lat="45.75918" lon="4.63347">
        <ele>638</ele>
        <time>2012-12-29T09:39:28Z</time>
      </trkpt>
      <trkpt lat="45.75913" lon="4.6336">
        <ele>627</ele>
        <time>2012-12-29T09:39:34Z</time>
      </trkpt>
      <trkpt lat="45.75907" lon="4.63371">
        <ele>624</ele>
        <time>2012-12-29T09:39:41Z</time>
      </trkpt>
      <trkpt lat="45.75902" lon="4.6338">
        <ele>622</ele>
        <time>2012-12-29T09:39:47Z</time>
      </trkpt>
      <trkpt lat="45.759" lon="4.63387">
        <ele>621</ele>
        <time>2012-12-29T09:39:54Z</time>
      </trkpt>
      <trkpt lat="45.75902" lon="4.63395">
        <ele>621</ele>
        <time>2012-12-29T09:40:03Z</time>
      </trkpt>
      <trkpt lat="45.75902" lon="4.634">
        <ele>620</ele>
        <time>2012-12-29T09:40:09Z</time>
      </trkpt>
      <trkpt lat="45.75897" lon="4.63406">
        <ele>619</ele>
        <time>2012-12-29T09:40:18Z</time>
      </trkpt>
      <trkpt lat="45.75893" lon="4.6341">
        <ele>619</ele>
        <time>2012-12-29T09:40:26Z</time>
      </trkpt>
      <trkpt lat="45.7589" lon="4.63415">
        <ele>618</ele>
        <time>2012-12-29T09:40:33Z</time>
      </trkpt>
      <trkpt lat="45.75883" lon="4.63417">
        <ele>617</ele>
        <time>2012-12-29T09:40:41Z</time>
      </trkpt>
      <trkpt lat="45.75878" lon="4.63418">
        <ele>604</ele>
        <time>2012-12-29T09:40:49Z</time>
      </trkpt>
      <trkpt lat="45.75876" lon="4.63421">
        <ele>603</ele>
        <time>2012-12-29T09:40:57Z</time>
      </trkpt>
      <trkpt lat="45.75869" lon="4.63421">
        <ele>602</ele>
        <time>2012-12-29T09:41:07Z</time>
      </trkpt>
      <trkpt lat="45.7586" lon="4.63416">
        <ele>612</ele>
        <time>2012-12-29T09:41:17Z</time>
      </trkpt>
      <trkpt lat="45.75858" lon="4.63415">
        <ele>612</ele>
        <time>2012-12-29T09:41:19Z</time>
      </trkpt>
      <trkpt lat="45.75854" lon="4.63409">
        <ele>611</ele>
        <time>2012-12-29T09:41:28Z</time>
      </trkpt>
      <trkpt lat="45.75852" lon="4.63409">
        <ele>610</ele>
        <time>2012-12-29T09:41:30Z</time>
      </trkpt>
      <trkpt lat="45.75845" lon="4.63408">
        <ele>608</ele>
        <time>2012-12-29T09:41:39Z</time>
      </trkpt>
      <trkpt lat="45.75838" lon="4.63408">
        <ele>606</ele>
        <time>2012-12-29T09:41:46Z</time>
      </trkpt>
      <trkpt lat="45.75834" lon="4.6341">
        <ele>604</ele>
        <time>2012-12-29T09:41:51Z</time>
      </trkpt>
      <trkpt lat="45.75832" lon="4.63412">
        <ele>600</ele>
        <time>2012-12-29T09:41:53Z</time>
      </trkpt>
      <trkpt lat="45.75825" lon="4.63417">
        <ele>595</ele>
        <time>2012-12-29T09:42:02Z</time>
      </trkpt>
      <trkpt lat="45.75825" lon="4.63417">
        <ele>595</ele>
        <time>2012-12-29T09:42:03Z</time>
      </trkpt>
      <trkpt lat="45.75822" lon="4.63419">
        <ele>594</ele>
        <time>2012-12-29T09:42:07Z</time>
      </trkpt>
      <trkpt lat="45.75816" lon="4.63422">
        <ele>592</ele>
        <time>2012-12-29T09:42:13Z</time>
      </trkpt>
      <trkpt lat="45.7581" lon="4.63428">
        <ele>590</ele>
        <time>2012-12-29T09:42:19Z</time>
      </trkpt>
      <trkpt lat="45.75802" lon="4.63432">
        <ele>588</ele>
        <time>2012-12-29T09:42:26Z</time>
      </trkpt>
      <trkpt lat="45.758" lon="4.63432">
        <ele>588</ele>
        <time>2012-12-29T09:42:27Z</time>
      </trkpt>
      <trkpt lat="45.75794" lon="4.63434">
        <ele>587</ele>
        <time>2012-12-29T09:42:31Z</time>
      </trkpt>
      <trkpt lat="45.75791" lon="4.63434">
        <ele>587</ele>
        <time>2012-12-29T09:42:33Z</time>
      </trkpt>
      <trkpt lat="45.75781" lon="4.63433">
        <ele>586</ele>
        <time>2012-12-29T09:42:43Z</time>
      </trkpt>
      <trkpt lat="45.75775" lon="4.63433">
        <ele>586</ele>
        <time>2012-12-29T09:42:51Z</time>
      </trkpt>
      <trkpt lat="45.7577" lon="4.63434">
        <ele>586</ele>
        <time>2012-12-29T09:42:59Z</time>
      </trkpt>
      <trkpt lat="45.7576" lon="4.63431">
        <ele>586</ele>
        <time>2012-12-29T09:43:09Z</time>
      </trkpt>
      <trkpt lat="45.75752" lon="4.63429">
        <ele>586</ele>
        <time>2012-12-29T09:43:17Z</time>
      </trkpt>
      <trkpt lat="45.75745" lon="4.63432">
        <ele>588</ele>
        <time>2012-12-29T09:43:25Z</time>
      </trkpt>
      <trkpt lat="45.75746" lon="4.63434">
        <ele>589</ele>
        <time>2012-12-29T09:43:33Z</time>
      </trkpt>
      <trkpt lat="45.75749" lon="4.63438">
        <ele>589</ele>
        <time>2012-12-29T09:43:42Z</time>
      </trkpt>
      <trkpt lat="45.75748" lon="4.63442">
        <ele>589</ele>
        <time>2012-12-29T09:43:46Z</time>
      </trkpt>
      <trkpt lat="45.75749" lon="4.6345">
        <ele>588</ele>
        <time>2012-12-29T09:43:52Z</time>
      </trkpt>
      <trkpt lat="45.7575" lon="4.63452">
        <ele>584</ele>
        <time>2012-12-29T09:43:54Z</time>
      </trkpt>
      <trkpt lat="45.75753" lon="4.63457">
        <ele>584</ele>
        <time>2012-12-29T09:43:58Z</time>
      </trkpt>
      <trkpt lat="45.75758" lon="4.63464">
        <ele>583</ele>
        <time>2012-12-29T09:44:03Z</time>
      </trkpt>
      <trkpt lat="45.7576" lon="4.63472">
        <ele>582</ele>
        <time>2012-12-29T09:44:07Z</time>
      </trkpt>
      <trkpt lat="45.7576" lon="4.63484">
        <ele>581</ele>
        <time>2012-12-29T09:44:12Z</time>
      </trkpt>
      <trkpt lat="45.75765" lon="4.63503">
        <ele>575</ele>
        <time>2012-12-29T09:44:22Z</time>
      </trkpt>
      <trkpt lat="45.7577" lon="4.63517">
        <ele>574</ele>
        <time>2012-12-29T09:44:30Z</time>
      </trkpt>
      <trkpt lat="45.75773" lon="4.63526">
        <ele>573</ele>
        <time>2012-12-29T09:44:37Z</time>
      </trkpt>
      <trkpt lat="45.75773" lon="4.63533">
        <ele>573</ele>
        <time>2012-12-29T09:44:41Z</time>
      </trkpt>
      <trkpt lat="45.75775" lon="4.63552">
        <ele>572</ele>
        <time>2012-12-29T09:44:49Z</time>
      </trkpt>
      <trkpt lat="45.75775" lon="4.63554">
        <ele>572</ele>
        <time>2012-12-29T09:44:50Z</time>
      </trkpt>
      <trkpt lat="45.75777" lon="4.6356">
        <ele>572</ele>
        <time>2012-12-29T09:44:53Z</time>
      </trkpt>
      <trkpt lat="45.75779" lon="4.63567">
        <ele>571</ele>
        <time>2012-12-29T09:44:57Z</time>
      </trkpt>
      <trkpt lat="45.7578" lon="4.63582">
        <ele>571</ele>
        <time>2012-12-29T09:45:04Z</time>
      </trkpt>
      <trkpt lat="45.7578" lon="4.63589">
        <ele>565</ele>
        <time>2012-12-29T09:45:08Z</time>
      </trkpt>
      <trkpt lat="45.7578" lon="4.63598">
        <ele>565</ele>
        <time>2012-12-29T09:45:13Z</time>
      </trkpt>
      <trkpt lat="45.7578" lon="4.6361">
        <ele>564</ele>
        <time>2012-12-29T09:45:19Z</time>
      </trkpt>
      <trkpt lat="45.75779" lon="4.63623">
        <ele>563</ele>
        <time>2012-12-29T09:45:26Z</time>
      </trkpt>
      <trkpt lat="45.75779" lon="4.63626">
        <ele>563</ele>
        <time>2012-12-29T09:45:27Z</time>
      </trkpt>
      <trkpt lat="45.75776" lon="4.63645">
        <ele>563</ele>
        <time>2012-12-29T09:45:35Z</time>
      </trkpt>
      <trkpt lat="45.75776" lon="4.63656">
        <ele>563</ele>
        <time>2012-12-29T09:45:39Z</time>
      </trkpt>
      <trkpt lat="45.75774" lon="4.63662">
        <ele>563</ele>
        <time>2012-12-29T09:45:42Z</time>
      </trkpt>
      <trkpt lat="45.75771" lon="4.63673">
        <ele>560</ele>
        <time>2012-12-29T09:45:47Z</time>
      </trkpt>
      <trkpt lat="45.75768" lon="4.63691">
        <ele>558</ele>
        <time>2012-12-29T09:45:55Z</time>
      </trkpt>
      <trkpt lat="45.75768" lon="4.63696">
        <ele>558</ele>
        <time>2012-12-29T09:45:58Z</time>
      </trkpt>
      <trkpt lat="45.75769" lon="4.63711">
        <ele>556</ele>
        <time>2012-12-29T09:46:05Z</time>
      </trkpt>
      <trkpt lat="45.75769" lon="4.63722">
        <ele>556</ele>
        <time>2012-12-29T09:46:10Z</time>
      </trkpt>
      <trkpt lat="45.75764" lon="4.63737">
        <ele>556</ele>
        <time>2012-12-29T09:46:18Z</time>
      </trkpt>
      <trkpt lat="45.75764" lon="4.63739">
        <ele>557</ele>
        <time>2012-12-29T09:46:20Z</time>
      </trkpt>
      <trkpt lat="45.75764" lon="4.63746">
        <ele>557</ele>
        <time>2012-12-29T09:46:24Z</time>
      </trkpt>
      <trkpt lat="45.75761" lon="4.63756">
        <ele>554</ele>
        <time>2012-12-29T09:46:32Z</time>
      </trkpt>
      <trkpt lat="45.7576" lon="4.63772">
        <ele>551</ele>
        <time>2012-12-29T09:46:41Z</time>
      </trkpt>
      <trkpt lat="45.7576" lon="4.63776">
        <ele>551</ele>
        <time>2012-12-29T09:46:44Z</time>
      </trkpt>
      <trkpt lat="45.75759" lon="4.63786">
        <ele>549</ele>
        <time>2012-12-29T09:46:51Z</time>
      </trkpt>
      <trkpt lat="45.75759" lon="4.63795">
        <ele>548</ele>
        <time>2012-12-29T09:46:57Z</time>
      </trkpt>
      <trkpt lat="45.75762" lon="4.63807">
        <ele>548</ele>
        <time>2012-12-29T09:47:06Z</time>
      </trkpt>
      <trkpt lat="45.75764" lon="4.63819">
        <ele>547</ele>
        <time>2012-12-29T09:47:12Z</time>
      </trkpt>
      <trkpt lat="45.75766" lon="4.63828">
        <ele>547</ele>
        <time>2012-12-29T09:47:16Z</time>
      </trkpt>
      <trkpt lat="45.75764" lon="4.63836">
        <ele>543</ele>
        <time>2012-12-29T09:47:20Z</time>
      </trkpt>
      <trkpt lat="45.75755" lon="4.63847">
        <ele>543</ele>
        <time>2012-12-29T09:47:27Z</time>
      </trkpt>
      <trkpt lat="45.75743" lon="4.63851">
        <ele>546</ele>
        <time>2012-12-29T09:47:34Z</time>
      </trkpt>
      <trkpt lat="45.75729" lon="4.63847">
        <ele>547</ele>
        <time>2012-12-29T09:47:44Z</time>
      </trkpt>
      <trkpt lat="45.75722" lon="4.63851">
        <ele>547</ele>
        <time>2012-12-29T09:47:54Z</time>
      </trkpt>
      <trkpt lat="45.75719" lon="4.63859">
        <ele>547</ele>
        <time>2012-12-29T09:48:01Z</time>
      </trkpt>
      <trkpt lat="45.75718" lon="4.6386">
        <ele>547</ele>
        <time>2012-12-29T09:48:02Z</time>
      </trkpt>
      <trkpt lat="45.75717" lon="4.63863">
        <ele>547</ele>
        <time>2012-12-29T09:48:04Z</time>
      </trkpt>
      <trkpt lat="45.75715" lon="4.6387">
        <ele>546</ele>
        <time>2012-12-29T09:48:11Z</time>
      </trkpt>
      <trkpt lat="45.75715" lon="4.63871">
        <ele>546</ele>
        <time>2012-12-29T09:48:13Z</time>
      </trkpt>
      <trkpt lat="45.75713" lon="4.63876">
        <ele>546</ele>
        <time>2012-12-29T09:48:16Z</time>
      </trkpt>
      <trkpt lat="45.75713" lon="4.63885">
        <ele>545</ele>
        <time>2012-12-29T09:48:23Z</time>
      </trkpt>
      <trkpt lat="45.75709" lon="4.63899">
        <ele>544</ele>
        <time>2012-12-29T09:48:31Z</time>
      </trkpt>
      <trkpt lat="45.75707" lon="4.63913">
        <ele>544</ele>
        <time>2012-12-29T09:48:38Z</time>
      </trkpt>
      <trkpt lat="45.75705" lon="4.63924">
        <ele>534</ele>
        <time>2012-12-29T09:48:43Z</time>
      </trkpt>
      <trkpt lat="45.75703" lon="4.6393">
        <ele>534</ele>
        <time>2012-12-29T09:48:47Z</time>
      </trkpt>
      <trkpt lat="45.75703" lon="4.63935">
        <ele>534</ele>
        <time>2012-12-29T09:48:51Z</time>
      </trkpt>
      <trkpt lat="45.75702" lon="4.6394">
        <ele>533</ele>
        <time>2012-12-29T09:48:54Z</time>
      </trkpt>
      <trkpt lat="45.75699" lon="4.63949">
        <ele>533</ele>
        <time>2012-12-29T09:49:01Z</time>
      </trkpt>
      <trkpt lat="45.75694" lon="4.63959">
        <ele>532</ele>
        <time>2012-12-29T09:49:08Z</time>
      </trkpt>
      <trkpt lat="45.75688" lon="4.6397">
        <ele>530</ele>
        <time>2012-12-29T09:49:18Z</time>
      </trkpt>
      <trkpt lat="45.75688" lon="4.63975">
        <ele>530</ele>
        <time>2012-12-29T09:49:29Z</time>
      </trkpt>
      <trkpt lat="45.7569" lon="4.63976">
        <ele>530</ele>
        <time>2012-12-29T09:49:36Z</time>
      </trkpt>
      <trkpt lat="45.7569" lon="4.63978">
        <ele>530</ele>
        <time>2012-12-29T09:49:38Z</time>
      </trkpt>
      <trkpt lat="45.75688" lon="4.6399">
        <ele>528</ele>
        <time>2012-12-29T09:49:47Z</time>
      </trkpt>
      <trkpt lat="45.75687" lon="4.63998">
        <ele>528</ele>
        <time>2012-12-29T09:49:55Z</time>
      </trkpt>
      <trkpt lat="45.75687" lon="4.64">
        <ele>521</ele>
        <time>2012-12-29T09:50:03Z</time>
      </trkpt>
      <trkpt lat="45.75688" lon="4.64004">
        <ele>521</ele>
        <time>2012-12-29T09:50:14Z</time>
      </trkpt>
      <trkpt lat="45.75685" lon="4.64008">
        <ele>521</ele>
        <time>2012-12-29T09:50:22Z</time>
      </trkpt>
      <trkpt lat="45.75684" lon="4.64011">
        <ele>521</ele>
        <time>2012-12-29T09:50:31Z</time>
      </trkpt>
      <trkpt lat="45.75685" lon="4.64015">
        <ele>520</ele>
        <time>2012-12-29T09:50:44Z</time>
      </trkpt>
      <trkpt lat="45.7569" lon="4.6402">
        <ele>519</ele>
        <time>2012-12-29T09:50:55Z</time>
      </trkpt>
      <trkpt lat="45.75693" lon="4.64026">
        <ele>519</ele>
        <time>2012-12-29T09:51:03Z</time>
      </trkpt>
      <trkpt lat="45.75696" lon="4.64029">
        <ele>518</ele>
        <time>2012-12-29T09:51:09Z</time>
      </trkpt>
      <trkpt lat="45.75699" lon="4.6403">
        <ele>518</ele>
        <time>2012-12-29T09:51:14Z</time>
      </trkpt>
      <trkpt lat="45.75704" lon="4.64024">
        <ele>518</ele>
        <time>2012-12-29T09:51:23Z</time>
      </trkpt>
      <trkpt lat="45.75708" lon="4.64019">
        <ele>519</ele>
        <time>2012-12-29T09:51:28Z</time>
      </trkpt>
      <trkpt lat="45.75709" lon="4.64014">
        <ele>519</ele>
        <time>2012-12-29T09:51:32Z</time>
      </trkpt>
      <trkpt lat="45.75716" lon="4.64004">
        <ele>519</ele>
        <time>2012-12-29T09:51:39Z</time>
      </trkpt>
      <trkpt lat="45.75724" lon="4.63999">
        <ele>527</ele>
        <time>2012-12-29T09:51:45Z</time>
      </trkpt>
      <trkpt lat="45.75725" lon="4.63997">
        <ele>526</ele>
        <time>2012-12-29T09:51:46Z</time>
      </trkpt>
      <trkpt lat="45.7573" lon="4.63989">
        <ele>526</ele>
        <time>2012-12-29T09:51:52Z</time>
      </trkpt>
      <trkpt lat="45.75736" lon="4.63982">
        <ele>527</ele>
        <time>2012-12-29T09:51:58Z</time>
      </trkpt>
      <trkpt lat="45.75739" lon="4.63979">
        <ele>527</ele>
        <time>2012-12-29T09:52:01Z</time>
      </trkpt>
      <trkpt lat="45.75742" lon="4.63978">
        <ele>527</ele>
        <time>2012-12-29T09:52:03Z</time>
      </trkpt>
      <trkpt lat="45.75746" lon="4.63976">
        <ele>527</ele>
        <time>2012-12-29T09:52:07Z</time>
      </trkpt>
      <trkpt lat="45.75748" lon="4.63974">
        <ele>527</ele>
        <time>2012-12-29T09:52:09Z</time>
      </trkpt>
      <trkpt lat="45.75756" lon="4.63965">
        <ele>529</ele>
        <time>2012-12-29T09:52:16Z</time>
      </trkpt>
      <trkpt lat="45.75763" lon="4.63959">
        <ele>530</ele>
        <time>2012-12-29T09:52:22Z</time>
      </trkpt>
      <trkpt lat="45.75765" lon="4.63957">
        <ele>530</ele>
        <time>2012-12-29T09:52:24Z</time>
      </trkpt>
      <trkpt lat="45.75768" lon="4.63957">
        <ele>530</ele>
        <time>2012-12-29T09:52:26Z</time>
      </trkpt>
      <trkpt lat="45.75771" lon="4.63958">
        <ele>530</ele>
        <time>2012-12-29T09:52:28Z</time>
      </trkpt>
      <trkpt lat="45.75774" lon="4.63965">
        <ele>530</ele>
        <time>2012-12-29T09:52:32Z</time>
      </trkpt>
      <trkpt lat="45.75768" lon="4.63979">
        <ele>528</ele>
        <time>2012-12-29T09:52:40Z</time>
      </trkpt>
      <trkpt lat="45.75764" lon="4.63995">
        <ele>525</ele>
        <time>2012-12-29T09:52:48Z</time>
      </trkpt>
      <trkpt lat="45.75761" lon="4.64007">
        <ele>522</ele>
        <time>2012-12-29T09:52:56Z</time>
      </trkpt>
      <trkpt lat="45.7576" lon="4.64012">
        <ele>522</ele>
        <time>2012-12-29T09:52:59Z</time>
      </trkpt>
      <trkpt lat="45.75755" lon="4.64021">
        <ele>522</ele>
        <time>2012-12-29T09:53:05Z</time>
      </trkpt>
      <trkpt lat="45.75752" lon="4.6403">
        <ele>522</ele>
        <time>2012-12-29T09:53:09Z</time>
      </trkpt>
      <trkpt lat="45.75746" lon="4.64044">
        <ele>517</ele>
        <time>2012-12-29T09:53:17Z</time>
      </trkpt>
      <trkpt lat="45.7574" lon="4.64061">
        <ele>516</ele>
        <time>2012-12-29T09:53:26Z</time>
      </trkpt>
      <trkpt lat="45.75735" lon="4.64075">
        <ele>515</ele>
        <time>2012-12-29T09:53:34Z</time>
      </trkpt>
      <trkpt lat="45.75731" lon="4.64091">
        <ele>511</ele>
        <time>2012-12-29T09:53:44Z</time>
      </trkpt>
      <trkpt lat="45.75731" lon="4.64096">
        <ele>511</ele>
        <time>2012-12-29T09:53:47Z</time>
      </trkpt>
      <trkpt lat="45.75732" lon="4.64109">
        <ele>510</ele>
        <time>2012-12-29T09:53:54Z</time>
      </trkpt>
      <trkpt lat="45.75737" lon="4.64118">
        <ele>509</ele>
        <time>2012-12-29T09:54:00Z</time>
      </trkpt>
      <trkpt lat="45.75745" lon="4.64124">
        <ele>509</ele>
        <time>2012-12-29T09:54:07Z</time>
      </trkpt>
      <trkpt lat="45.75748" lon="4.64125">
        <ele>509</ele>
        <time>2012-12-29T09:54:10Z</time>
      </trkpt>
      <trkpt lat="45.75757" lon="4.64133">
        <ele>512</ele>
        <time>2012-12-29T09:54:18Z</time>
      </trkpt>
      <trkpt lat="45.75767" lon="4.64138">
        <ele>512</ele>
        <time>2012-12-29T09:54:26Z</time>
      </trkpt>
      <trkpt lat="45.75776" lon="4.64142">
        <ele>512</ele>
        <time>2012-12-29T09:54:33Z</time>
      </trkpt>
      <trkpt lat="45.75785" lon="4.64145">
        <ele>513</ele>
        <time>2012-12-29T09:54:40Z</time>
      </trkpt>
      <trkpt lat="45.75798" lon="4.64151">
        <ele>513</ele>
        <time>2012-12-29T09:54:50Z</time>
      </trkpt>
      <trkpt lat="45.75808" lon="4.64155">
        <ele>513</ele>
        <time>2012-12-29T09:54:58Z</time>
      </trkpt>
      <trkpt lat="45.75816" lon="4.64159">
        <ele>512</ele>
        <time>2012-12-29T09:55:04Z</time>
      </trkpt>
      <trkpt lat="45.75824" lon="4.64162">
        <ele>512</ele>
        <time>2012-12-29T09:55:10Z</time>
      </trkpt>
      <trkpt lat="45.75837" lon="4.64166">
        <ele>513</ele>
        <time>2012-12-29T09:55:21Z</time>
      </trkpt>
      <trkpt lat="45.7584" lon="4.64166">
        <ele>515</ele>
        <time>2012-12-29T09:55:24Z</time>
      </trkpt>
      <trkpt lat="45.7585" lon="4.64165">
        <ele>519</ele>
        <time>2012-12-29T09:55:33Z</time>
      </trkpt>
      <trkpt lat="45.75862" lon="4.64165">
        <ele>523</ele>
        <time>2012-12-29T09:55:41Z</time>
      </trkpt>
      <trkpt lat="45.75865" lon="4.64164">
        <ele>523</ele>
        <time>2012-12-29T09:55:43Z</time>
      </trkpt>
      <trkpt lat="45.75874" lon="4.64168">
        <ele>514</ele>
        <time>2012-12-29T09:55:50Z</time>
      </trkpt>
      <trkpt lat="45.75884" lon="4.64175">
        <ele>515</ele>
        <time>2012-12-29T09:55:57Z</time>
      </trkpt>
      <trkpt lat="45.75894" lon="4.64183">
        <ele>517</ele>
        <time>2012-12-29T09:56:05Z</time>
      </trkpt>
      <trkpt lat="45.759" lon="4.64202">
        <ele>515</ele>
        <time>2012-12-29T09:56:14Z</time>
      </trkpt>
      <trkpt lat="45.75906" lon="4.64226">
        <ele>513</ele>
        <time>2012-12-29T09:56:24Z</time>
      </trkpt>
      <trkpt lat="45.75913" lon="4.64243">
        <ele>513</ele>
        <time>2012-12-29T09:56:33Z</time>
      </trkpt>
      <trkpt lat="45.75919" lon="4.64251">
        <ele>515</ele>
        <time>2012-12-29T09:56:39Z</time>
      </trkpt>
      <trkpt lat="45.75927" lon="4.64258">
        <ele>518</ele>
        <time>2012-12-29T09:56:46Z</time>
      </trkpt>
      <trkpt lat="45.75932" lon="4.64267">
        <ele>519</ele>
        <time>2012-12-29T09:56:52Z</time>
      </trkpt>
      <trkpt lat="45.75937" lon="4.64283">
        <ele>520</ele>
        <time>2012-12-29T09:57:01Z</time>
      </trkpt>
      <trkpt lat="45.75941" lon="4.64294">
        <ele>520</ele>
        <time>2012-12-29T09:57:07Z</time>
      </trkpt>
      <trkpt lat="45.75945" lon="4.64306">
        <ele>519</ele>
        <time>2012-12-29T09:57:14Z</time>
      </trkpt>
      <trkpt lat="45.75949" lon="4.64315">
        <ele>520</ele>
        <time>2012-12-29T09:57:20Z</time>
      </trkpt>
      <trkpt lat="45.75957" lon="4.64328">
        <ele>521</ele>
        <time>2012-12-29T09:57:29Z</time>
      </trkpt>
      <trkpt lat="45.75962" lon="4.64338">
        <ele>515</ele>
        <time>2012-12-29T09:57:36Z</time>
      </trkpt>
      <trkpt lat="45.75968" lon="4.64345">
        <ele>516</ele>
        <time>2012-12-29T09:57:42Z</time>
      </trkpt>
      <trkpt lat="45.75975" lon="4.64351">
        <ele>517</ele>
        <time>2012-12-29T09:57:49Z</time>
      </trkpt>
      <trkpt lat="45.75982" lon="4.64359">
        <ele>517</ele>
        <time>2012-12-29T09:57:57Z</time>
      </trkpt>
      <trkpt lat="45.75989" lon="4.64368">
        <ele>517</ele>
        <time>2012-12-29T09:58:05Z</time>
      </trkpt>
      <trkpt lat="45.75999" lon="4.64373">
        <ele>517</ele>
        <time>2012-12-29T09:58:13Z</time>
      </trkpt>
      <trkpt lat="45.76001" lon="4.64374">
        <ele>530</ele>
        <time>2012-12-29T09:58:15Z</time>
      </trkpt>
      <trkpt lat="45.7601" lon="4.64378">
        <ele>530</ele>
        <time>2012-12-29T09:58:23Z</time>
      </trkpt>
      <trkpt lat="45.76016" lon="4.64383">
        <ele>530</ele>
        <time>2012-12-29T09:58:28Z</time>
      </trkpt>
      <trkpt lat="45.76019" lon="4.64385">
        <ele>530</ele>
        <time>2012-12-29T09:58:31Z</time>
      </trkpt>
      <trkpt lat="45.76024" lon="4.64382">
        <ele>531</ele>
        <time>2012-12-29T09:58:37Z</time>
      </trkpt>
      <trkpt lat="45.76021" lon="4.64374">
        <ele>531</ele>
        <time>2012-12-29T09:58:45Z</time>
      </trkpt>
      <trkpt lat="45.76019" lon="4.64364">
        <ele>532</ele>
        <time>2012-12-29T09:58:52Z</time>
      </trkpt>
      <trkpt lat="45.76017" lon="4.64355">
        <ele>533</ele>
        <time>2012-12-29T09:58:58Z</time>
      </trkpt>
      <trkpt lat="45.76017" lon="4.64347">
        <ele>533</ele>
        <time>2012-12-29T09:59:04Z</time>
      </trkpt>
      <trkpt lat="45.76018" lon="4.64335">
        <ele>533</ele>
        <time>2012-12-29T09:59:12Z</time>
      </trkpt>
      <trkpt lat="45.76018" lon="4.64324">
        <ele>540</ele>
        <time>2012-12-29T09:59:19Z</time>
      </trkpt>
      <trkpt lat="45.7602" lon="4.6431">
        <ele>542</ele>
        <time>2012-12-29T09:59:28Z</time>
      </trkpt>
      <trkpt lat="45.7602" lon="4.64304">
        <ele>543</ele>
        <time>2012-12-29T09:59:31Z</time>
      </trkpt>
      <trkpt lat="45.76019" lon="4.64288">
        <ele>544</ele>
        <time>2012-12-29T09:59:40Z</time>
      </trkpt>
      <trkpt lat="45.76018" lon="4.64272">
        <ele>544</ele>
        <time>2012-12-29T09:59:50Z</time>
      </trkpt>
      <trkpt lat="45.76017" lon="4.6426">
        <ele>544</ele>
        <time>2012-12-29T09:59:58Z</time>
      </trkpt>
      <trkpt lat="45.76017" lon="4.64258">
        <ele>544</ele>
        <time>2012-12-29T09:59:59Z</time>
      </trkpt>
      <trkpt lat="45.76019" lon="4.64253">
        <ele>544</ele>
        <time>2012-12-29T10:00:02Z</time>
      </trkpt>
      <trkpt lat="45.76025" lon="4.64251">
        <ele>545</ele>
        <time>2012-12-29T10:00:07Z</time>
      </trkpt>
      <trkpt lat="45.76034" lon="4.64252">
        <ele>547</ele>
        <time>2012-12-29T10:00:15Z</time>
      </trkpt>
      <trkpt lat="45.7604" lon="4.64246">
        <ele>556</ele>
        <time>2012-12-29T10:00:23Z</time>
      </trkpt>
      <trkpt lat="45.76046" lon="4.64244">
        <ele>558</ele>
        <time>2012-12-29T10:00:31Z</time>
      </trkpt>
      <trkpt lat="45.76047" lon="4.64244">
        <ele>558</ele>
        <time>2012-12-29T10:00:32Z</time>
      </trkpt>
      <trkpt lat="45.76058" lon="4.64247">
        <ele>560</ele>
        <time>2012-12-29T10:00:41Z</time>
      </trkpt>
      <trkpt lat="45.76067" lon="4.6425">
        <ele>561</ele>
        <time>2012-12-29T10:00:49Z</time>
      </trkpt>
      <trkpt lat="45.76072" lon="4.64246">
        <ele>562</ele>
        <time>2012-12-29T10:00:58Z</time>
      </trkpt>
      <trkpt lat="45.76072" lon="4.64245">
        <ele>562</ele>
        <time>2012-12-29T10:00:59Z</time>
      </trkpt>
      <trkpt lat="45.76072" lon="4.64239">
        <ele>561</ele>
        <time>2012-12-29T10:01:05Z</time>
      </trkpt>
      <trkpt lat="45.76071" lon="4.64229">
        <ele>561</ele>
        <time>2012-12-29T10:01:14Z</time>
      </trkpt>
      <trkpt lat="45.7607" lon="4.64221">
        <ele>562</ele>
        <time>2012-12-29T10:01:20Z</time>
      </trkpt>
      <trkpt lat="45.76068" lon="4.64213">
        <ele>562</ele>
        <time>2012-12-29T10:01:26Z</time>
      </trkpt>
      <trkpt lat="45.76067" lon="4.64205">
        <ele>563</ele>
        <time>2012-12-29T10:01:32Z</time>
      </trkpt>
      <trkpt lat="45.76068" lon="4.64196">
        <ele>565</ele>
        <time>2012-12-29T10:01:38Z</time>
      </trkpt>
      <trkpt lat="45.76068" lon="4.64187">
        <ele>566</ele>
        <time>2012-12-29T10:01:44Z</time>
      </trkpt>
      <trkpt lat="45.76068" lon="4.64174">
        <ele>569</ele>
        <time>2012-12-29T10:01:53Z</time>
      </trkpt>
      <trkpt lat="45.76067" lon="4.64166">
        <ele>576</ele>
        <time>2012-12-29T10:02:00Z</time>
      </trkpt>
      <trkpt lat="45.76066" lon="4.64158">
        <ele>576</ele>
        <time>2012-12-29T10:02:07Z</time>
      </trkpt>
      <trkpt lat="45.76068" lon="4.6415">
        <ele>577</ele>
        <time>2012-12-29T10:02:15Z</time>
      </trkpt>
      <trkpt lat="45.76066" lon="4.64141">
        <ele>577</ele>
        <time>2012-12-29T10:02:22Z</time>
      </trkpt>
      <trkpt lat="45.76065" lon="4.64134">
        <ele>577</ele>
        <time>2012-12-29T10:02:29Z</time>
      </trkpt>
      <trkpt lat="45.76063" lon="4.64127">
        <ele>577</ele>
        <time>2012-12-29T10:02:36Z</time>
      </trkpt>
      <trkpt lat="45.76061" lon="4.64117">
        <ele>578</ele>
        <time>2012-12-29T10:02:44Z</time>
      </trkpt>
      <trkpt lat="45.76058" lon="4.64109">
        <ele>579</ele>
        <time>2012-12-29T10:02:52Z</time>
      </trkpt>
      <trkpt lat="45.76057" lon="4.64108">
        <ele>579</ele>
        <time>2012-12-29T10:02:53Z</time>
      </trkpt>
      <trkpt lat="45.76057" lon="4.64105">
        <ele>579</ele>
        <time>2012-12-29T10:02:56Z</time>
      </trkpt>
      <trkpt lat="45.7606" lon="4.641">
        <ele>581</ele>
        <time>2012-12-29T10:03:03Z</time>
      </trkpt>
      <trkpt lat="45.76064" lon="4.64096">
        <ele>582</ele>
        <time>2012-12-29T10:03:10Z</time>
      </trkpt>
      <trkpt lat="45.76065" lon="4.64096">
        <ele>582</ele>
        <time>2012-12-29T10:03:11Z</time>
      </trkpt>
      <trkpt lat="45.7607" lon="4.64093">
        <ele>585</ele>
        <time>2012-12-29T10:03:19Z</time>
      </trkpt>
      <trkpt lat="45.76075" lon="4.64089">
        <ele>587</ele>
        <time>2012-12-29T10:03:25Z</time>
      </trkpt>
      <trkpt lat="45.76077" lon="4.64086">
        <ele>589</ele>
        <time>2012-12-29T10:03:29Z</time>
      </trkpt>
      <trkpt lat="45.76081" lon="4.6408">
        <ele>592</ele>
        <time>2012-12-29T10:03:37Z</time>
      </trkpt>
      <trkpt lat="45.76086" lon="4.64074">
        <ele>594</ele>
        <time>2012-12-29T10:03:45Z</time>
      </trkpt>
      <trkpt lat="45.76089" lon="4.64065">
        <ele>595</ele>
        <time>2012-12-29T10:03:53Z</time>
      </trkpt>
      <trkpt lat="45.7609" lon="4.64058">
        <ele>595</ele>
        <time>2012-12-29T10:03:59Z</time>
      </trkpt>
      <trkpt lat="45.76089" lon="4.64056">
        <ele>596</ele>
        <time>2012-12-29T10:04:01Z</time>
      </trkpt>
      <trkpt lat="45.76087" lon="4.64053">
        <ele>596</ele>
        <time>2012-12-29T10:04:06Z</time>
      </trkpt>
      <trkpt lat="45.7608" lon="4.6405">
        <ele>592</ele>
        <time>2012-12-29T10:04:15Z</time>
      </trkpt>
      <trkpt lat="45.76075" lon="4.64046">
        <ele>592</ele>
        <time>2012-12-29T10:04:19Z</time>
      </trkpt>
      <trkpt lat="45.76071" lon="4.64041">
        <ele>592</ele>
        <time>2012-12-29T10:04:24Z</time>
      </trkpt>
      <trkpt lat="45.7607" lon="4.64034">
        <ele>592</ele>
        <time>2012-12-29T10:04:28Z</time>
      </trkpt>
      <trkpt lat="45.76074" lon="4.64019">
        <ele>595</ele>
        <time>2012-12-29T10:04:36Z</time>
      </trkpt>
      <trkpt lat="45.76075" lon="4.64014">
        <ele>596</ele>
        <time>2012-12-29T10:04:39Z</time>
      </trkpt>
      <trkpt lat="45.76077" lon="4.64009">
        <ele>598</ele>
        <time>2012-12-29T10:04:43Z</time>
      </trkpt>
      <trkpt lat="45.76079" lon="4.64006">
        <ele>599</ele>
        <time>2012-12-29T10:04:45Z</time>
      </trkpt>
      <trkpt lat="45.76079" lon="4.63997">
        <ele>602</ele>
        <time>2012-12-29T10:04:52Z</time>
      </trkpt>
      <trkpt lat="45.76082" lon="4.63986">
        <ele>601</ele>
        <time>2012-12-29T10:05:00Z</time>
      </trkpt>
      <trkpt lat="45.76083" lon="4.63982">
        <ele>601</ele>
        <time>2012-12-29T10:05:02Z</time>
      </trkpt>
      <trkpt lat="45.76085" lon="4.63976">
        <ele>607</ele>
        <time>2012-12-29T10:05:06Z</time>
      </trkpt>
      <trkpt lat="45.76091" lon="4.63964">
        <ele>608</ele>
        <time>2012-12-29T10:05:14Z</time>
      </trkpt>
      <trkpt lat="45.76093" lon="4.63952">
        <ele>610</ele>
        <time>2012-12-29T10:05:22Z</time>
      </trkpt>
      <trkpt lat="45.76095" lon="4.6394">
        <ele>611</ele>
        <time>2012-12-29T10:05:30Z</time>
      </trkpt>
      <trkpt lat="45.76095" lon="4.63936">
        <ele>611</ele>
        <time>2012-12-29T10:05:32Z</time>
      </trkpt>
      <trkpt lat="45.76097" lon="4.63926">
        <ele>612</ele>
        <time>2012-12-29T10:05:39Z</time>
      </trkpt>
      <trkpt lat="45.76098" lon="4.63916">
        <ele>617</ele>
        <time>2012-12-29T10:05:46Z</time>
      </trkpt>
      <trkpt lat="45.76101" lon="4.63906">
        <ele>618</ele>
        <time>2012-12-29T10:05:53Z</time>
      </trkpt>
      <trkpt lat="45.76102" lon="4.63895">
        <ele>619</ele>
        <time>2012-12-29T10:06:01Z</time>
      </trkpt>
      <trkpt lat="45.76107" lon="4.63882">
        <ele>620</ele>
        <time>2012-12-29T10:06:10Z</time>
      </trkpt>
      <trkpt lat="45.7611" lon="4.6387">
        <ele>621</ele>
        <time>2012-12-29T10:06:18Z</time>
      </trkpt>
      <trkpt lat="45.76112" lon="4.63862">
        <ele>622</ele>
        <time>2012-12-29T10:06:24Z</time>
      </trkpt>
      <trkpt lat="45.76117" lon="4.63849">
        <ele>622</ele>
        <time>2012-12-29T10:06:33Z</time>
      </trkpt>
      <trkpt lat="45.76119" lon="4.63843">
        <ele>623</ele>
        <time>2012-12-29T10:06:38Z</time>
      </trkpt>
      <trkpt lat="45.76125" lon="4.63834">
        <ele>624</ele>
        <time>2012-12-29T10:06:47Z</time>
      </trkpt>
      <trkpt lat="45.76129" lon="4.63829">
        <ele>630</ele>
        <time>2012-12-29T10:06:54Z</time>
      </trkpt>
      <trkpt lat="45.76137" lon="4.63825">
        <ele>631</ele>
        <time>2012-12-29T10:07:02Z</time>
      </trkpt>
      <trkpt lat="45.76142" lon="4.63825">
        <ele>631</ele>
        <time>2012-12-29T10:07:06Z</time>
      </trkpt>
      <trkpt lat="45.7615" lon="4.63827">
        <ele>632</ele>
        <time>2012-12-29T10:07:13Z</time>
      </trkpt>
      <trkpt lat="45.76159" lon="4.6383">
        <ele>633</ele>
        <time>2012-12-29T10:07:20Z</time>
      </trkpt>
      <trkpt lat="45.7617" lon="4.63836">
        <ele>634</ele>
        <time>2012-12-29T10:07:28Z</time>
      </trkpt>
      <trkpt lat="45.76177" lon="4.63838">
        <ele>634</ele>
        <time>2012-12-29T10:07:34Z</time>
      </trkpt>
      <trkpt lat="45.76184" lon="4.63838">
        <ele>634</ele>
        <time>2012-12-29T10:07:41Z</time>
      </trkpt>
      <trkpt lat="45.76194" lon="4.63838">
        <ele>635</ele>
        <time>2012-12-29T10:07:50Z</time>
      </trkpt>
      <trkpt lat="45.762" lon="4.63836">
        <ele>635</ele>
        <time>2012-12-29T10:07:58Z</time>
      </trkpt>
      <trkpt lat="45.76208" lon="4.63835">
        <ele>636</ele>
        <time>2012-12-29T10:08:07Z</time>
      </trkpt>
      <trkpt lat="45.76216" lon="4.63834">
        <ele>637</ele>
        <time>2012-12-29T10:08:14Z</time>
      </trkpt>
      <trkpt lat="45.76226" lon="4.63832">
        <ele>645</ele>
        <time>2012-12-29T10:08:25Z</time>
      </trkpt>
      <trkpt lat="45.76235" lon="4.6383">
        <ele>645</ele>
        <time>2012-12-29T10:08:33Z</time>
      </trkpt>
      <trkpt lat="45.76247" lon="4.63829">
        <ele>645</ele>
        <time>2012-12-29T10:08:42Z</time>
      </trkpt>
      <trkpt lat="45.76254" lon="4.63828">
        <ele>647</ele>
        <time>2012-12-29T10:08:48Z</time>
      </trkpt>
      <trkpt lat="45.76266" lon="4.63825">
        <ele>650</ele>
        <time>2012-12-29T10:08:59Z</time>
      </trkpt>
      <trkpt lat="45.76268" lon="4.63824">
        <ele>651</ele>
        <time>2012-12-29T10:09:01Z</time>
      </trkpt>
      <trkpt lat="45.76265" lon="4.63819">
        <ele>651</ele>
        <time>2012-12-29T10:09:10Z</time>
      </trkpt>
      <trkpt lat="45.76261" lon="4.63811">
        <ele>652</ele>
        <time>2012-12-29T10:09:17Z</time>
      </trkpt>
      <trkpt lat="45.76259" lon="4.63806">
        <ele>652</ele>
        <time>2012-12-29T10:09:24Z</time>
      </trkpt>
      <trkpt lat="45.76257" lon="4.63797">
        <ele>654</ele>
        <time>2012-12-29T10:09:31Z</time>
      </trkpt>
      <trkpt lat="45.76255" lon="4.63794">
        <ele>654</ele>
        <time>2012-12-29T10:09:34Z</time>
      </trkpt>
      <trkpt lat="45.76251" lon="4.63786">
        <ele>655</ele>
        <time>2012-12-29T10:09:41Z</time>
      </trkpt>
      <trkpt lat="45.7625" lon="4.63783">
        <ele>655</ele>
        <time>2012-12-29T10:09:43Z</time>
      </trkpt>
      <trkpt lat="45.76247" lon="4.63767">
        <ele>653</ele>
        <time>2012-12-29T10:09:52Z</time>
      </trkpt>
      <trkpt lat="45.76245" lon="4.63758">
        <ele>655</ele>
        <time>2012-12-29T10:09:58Z</time>
      </trkpt>
      <trkpt lat="45.76241" lon="4.63751">
        <ele>655</ele>
        <time>2012-12-29T10:10:04Z</time>
      </trkpt>
      <trkpt lat="45.76237" lon="4.6374">
        <ele>658</ele>
        <time>2012-12-29T10:10:12Z</time>
      </trkpt>
      <trkpt lat="45.76236" lon="4.63736">
        <ele>658</ele>
        <time>2012-12-29T10:10:14Z</time>
      </trkpt>
      <trkpt lat="45.76235" lon="4.63722">
        <ele>659</ele>
        <time>2012-12-29T10:10:21Z</time>
      </trkpt>
      <trkpt lat="45.76233" lon="4.63707">
        <ele>660</ele>
        <time>2012-12-29T10:10:30Z</time>
      </trkpt>
      <trkpt lat="45.76234" lon="4.63686">
        <ele>662</ele>
        <time>2012-12-29T10:10:40Z</time>
      </trkpt>
      <trkpt lat="45.76233" lon="4.63675">
        <ele>663</ele>
        <time>2012-12-29T10:10:47Z</time>
      </trkpt>
      <trkpt lat="45.76232" lon="4.63659">
        <ele>668</ele>
        <time>2012-12-29T10:10:58Z</time>
      </trkpt>
      <trkpt lat="45.76232" lon="4.63646">
        <ele>669</ele>
        <time>2012-12-29T10:11:06Z</time>
      </trkpt>
      <trkpt lat="45.76232" lon="4.6363">
        <ele>669</ele>
        <time>2012-12-29T10:11:15Z</time>
      </trkpt>
      <trkpt lat="45.76232" lon="4.63612">
        <ele>671</ele>
        <time>2012-12-29T10:11:24Z</time>
      </trkpt>
      <trkpt lat="45.76231" lon="4.63601">
        <ele>672</ele>
        <time>2012-12-29T10:11:32Z</time>
      </trkpt>
      <trkpt lat="45.76231" lon="4.63586">
        <ele>674</ele>
        <time>2012-12-29T10:11:43Z</time>
      </trkpt>
      <trkpt lat="45.7623" lon="4.63577">
        <ele>679</ele>
        <time>2012-12-29T10:11:48Z</time>
      </trkpt>
      <trkpt lat="45.76226" lon="4.63565">
        <ele>679</ele>
        <time>2012-12-29T10:11:56Z</time>
      </trkpt>
      <trkpt lat="45.76221" lon="4.63554">
        <ele>678</ele>
        <time>2012-12-29T10:12:04Z</time>
      </trkpt>
      <trkpt lat="45.76219" lon="4.63543">
        <ele>679</ele>
        <time>2012-12-29T10:12:11Z</time>
      </trkpt>
      <trkpt lat="45.76214" lon="4.63523">
        <ele>680</ele>
        <time>2012-12-29T10:12:22Z</time>
      </trkpt>
      <trkpt lat="45.76213" lon="4.6351">
        <ele>680</ele>
        <time>2012-12-29T10:12:28Z</time>
      </trkpt>
      <trkpt lat="45.76213" lon="4.63494">
        <ele>685</ele>
        <time>2012-12-29T10:12:36Z</time>
      </trkpt>
      <trkpt lat="45.76213" lon="4.63478">
        <ele>686</ele>
        <time>2012-12-29T10:12:44Z</time>
      </trkpt>
      <trkpt lat="45.76214" lon="4.63461">
        <ele>686</ele>
        <time>2012-12-29T10:12:53Z</time>
      </trkpt>
      <trkpt lat="45.76214" lon="4.63448">
        <ele>687</ele>
        <time>2012-12-29T10:13:00Z</time>
      </trkpt>
      <trkpt lat="45.76215" lon="4.63435">
        <ele>688</ele>
        <time>2012-12-29T10:13:07Z</time>
      </trkpt>
      <trkpt lat="45.76215" lon="4.63421">
        <ele>688</ele>
        <time>2012-12-29T10:13:14Z</time>
      </trkpt>
      <trkpt lat="45.76217" lon="4.63402">
        <ele>692</ele>
        <time>2012-12-29T10:13:25Z</time>
      </trkpt>
      <trkpt lat="45.76219" lon="4.63392">
        <ele>692</ele>
        <time>2012-12-29T10:13:32Z</time>
      </trkpt>
      <trkpt lat="45.76219" lon="4.63379">
        <ele>693</ele>
        <time>2012-12-29T10:13:40Z</time>
      </trkpt>
      <trkpt lat="45.76219" lon="4.63366">
        <ele>693</ele>
        <time>2012-12-29T10:13:48Z</time>
      </trkpt>
      <trkpt lat="45.7622" lon="4.63352">
        <ele>694</ele>
        <time>2012-12-29T10:13:56Z</time>
      </trkpt>
      <trkpt lat="45.7622" lon="4.63339">
        <ele>695</ele>
        <time>2012-12-29T10:14:04Z</time>
      </trkpt>
      <trkpt lat="45.7622" lon="4.63336">
        <ele>695</ele>
        <time>2012-12-29T10:14:06Z</time>
      </trkpt>
      <trkpt lat="45.7622" lon="4.63325">
        <ele>698</ele>
        <time>2012-12-29T10:14:15Z</time>
      </trkpt>
      <trkpt lat="45.7622" lon="4.63323">
        <ele>698</ele>
        <time>2012-12-29T10:14:17Z</time>
      </trkpt>
      <trkpt lat="45.76223" lon="4.6332">
        <ele>698</ele>
        <time>2012-12-29T10:14:21Z</time>
      </trkpt>
      <trkpt lat="45.7623" lon="4.63328">
        <ele>701</ele>
        <time>2012-12-29T10:14:28Z</time>
      </trkpt>
      <trkpt lat="45.7624" lon="4.63341">
        <ele>701</ele>
        <time>2012-12-29T10:14:36Z</time>
      </trkpt>
      <trkpt lat="45.76248" lon="4.63351">
        <ele>700</ele>
        <time>2012-12-29T10:14:45Z</time>
      </trkpt>
      <trkpt lat="45.76251" lon="4.63354">
        <ele>709</ele>
        <time>2012-12-29T10:14:48Z</time>
      </trkpt>
      <trkpt lat="45.76256" lon="4.63358">
        <ele>709</ele>
        <time>2012-12-29T10:14:56Z</time>
      </trkpt>
      <trkpt lat="45.7626" lon="4.63359">
        <ele>709</ele>
        <time>2012-12-29T10:15:03Z</time>
      </trkpt>
      <trkpt lat="45.76264" lon="4.6336">
        <ele>709</ele>
        <time>2012-12-29T10:15:09Z</time>
      </trkpt>
      <trkpt lat="45.7627" lon="4.63363">
        <ele>709</ele>
        <time>2012-12-29T10:15:14Z</time>
      </trkpt>
      <trkpt lat="45.7628" lon="4.63364">
        <ele>710</ele>
        <time>2012-12-29T10:15:23Z</time>
      </trkpt>
      <trkpt lat="45.76292" lon="4.63373">
        <ele>710</ele>
        <time>2012-12-29T10:15:31Z</time>
      </trkpt>
      <trkpt lat="45.76295" lon="4.63375">
        <ele>710</ele>
        <time>2012-12-29T10:15:35Z</time>
      </trkpt>
      <trkpt lat="45.76299" lon="4.63372">
        <ele>711</ele>
        <time>2012-12-29T10:15:42Z</time>
      </trkpt>
      <trkpt lat="45.76303" lon="4.63367">
        <ele>711</ele>
        <time>2012-12-29T10:15:49Z</time>
      </trkpt>
      <trkpt lat="45.76309" lon="4.63364">
        <ele>712</ele>
        <time>2012-12-29T10:15:56Z</time>
      </trkpt>
      <trkpt lat="45.76315" lon="4.6336">
        <ele>712</ele>
        <time>2012-12-29T10:16:04Z</time>
      </trkpt>
      <trkpt lat="45.76322" lon="4.63351">
        <ele>714</ele>
        <time>2012-12-29T10:16:12Z</time>
      </trkpt>
      <trkpt lat="45.76326" lon="4.63346">
        <ele>715</ele>
        <time>2012-12-29T10:16:17Z</time>
      </trkpt>
      <trkpt lat="45.76329" lon="4.63345">
        <ele>715</ele>
        <time>2012-12-29T10:16:19Z</time>
      </trkpt>
      <trkpt lat="45.76344" lon="4.63351">
        <ele>716</ele>
        <time>2012-12-29T10:16:29Z</time>
      </trkpt>
      <trkpt lat="45.76348" lon="4.63354">
        <ele>716</ele>
        <time>2012-12-29T10:16:32Z</time>
      </trkpt>
      <trkpt lat="45.76362" lon="4.6337">
        <ele>714</ele>
        <time>2012-12-29T10:16:42Z</time>
      </trkpt>
      <trkpt lat="45.76363" lon="4.63378">
        <ele>714</ele>
        <time>2012-12-29T10:16:46Z</time>
      </trkpt>
      <trkpt lat="45.76365" lon="4.63397">
        <ele>713</ele>
        <time>2012-12-29T10:16:55Z</time>
      </trkpt>
      <trkpt lat="45.76365" lon="4.63413">
        <ele>713</ele>
        <time>2012-12-29T10:17:04Z</time>
      </trkpt>
      <trkpt lat="45.76366" lon="4.63421">
        <ele>708</ele>
        <time>2012-12-29T10:17:09Z</time>
      </trkpt>
      <trkpt lat="45.76366" lon="4.63424">
        <ele>708</ele>
        <time>2012-12-29T10:17:11Z</time>
      </trkpt>
      <trkpt lat="45.76366" lon="4.6344">
        <ele>707</ele>
        <time>2012-12-29T10:17:20Z</time>
      </trkpt>
      <trkpt lat="45.76364" lon="4.63446">
        <ele>706</ele>
        <time>2012-12-29T10:17:23Z</time>
      </trkpt>
      <trkpt lat="45.76365" lon="4.63457">
        <ele>706</ele>
        <time>2012-12-29T10:17:29Z</time>
      </trkpt>
      <trkpt lat="45.76366" lon="4.63469">
        <ele>705</ele>
        <time>2012-12-29T10:17:39Z</time>
      </trkpt>
      <trkpt lat="45.76366" lon="4.6347">
        <ele>705</ele>
        <time>2012-12-29T10:17:40Z</time>
      </trkpt>
      <trkpt lat="45.76367" lon="4.63473">
        <ele>704</ele>
        <time>2012-12-29T10:17:42Z</time>
      </trkpt>
      <trkpt lat="45.76366" lon="4.63485">
        <ele>704</ele>
        <time>2012-12-29T10:17:51Z</time>
      </trkpt>
      <trkpt lat="45.76366" lon="4.63497">
        <ele>703</ele>
        <time>2012-12-29T10:18:01Z</time>
      </trkpt>
      <trkpt lat="45.76365" lon="4.6351">
        <ele>695</ele>
        <time>2012-12-29T10:18:07Z</time>
      </trkpt>
      <trkpt lat="45.76364" lon="4.63525">
        <ele>694</ele>
        <time>2012-12-29T10:18:15Z</time>
      </trkpt>
      <trkpt lat="45.76365" lon="4.63535">
        <ele>693</ele>
        <time>2012-12-29T10:18:22Z</time>
      </trkpt>
      <trkpt lat="45.76368" lon="4.63541">
        <ele>692</ele>
        <time>2012-12-29T10:18:29Z</time>
      </trkpt>
      <trkpt lat="45.76372" lon="4.63551">
        <ele>691</ele>
        <time>2012-12-29T10:18:39Z</time>
      </trkpt>
      <trkpt lat="45.76373" lon="4.63553">
        <ele>691</ele>
        <time>2012-12-29T10:18:40Z</time>
      </trkpt>
      <trkpt lat="45.76377" lon="4.63566">
        <ele>690</ele>
        <time>2012-12-29T10:18:48Z</time>
      </trkpt>
      <trkpt lat="45.76379" lon="4.63577">
        <ele>690</ele>
        <time>2012-12-29T10:18:55Z</time>
      </trkpt>
      <trkpt lat="45.76382" lon="4.63591">
        <ele>681</ele>
        <time>2012-12-29T10:19:03Z</time>
      </trkpt>
      <trkpt lat="45.76386" lon="4.63601">
        <ele>680</ele>
        <time>2012-12-29T10:19:09Z</time>
      </trkpt>
      <trkpt lat="45.76389" lon="4.63605">
        <ele>680</ele>
        <time>2012-12-29T10:19:15Z</time>
      </trkpt>
      <trkpt lat="45.76395" lon="4.63608">
        <ele>680</ele>
        <time>2012-12-29T10:19:21Z</time>
      </trkpt>
      <trkpt lat="45.76401" lon="4.63611">
        <ele>680</ele>
        <time>2012-12-29T10:19:29Z</time>
      </trkpt>
      <trkpt lat="45.76407" lon="4.6362">
        <ele>679</ele>
        <time>2012-12-29T10:19:37Z</time>
      </trkpt>
      <trkpt lat="45.76413" lon="4.6363">
        <ele>678</ele>
        <time>2012-12-29T10:19:45Z</time>
      </trkpt>
      <trkpt lat="45.76416" lon="4.63639">
        <ele>677</ele>
        <time>2012-12-29T10:19:51Z</time>
      </trkpt>
      <trkpt lat="45.76418" lon="4.63655">
        <ele>669</ele>
        <time>2012-12-29T10:19:59Z</time>
      </trkpt>
      <trkpt lat="45.76416" lon="4.63674">
        <ele>670</ele>
        <time>2012-12-29T10:20:07Z</time>
      </trkpt>
      <trkpt lat="45.76413" lon="4.63687">
        <ele>669</ele>
        <time>2012-12-29T10:20:14Z</time>
      </trkpt>
      <trkpt lat="45.76414" lon="4.63698">
        <ele>668</ele>
        <time>2012-12-29T10:20:20Z</time>
      </trkpt>
      <trkpt lat="45.7641" lon="4.63707">
        <ele>667</ele>
        <time>2012-12-29T10:20:25Z</time>
      </trkpt>
      <trkpt lat="45.76408" lon="4.63721">
        <ele>666</ele>
        <time>2012-12-29T10:20:32Z</time>
      </trkpt>
      <trkpt lat="45.76408" lon="4.6373">
        <ele>665</ele>
        <time>2012-12-29T10:20:38Z</time>
      </trkpt>
      <trkpt lat="45.76408" lon="4.63732">
        <ele>665</ele>
        <time>2012-12-29T10:20:39Z</time>
      </trkpt>
      <trkpt lat="45.76407" lon="4.63738">
        <ele>664</ele>
        <time>2012-12-29T10:20:43Z</time>
      </trkpt>
      <trkpt lat="45.76407" lon="4.63742">
        <ele>664</ele>
        <time>2012-12-29T10:20:45Z</time>
      </trkpt>
      <trkpt lat="45.76404" lon="4.63758">
        <ele>660</ele>
        <time>2012-12-29T10:20:53Z</time>
      </trkpt>
      <trkpt lat="45.76402" lon="4.63762">
        <ele>659</ele>
        <time>2012-12-29T10:20:55Z</time>
      </trkpt>
      <trkpt lat="45.76399" lon="4.63767">
        <ele>659</ele>
        <time>2012-12-29T10:20:58Z</time>
      </trkpt>
      <trkpt lat="45.76398" lon="4.6377">
        <ele>659</ele>
        <time>2012-12-29T10:21:00Z</time>
      </trkpt>
      <trkpt lat="45.76399" lon="4.63779">
        <ele>658</ele>
        <time>2012-12-29T10:21:05Z</time>
      </trkpt>
      <trkpt lat="45.76399" lon="4.63791">
        <ele>658</ele>
        <time>2012-12-29T10:21:13Z</time>
      </trkpt>
      <trkpt lat="45.76399" lon="4.63802">
        <ele>657</ele>
        <time>2012-12-29T10:21:19Z</time>
      </trkpt>
      <trkpt lat="45.76398" lon="4.63816">
        <ele>656</ele>
        <time>2012-12-29T10:21:26Z</time>
      </trkpt>
      <trkpt lat="45.76401" lon="4.63828">
        <ele>655</ele>
        <time>2012-12-29T10:21:33Z</time>
      </trkpt>
      <trkpt lat="45.764" lon="4.63838">
        <ele>650</ele>
        <time>2012-12-29T10:21:39Z</time>
      </trkpt>
      <trkpt lat="45.764" lon="4.63839">
        <ele>650</ele>
        <time>2012-12-29T10:21:40Z</time>
      </trkpt>
      <trkpt lat="45.76401" lon="4.63851">
        <ele>650</ele>
        <time>2012-12-29T10:21:47Z</time>
      </trkpt>
      <trkpt lat="45.76407" lon="4.63866">
        <ele>649</ele>
        <time>2012-12-29T10:21:56Z</time>
      </trkpt>
      <trkpt lat="45.76408" lon="4.63873">
        <ele>648</ele>
        <time>2012-12-29T10:22:00Z</time>
      </trkpt>
      <trkpt lat="45.76408" lon="4.63876">
        <ele>648</ele>
        <time>2012-12-29T10:22:02Z</time>
      </trkpt>
      <trkpt lat="45.76409" lon="4.63882">
        <ele>647</ele>
        <time>2012-12-29T10:22:06Z</time>
      </trkpt>
      <trkpt lat="45.76406" lon="4.63898">
        <ele>646</ele>
        <time>2012-12-29T10:22:14Z</time>
      </trkpt>
      <trkpt lat="45.76407" lon="4.63902">
        <ele>646</ele>
        <time>2012-12-29T10:22:16Z</time>
      </trkpt>
      <trkpt lat="45.76412" lon="4.63915">
        <ele>645</ele>
        <time>2012-12-29T10:22:24Z</time>
      </trkpt>
      <trkpt lat="45.76417" lon="4.63924">
        <ele>642</ele>
        <time>2012-12-29T10:22:30Z</time>
      </trkpt>
      <trkpt lat="45.76422" lon="4.63933">
        <ele>639</ele>
        <time>2012-12-29T10:22:36Z</time>
      </trkpt>
      <trkpt lat="45.76427" lon="4.6394">
        <ele>637</ele>
        <time>2012-12-29T10:22:41Z</time>
      </trkpt>
      <trkpt lat="45.76433" lon="4.63958">
        <ele>635</ele>
        <time>2012-12-29T10:22:51Z</time>
      </trkpt>
      <trkpt lat="45.76436" lon="4.63966">
        <ele>634</ele>
        <time>2012-12-29T10:22:57Z</time>
      </trkpt>
      <trkpt lat="45.7644" lon="4.63979">
        <ele>634</ele>
        <time>2012-12-29T10:23:03Z</time>
      </trkpt>
      <trkpt lat="45.76441" lon="4.63994">
        <ele>633</ele>
        <time>2012-12-29T10:23:10Z</time>
      </trkpt>
      <trkpt lat="45.76443" lon="4.64002">
        <ele>630</ele>
        <time>2012-12-29T10:23:17Z</time>
      </trkpt>
      <trkpt lat="45.76443" lon="4.64002">
        <ele>630</ele>
        <time>2012-12-29T10:23:18Z</time>
      </trkpt>
      <trkpt lat="45.76447" lon="4.64005">
        <ele>629</ele>
        <time>2012-12-29T10:23:24Z</time>
      </trkpt>
      <trkpt lat="45.76449" lon="4.64013">
        <ele>629</ele>
        <time>2012-12-29T10:23:30Z</time>
      </trkpt>
      <trkpt lat="45.7645" lon="4.64031">
        <ele>628</ele>
        <time>2012-12-29T10:23:39Z</time>
      </trkpt>
      <trkpt lat="45.7645" lon="4.64048">
        <ele>627</ele>
        <time>2012-12-29T10:23:46Z</time>
      </trkpt>
      <trkpt lat="45.76449" lon="4.64063">
        <ele>627</ele>
        <time>2012-12-29T10:23:54Z</time>
      </trkpt>
      <trkpt lat="45.76449" lon="4.64064">
        <ele>627</ele>
        <time>2012-12-29T10:23:55Z</time>
      </trkpt>
      <trkpt lat="45.76448" lon="4.64068">
        <ele>627</ele>
        <time>2012-12-29T10:23:57Z</time>
      </trkpt>
      <trkpt lat="45.76448" lon="4.64072">
        <ele>627</ele>
        <time>2012-12-29T10:23:59Z</time>
      </trkpt>
      <trkpt lat="45.76448" lon="4.64077">
        <ele>626</ele>
        <time>2012-12-29T10:24:02Z</time>
      </trkpt>
      <trkpt lat="45.76448" lon="4.64088">
        <ele>622</ele>
        <time>2012-12-29T10:24:08Z</time>
      </trkpt>
      <trkpt lat="45.76446" lon="4.64103">
        <ele>621</ele>
        <time>2012-12-29T10:24:17Z</time>
      </trkpt>
      <trkpt lat="45.76446" lon="4.64104">
        <ele>621</ele>
        <time>2012-12-29T10:24:18Z</time>
      </trkpt>
      <trkpt lat="45.76438" lon="4.64125">
        <ele>620</ele>
        <time>2012-12-29T10:24:28Z</time>
      </trkpt>
      <trkpt lat="45.76436" lon="4.64132">
        <ele>619</ele>
        <time>2012-12-29T10:24:35Z</time>
      </trkpt>
      <trkpt lat="45.76437" lon="4.64142">
        <ele>619</ele>
        <time>2012-12-29T10:24:43Z</time>
      </trkpt>
      <trkpt lat="45.76441" lon="4.64148">
        <ele>618</ele>
        <time>2012-12-29T10:24:50Z</time>
      </trkpt>
      <trkpt lat="45.76445" lon="4.64153">
        <ele>618</ele>
        <time>2012-12-29T10:24:55Z</time>
      </trkpt>
      <trkpt lat="45.7645" lon="4.6416">
        <ele>618</ele>
        <time>2012-12-29T10:25:03Z</time>
      </trkpt>
      <trkpt lat="45.76457" lon="4.64164">
        <ele>618</ele>
        <time>2012-12-29T10:25:14Z</time>
      </trkpt>
      <trkpt lat="45.76464" lon="4.64178">
        <ele>609</ele>
        <time>2012-12-29T10:25:25Z</time>
      </trkpt>
      <trkpt lat="45.76469" lon="4.64185">
        <ele>608</ele>
        <time>2012-12-29T10:25:31Z</time>
      </trkpt>
      <trkpt lat="45.76474" lon="4.64195">
        <ele>607</ele>
        <time>2012-12-29T10:25:39Z</time>
      </trkpt>
      <trkpt lat="45.7648" lon="4.64205">
        <ele>606</ele>
        <time>2012-12-29T10:25:47Z</time>
      </trkpt>
      <trkpt lat="45.76484" lon="4.64213">
        <ele>605</ele>
        <time>2012-12-29T10:25:56Z</time>
      </trkpt>
      <trkpt lat="45.7649" lon="4.6422">
        <ele>604</ele>
        <time>2012-12-29T10:26:05Z</time>
      </trkpt>
      <trkpt lat="45.76495" lon="4.64229">
        <ele>603</ele>
        <time>2012-12-29T10:26:13Z</time>
      </trkpt>
      <trkpt lat="45.76497" lon="4.6423">
        <ele>603</ele>
        <time>2012-12-29T10:26:15Z</time>
      </trkpt>
      <trkpt lat="45.76503" lon="4.64228">
        <ele>596</ele>
        <time>2012-12-29T10:26:23Z</time>
      </trkpt>
      <trkpt lat="45.7651" lon="4.64228">
        <ele>596</ele>
        <time>2012-12-29T10:26:32Z</time>
      </trkpt>
      <trkpt lat="45.76514" lon="4.6423">
        <ele>595</ele>
        <time>2012-12-29T10:26:36Z</time>
      </trkpt>
      <trkpt lat="45.76522" lon="4.64228">
        <ele>595</ele>
        <time>2012-12-29T10:26:44Z</time>
      </trkpt>
      <trkpt lat="45.76522" lon="4.64224">
        <ele>595</ele>
        <time>2012-12-29T10:26:53Z</time>
      </trkpt>
      <trkpt lat="45.76523" lon="4.64227">
        <ele>595</ele>
        <time>2012-12-29T10:27:18Z</time>
      </trkpt>
      <trkpt lat="45.76525" lon="4.64228">
        <ele>594</ele>
        <time>2012-12-29T10:27:30Z</time>
      </trkpt>
      <trkpt lat="45.76537" lon="4.64232">
        <ele>592</ele>
        <time>2012-12-29T10:27:41Z</time>
      </trkpt>
      <trkpt lat="45.76535" lon="4.64232">
        <ele>593</ele>
        <time>2012-12-29T10:27:54Z</time>
      </trkpt>
      <trkpt lat="45.7653" lon="4.64235">
        <ele>593</ele>
        <time>2012-12-29T10:28:05Z</time>
      </trkpt>
      <trkpt lat="45.76537" lon="4.64227">
        <ele>593</ele>
        <time>2012-12-29T10:29:00Z</time>
      </trkpt>
      <trkpt lat="45.76544" lon="4.64218">
        <ele>592</ele>
        <time>2012-12-29T10:29:10Z</time>
      </trkpt>
      <trkpt lat="45.76552" lon="4.64214">
        <ele>591</ele>
        <time>2012-12-29T10:29:19Z</time>
      </trkpt>
      <trkpt lat="45.76562" lon="4.6422">
        <ele>589</ele>
        <time>2012-12-29T10:29:28Z</time>
      </trkpt>
      <trkpt lat="45.76568" lon="4.64233">
        <ele>586</ele>
        <time>2012-12-29T10:29:39Z</time>
      </trkpt>
      <trkpt lat="45.76572" lon="4.64243">
        <ele>583</ele>
        <time>2012-12-29T10:29:46Z</time>
      </trkpt>
      <trkpt lat="45.76578" lon="4.64255">
        <ele>576</ele>
        <time>2012-12-29T10:29:56Z</time>
      </trkpt>
      <trkpt lat="45.76581" lon="4.64263">
        <ele>576</ele>
        <time>2012-12-29T10:30:05Z</time>
      </trkpt>
      <trkpt lat="45.76585" lon="4.64274">
        <ele>571</ele>
        <time>2012-12-29T10:30:14Z</time>
      </trkpt>
      <trkpt lat="45.76586" lon="4.64285">
        <ele>570</ele>
        <time>2012-12-29T10:30:24Z</time>
      </trkpt>
      <trkpt lat="45.76587" lon="4.6429">
        <ele>569</ele>
        <time>2012-12-29T10:30:27Z</time>
      </trkpt>
      <trkpt lat="45.76587" lon="4.64302">
        <ele>567</ele>
        <time>2012-12-29T10:30:35Z</time>
      </trkpt>
      <trkpt lat="45.76586" lon="4.64305">
        <ele>567</ele>
        <time>2012-12-29T10:30:38Z</time>
      </trkpt>
      <trkpt lat="45.7659" lon="4.64317">
        <ele>565</ele>
        <time>2012-12-29T10:30:46Z</time>
      </trkpt>
      <trkpt lat="45.7659" lon="4.64326">
        <ele>563</ele>
        <time>2012-12-29T10:30:52Z</time>
      </trkpt>
      <trkpt lat="45.7659" lon="4.64335">
        <ele>559</ele>
        <time>2012-12-29T10:30:58Z</time>
      </trkpt>
      <trkpt lat="45.76591" lon="4.64343">
        <ele>559</ele>
        <time>2012-12-29T10:31:04Z</time>
      </trkpt>
      <trkpt lat="45.76591" lon="4.64349">
        <ele>558</ele>
        <time>2012-12-29T10:31:08Z</time>
      </trkpt>
      <trkpt lat="45.76591" lon="4.64362">
        <ele>557</ele>
        <time>2012-12-29T10:31:17Z</time>
      </trkpt>
      <trkpt lat="45.76589" lon="4.64377">
        <ele>556</ele>
        <time>2012-12-29T10:31:27Z</time>
      </trkpt>
      <trkpt lat="45.7659" lon="4.64387">
        <ele>555</ele>
        <time>2012-12-29T10:31:33Z</time>
      </trkpt>
      <trkpt lat="45.76585" lon="4.644">
        <ele>552</ele>
        <time>2012-12-29T10:31:42Z</time>
      </trkpt>
      <trkpt lat="45.76581" lon="4.64407">
        <ele>551</ele>
        <time>2012-12-29T10:31:46Z</time>
      </trkpt>
      <trkpt lat="45.76574" lon="4.64415">
        <ele>551</ele>
        <time>2012-12-29T10:31:53Z</time>
      </trkpt>
      <trkpt lat="45.76566" lon="4.64424">
        <ele>544</ele>
        <time>2012-12-29T10:32:02Z</time>
      </trkpt>
      <trkpt lat="45.76561" lon="4.6443">
        <ele>543</ele>
        <time>2012-12-29T10:32:09Z</time>
      </trkpt>
      <trkpt lat="45.76556" lon="4.64437">
        <ele>542</ele>
        <time>2012-12-29T10:32:16Z</time>
      </trkpt>
      <trkpt lat="45.76552" lon="4.64443">
        <ele>541</ele>
        <time>2012-12-29T10:32:22Z</time>
      </trkpt>
      <trkpt lat="45.76553" lon="4.64448">
        <ele>541</ele>
        <time>2012-12-29T10:32:26Z</time>
      </trkpt>
      <trkpt lat="45.76554" lon="4.6446">
        <ele>540</ele>
        <time>2012-12-29T10:32:34Z</time>
      </trkpt>
      <trkpt lat="45.76558" lon="4.64474">
        <ele>539</ele>
        <time>2012-12-29T10:32:42Z</time>
      </trkpt>
      <trkpt lat="45.76561" lon="4.64488">
        <ele>538</ele>
        <time>2012-12-29T10:32:51Z</time>
      </trkpt>
      <trkpt lat="45.76563" lon="4.64498">
        <ele>538</ele>
        <time>2012-12-29T10:32:57Z</time>
      </trkpt>
      <trkpt lat="45.76565" lon="4.64512">
        <ele>531</ele>
        <time>2012-12-29T10:33:06Z</time>
      </trkpt>
      <trkpt lat="45.76567" lon="4.64522">
        <ele>530</ele>
        <time>2012-12-29T10:33:12Z</time>
      </trkpt>
      <trkpt lat="45.7657" lon="4.64539">
        <ele>529</ele>
        <time>2012-12-29T10:33:21Z</time>
      </trkpt>
      <trkpt lat="45.76576" lon="4.64553">
        <ele>528</ele>
        <time>2012-12-29T10:33:30Z</time>
      </trkpt>
      <trkpt lat="45.76579" lon="4.64557">
        <ele>528</ele>
        <time>2012-12-29T10:33:33Z</time>
      </trkpt>
      <trkpt lat="45.76582" lon="4.64564">
        <ele>528</ele>
        <time>2012-12-29T10:33:38Z</time>
      </trkpt>
      <trkpt lat="45.76585" lon="4.64573">
        <ele>531</ele>
        <time>2012-12-29T10:33:43Z</time>
      </trkpt>
      <trkpt lat="45.76591" lon="4.64592">
        <ele>528</ele>
        <time>2012-12-29T10:33:54Z</time>
      </trkpt>
      <trkpt lat="45.76592" lon="4.64594">
        <ele>528</ele>
        <time>2012-12-29T10:33:55Z</time>
      </trkpt>
      <trkpt lat="45.76595" lon="4.64602">
        <ele>527</ele>
        <time>2012-12-29T10:34:00Z</time>
      </trkpt>
      <trkpt lat="45.76597" lon="4.64605">
        <ele>527</ele>
        <time>2012-12-29T10:34:02Z</time>
      </trkpt>
      <trkpt lat="45.766" lon="4.64617">
        <ele>527</ele>
        <time>2012-12-29T10:34:08Z</time>
      </trkpt>
      <trkpt lat="45.76605" lon="4.64635">
        <ele>526</ele>
        <time>2012-12-29T10:34:18Z</time>
      </trkpt>
      <trkpt lat="45.76608" lon="4.64645">
        <ele>525</ele>
        <time>2012-12-29T10:34:23Z</time>
      </trkpt>
      <trkpt lat="45.76614" lon="4.64661">
        <ele>525</ele>
        <time>2012-12-29T10:34:32Z</time>
      </trkpt>
      <trkpt lat="45.76618" lon="4.64679">
        <ele>520</ele>
        <time>2012-12-29T10:34:43Z</time>
      </trkpt>
      <trkpt lat="45.76621" lon="4.64696">
        <ele>520</ele>
        <time>2012-12-29T10:34:53Z</time>
      </trkpt>
      <trkpt lat="45.76626" lon="4.64719">
        <ele>519</ele>
        <time>2012-12-29T10:35:07Z</time>
      </trkpt>
      <trkpt lat="45.76629" lon="4.64728">
        <ele>519</ele>
        <time>2012-12-29T10:35:13Z</time>
      </trkpt>
      <trkpt lat="45.76637" lon="4.64746">
        <ele>519</ele>
        <time>2012-12-29T10:35:25Z</time>
      </trkpt>
      <trkpt lat="45.76639" lon="4.64754">
        <ele>514</ele>
        <time>2012-12-29T10:35:34Z</time>
      </trkpt>
      <trkpt lat="45.7664" lon="4.64764">
        <ele>513</ele>
        <time>2012-12-29T10:35:43Z</time>
      </trkpt>
      <trkpt lat="45.7664" lon="4.6477">
        <ele>513</ele>
        <time>2012-12-29T10:35:52Z</time>
      </trkpt>
      <trkpt lat="45.76643" lon="4.64781">
        <ele>512</ele>
        <time>2012-12-29T10:36:01Z</time>
      </trkpt>
      <trkpt lat="45.76644" lon="4.64789">
        <ele>512</ele>
        <time>2012-12-29T10:36:07Z</time>
      </trkpt>
      <trkpt lat="45.76645" lon="4.64796">
        <ele>512</ele>
        <time>2012-12-29T10:36:11Z</time>
      </trkpt>
      <trkpt lat="45.76645" lon="4.64809">
        <ele>511</ele>
        <time>2012-12-29T10:36:21Z</time>
      </trkpt>
      <trkpt lat="45.76643" lon="4.64815">
        <ele>511</ele>
        <time>2012-12-29T10:36:29Z</time>
      </trkpt>
      <trkpt lat="45.76644" lon="4.64831">
        <ele>511</ele>
        <time>2012-12-29T10:36:40Z</time>
      </trkpt>
      <trkpt lat="45.76644" lon="4.64833">
        <ele>511</ele>
        <time>2012-12-29T10:36:41Z</time>
      </trkpt>
      <trkpt lat="45.76646" lon="4.64853">
        <ele>504</ele>
        <time>2012-12-29T10:36:54Z</time>
      </trkpt>
      <trkpt lat="45.76646" lon="4.64872">
        <ele>502</ele>
        <time>2012-12-29T10:37:07Z</time>
      </trkpt>
      <trkpt lat="45.76647" lon="4.64887">
        <ele>501</ele>
        <time>2012-12-29T10:37:16Z</time>
      </trkpt>
      <trkpt lat="45.76649" lon="4.64905">
        <ele>500</ele>
        <time>2012-12-29T10:37:27Z</time>
      </trkpt>
      <trkpt lat="45.76651" lon="4.6493">
        <ele>494</ele>
        <time>2012-12-29T10:37:41Z</time>
      </trkpt>
      <trkpt lat="45.76652" lon="4.64947">
        <ele>492</ele>
        <time>2012-12-29T10:37:51Z</time>
      </trkpt>
      <trkpt lat="45.76652" lon="4.64968">
        <ele>491</ele>
        <time>2012-12-29T10:38:03Z</time>
      </trkpt>
      <trkpt lat="45.76651" lon="4.64987">
        <ele>490</ele>
        <time>2012-12-29T10:38:13Z</time>
      </trkpt>
      <trkpt lat="45.76655" lon="4.65015">
        <ele>486</ele>
        <time>2012-12-29T10:38:28Z</time>
      </trkpt>
      <trkpt lat="45.76658" lon="4.65027">
        <ele>485</ele>
        <time>2012-12-29T10:38:36Z</time>
      </trkpt>
      <trkpt lat="45.76661" lon="4.65047">
        <ele>484</ele>
        <time>2012-12-29T10:38:47Z</time>
      </trkpt>
      <trkpt lat="45.76667" lon="4.65062">
        <ele>486</ele>
        <time>2012-12-29T10:38:57Z</time>
      </trkpt>
      <trkpt lat="45.76666" lon="4.65084">
        <ele>484</ele>
        <time>2012-12-29T10:39:09Z</time>
      </trkpt>
      <trkpt lat="45.76668" lon="4.65104">
        <ele>483</ele>
        <time>2012-12-29T10:39:20Z</time>
      </trkpt>
      <trkpt lat="45.7667" lon="4.65107">
        <ele>483</ele>
        <time>2012-12-29T10:39:23Z</time>
      </trkpt>
      <trkpt lat="45.76672" lon="4.65109">
        <ele>483</ele>
        <time>2012-12-29T10:39:26Z</time>
      </trkpt>
      <trkpt lat="45.76676" lon="4.65116">
        <ele>482</ele>
        <time>2012-12-29T10:39:35Z</time>
      </trkpt>
      <trkpt lat="45.7668" lon="4.65125">
        <ele>482</ele>
        <time>2012-12-29T10:39:45Z</time>
      </trkpt>
      <trkpt lat="45.76681" lon="4.65129">
        <ele>482</ele>
        <time>2012-12-29T10:39:53Z</time>
      </trkpt>
      <trkpt lat="45.76682" lon="4.6513">
        <ele>482</ele>
        <time>2012-12-29T10:40:01Z</time>
      </trkpt>
      <trkpt lat="45.76682" lon="4.65133">
        <ele>482</ele>
        <time>2012-12-29T10:40:05Z</time>
      </trkpt>
      <trkpt lat="45.76679" lon="4.65145">
        <ele>481</ele>
        <time>2012-12-29T10:40:13Z</time>
      </trkpt>
      <trkpt lat="45.76677" lon="4.65148">
        <ele>481</ele>
        <time>2012-12-29T10:40:30Z</time>
      </trkpt>
      <trkpt lat="45.76677" lon="4.65148">
        <ele>481</ele>
        <time>2012-12-29T10:40:43Z</time>
      </trkpt>
      <trkpt lat="45.76679" lon="4.65158">
        <ele>481</ele>
        <time>2012-12-29T10:40:51Z</time>
      </trkpt>
      <trkpt lat="45.76674" lon="4.65173">
        <ele>480</ele>
        <time>2012-12-29T10:41:02Z</time>
      </trkpt>
    </trkseg>
  </trk>
</gpx>